<?xml version="1.0" encoding="UTF-8" standalone="no" ?>
<gpx xmlns="http://www.topografix.com/GPX/1/1" xmlns:xsi="http://www.w3.org/2001/XMLSchema-instance" xsi:schemaLocation="http://www.topografix.com/GPX/1/1 http://www.topografix.com/GPX/1/1/gpx.xsd" version="1.1" creator="VisuGPX - https://www.visugpx.com">
  <metadata>
    <name>Trail des Merveilles</name>
    <desc><![CDATA[6 mars 2011
20km, 1000m D ]]></desc>
  </metadata>
  <trk>
    <name><![CDATA[Trail des Merveilles]]></name>
    <cmt><![CDATA[46e sur 207]]></cmt>
    <trkseg>
      <trkpt lat="43.93661" lon="7.51255">
        <ele>287.57000732422</ele>
        <time>2011-03-06T08:32:10Z</time>
      </trkpt>
      <trkpt lat="43.93665" lon="7.51254">
        <ele>287.08999633789</ele>
        <time>2011-03-06T08:32:14Z</time>
      </trkpt>
      <trkpt lat="43.93677" lon="7.51252">
        <ele>287.08999633789</ele>
        <time>2011-03-06T08:32:17Z</time>
      </trkpt>
      <trkpt lat="43.9372" lon="7.51244">
        <ele>285.64999389648</ele>
        <time>2011-03-06T08:32:28Z</time>
      </trkpt>
      <trkpt lat="43.93758" lon="7.51253">
        <ele>287.57000732422</ele>
        <time>2011-03-06T08:32:40Z</time>
      </trkpt>
      <trkpt lat="43.93788" lon="7.51262">
        <ele>290.94000244141</ele>
        <time>2011-03-06T08:32:50Z</time>
      </trkpt>
      <trkpt lat="43.93818" lon="7.51278">
        <ele>294.29998779297</ele>
        <time>2011-03-06T08:33:00Z</time>
      </trkpt>
      <trkpt lat="43.93845" lon="7.5129">
        <ele>293.33999633789</ele>
        <time>2011-03-06T08:33:09Z</time>
      </trkpt>
      <trkpt lat="43.93865" lon="7.51285">
        <ele>295.73999023438</ele>
        <time>2011-03-06T08:33:16Z</time>
      </trkpt>
      <trkpt lat="43.93878" lon="7.51269">
        <ele>299.10998535156</ele>
        <time>2011-03-06T08:33:23Z</time>
      </trkpt>
      <trkpt lat="43.93887" lon="7.51255">
        <ele>300.07000732422</ele>
        <time>2011-03-06T08:33:27Z</time>
      </trkpt>
      <trkpt lat="43.93875" lon="7.51237">
        <ele>301.51000976562</ele>
        <time>2011-03-06T08:33:34Z</time>
      </trkpt>
      <trkpt lat="43.9384" lon="7.51218">
        <ele>304.88000488281</ele>
        <time>2011-03-06T08:33:47Z</time>
      </trkpt>
      <trkpt lat="43.93805" lon="7.51194">
        <ele>306.32000732422</ele>
        <time>2011-03-06T08:34:00Z</time>
      </trkpt>
      <trkpt lat="43.93776" lon="7.51187">
        <ele>309.20001220703</ele>
        <time>2011-03-06T08:34:10Z</time>
      </trkpt>
      <trkpt lat="43.93755" lon="7.51177">
        <ele>312.57000732422</ele>
        <time>2011-03-06T08:34:20Z</time>
      </trkpt>
      <trkpt lat="43.93752" lon="7.51169">
        <ele>314.01000976562</ele>
        <time>2011-03-06T08:34:23Z</time>
      </trkpt>
      <trkpt lat="43.93746" lon="7.51163">
        <ele>315.92999267578</ele>
        <time>2011-03-06T08:34:27Z</time>
      </trkpt>
      <trkpt lat="43.93734" lon="7.51157">
        <ele>319.29998779297</ele>
        <time>2011-03-06T08:34:34Z</time>
      </trkpt>
      <trkpt lat="43.93725" lon="7.51151">
        <ele>320.73999023438</ele>
        <time>2011-03-06T08:34:39Z</time>
      </trkpt>
      <trkpt lat="43.93715" lon="7.51145">
        <ele>322.66000366211</ele>
        <time>2011-03-06T08:34:44Z</time>
      </trkpt>
      <trkpt lat="43.93702" lon="7.51134">
        <ele>326.01998901367</ele>
        <time>2011-03-06T08:34:51Z</time>
      </trkpt>
      <trkpt lat="43.93686" lon="7.51116">
        <ele>329.39001464844</ele>
        <time>2011-03-06T08:35:01Z</time>
      </trkpt>
      <trkpt lat="43.93681" lon="7.51114">
        <ele>330.82998657227</ele>
        <time>2011-03-06T08:35:03Z</time>
      </trkpt>
      <trkpt lat="43.93679" lon="7.51105">
        <ele>332.26998901367</ele>
        <time>2011-03-06T08:35:08Z</time>
      </trkpt>
      <trkpt lat="43.93683" lon="7.51099">
        <ele>333.70999145508</ele>
        <time>2011-03-06T08:35:11Z</time>
      </trkpt>
      <trkpt lat="43.93694" lon="7.51089">
        <ele>335.64001464844</ele>
        <time>2011-03-06T08:35:18Z</time>
      </trkpt>
      <trkpt lat="43.93702" lon="7.5108">
        <ele>338.04000854492</ele>
        <time>2011-03-06T08:35:25Z</time>
      </trkpt>
      <trkpt lat="43.93705" lon="7.51075">
        <ele>339.48001098633</ele>
        <time>2011-03-06T08:35:28Z</time>
      </trkpt>
      <trkpt lat="43.93717" lon="7.51054">
        <ele>342.85000610352</ele>
        <time>2011-03-06T08:35:37Z</time>
      </trkpt>
      <trkpt lat="43.93726" lon="7.51044">
        <ele>344.29000854492</ele>
        <time>2011-03-06T08:35:43Z</time>
      </trkpt>
      <trkpt lat="43.93731" lon="7.51039">
        <ele>345.25</ele>
        <time>2011-03-06T08:35:46Z</time>
      </trkpt>
      <trkpt lat="43.93758" lon="7.51049">
        <ele>348.13000488281</ele>
        <time>2011-03-06T08:36:00Z</time>
      </trkpt>
      <trkpt lat="43.93782" lon="7.51027">
        <ele>350.05999755859</ele>
        <time>2011-03-06T08:36:13Z</time>
      </trkpt>
      <trkpt lat="43.93787" lon="7.51009">
        <ele>353.42001342773</ele>
        <time>2011-03-06T08:36:20Z</time>
      </trkpt>
      <trkpt lat="43.93791" lon="7.50979">
        <ele>354.85998535156</ele>
        <time>2011-03-06T08:36:31Z</time>
      </trkpt>
      <trkpt lat="43.93794" lon="7.50947">
        <ele>356.79000854492</ele>
        <time>2011-03-06T08:36:41Z</time>
      </trkpt>
      <trkpt lat="43.93794" lon="7.50944">
        <ele>358.23001098633</ele>
        <time>2011-03-06T08:36:42Z</time>
      </trkpt>
      <trkpt lat="43.93796" lon="7.50934">
        <ele>358.70999145508</ele>
        <time>2011-03-06T08:36:45Z</time>
      </trkpt>
      <trkpt lat="43.93784" lon="7.50895">
        <ele>362.54998779297</ele>
        <time>2011-03-06T08:37:00Z</time>
      </trkpt>
      <trkpt lat="43.93764" lon="7.50872">
        <ele>365.92001342773</ele>
        <time>2011-03-06T08:37:13Z</time>
      </trkpt>
      <trkpt lat="43.93776" lon="7.50845">
        <ele>367.35998535156</ele>
        <time>2011-03-06T08:37:23Z</time>
      </trkpt>
      <trkpt lat="43.93799" lon="7.50808">
        <ele>369.2799987793</ele>
        <time>2011-03-06T08:37:36Z</time>
      </trkpt>
      <trkpt lat="43.93812" lon="7.50779">
        <ele>373.13000488281</ele>
        <time>2011-03-06T08:37:48Z</time>
      </trkpt>
      <trkpt lat="43.93825" lon="7.50745">
        <ele>375.04998779297</ele>
        <time>2011-03-06T08:38:01Z</time>
      </trkpt>
      <trkpt lat="43.93827" lon="7.50736">
        <ele>376.48999023438</ele>
        <time>2011-03-06T08:38:04Z</time>
      </trkpt>
      <trkpt lat="43.93829" lon="7.50722">
        <ele>377.94000244141</ele>
        <time>2011-03-06T08:38:08Z</time>
      </trkpt>
      <trkpt lat="43.9384" lon="7.50681">
        <ele>379.38000488281</ele>
        <time>2011-03-06T08:38:21Z</time>
      </trkpt>
      <trkpt lat="43.93843" lon="7.50665">
        <ele>380.82000732422</ele>
        <time>2011-03-06T08:38:26Z</time>
      </trkpt>
      <trkpt lat="43.93844" lon="7.50644">
        <ele>383.2200012207</ele>
        <time>2011-03-06T08:38:33Z</time>
      </trkpt>
      <trkpt lat="43.93827" lon="7.50622">
        <ele>385.63000488281</ele>
        <time>2011-03-06T08:38:44Z</time>
      </trkpt>
      <trkpt lat="43.93826" lon="7.5059">
        <ele>387.54998779297</ele>
        <time>2011-03-06T08:38:54Z</time>
      </trkpt>
      <trkpt lat="43.93848" lon="7.5058">
        <ele>390.42999267578</ele>
        <time>2011-03-06T08:39:05Z</time>
      </trkpt>
      <trkpt lat="43.9385" lon="7.50578">
        <ele>389.95001220703</ele>
        <time>2011-03-06T08:39:06Z</time>
      </trkpt>
      <trkpt lat="43.93854" lon="7.50549">
        <ele>393.32000732422</ele>
        <time>2011-03-06T08:39:15Z</time>
      </trkpt>
      <trkpt lat="43.93855" lon="7.50538">
        <ele>394.2799987793</ele>
        <time>2011-03-06T08:39:18Z</time>
      </trkpt>
      <trkpt lat="43.93858" lon="7.50507">
        <ele>397.64001464844</ele>
        <time>2011-03-06T08:39:29Z</time>
      </trkpt>
      <trkpt lat="43.93858" lon="7.50505">
        <ele>397.64001464844</ele>
        <time>2011-03-06T08:39:30Z</time>
      </trkpt>
      <trkpt lat="43.93859" lon="7.50498">
        <ele>398.60000610352</ele>
        <time>2011-03-06T08:39:33Z</time>
      </trkpt>
      <trkpt lat="43.93853" lon="7.50461">
        <ele>401.48999023438</ele>
        <time>2011-03-06T08:39:46Z</time>
      </trkpt>
      <trkpt lat="43.93841" lon="7.50424">
        <ele>403.89001464844</ele>
        <time>2011-03-06T08:39:58Z</time>
      </trkpt>
      <trkpt lat="43.9383" lon="7.50383">
        <ele>405.32998657227</ele>
        <time>2011-03-06T08:40:11Z</time>
      </trkpt>
      <trkpt lat="43.93834" lon="7.5036">
        <ele>407.73999023438</ele>
        <time>2011-03-06T08:40:18Z</time>
      </trkpt>
      <trkpt lat="43.93829" lon="7.50347">
        <ele>409.17999267578</ele>
        <time>2011-03-06T08:40:24Z</time>
      </trkpt>
      <trkpt lat="43.93805" lon="7.50316">
        <ele>410.14001464844</ele>
        <time>2011-03-06T08:40:36Z</time>
      </trkpt>
      <trkpt lat="43.93799" lon="7.50304">
        <ele>412.54000854492</ele>
        <time>2011-03-06T08:40:41Z</time>
      </trkpt>
      <trkpt lat="43.93776" lon="7.5027">
        <ele>415.42999267578</ele>
        <time>2011-03-06T08:40:55Z</time>
      </trkpt>
      <trkpt lat="43.93761" lon="7.50241">
        <ele>416.86999511719</ele>
        <time>2011-03-06T08:41:07Z</time>
      </trkpt>
      <trkpt lat="43.93756" lon="7.5022">
        <ele>418.30999755859</ele>
        <time>2011-03-06T08:41:14Z</time>
      </trkpt>
      <trkpt lat="43.93753" lon="7.50215">
        <ele>419.75</ele>
        <time>2011-03-06T08:41:17Z</time>
      </trkpt>
      <trkpt lat="43.93752" lon="7.50213">
        <ele>420.23001098633</ele>
        <time>2011-03-06T08:41:18Z</time>
      </trkpt>
      <trkpt lat="43.93741" lon="7.50206">
        <ele>423.60000610352</ele>
        <time>2011-03-06T08:41:25Z</time>
      </trkpt>
      <trkpt lat="43.9374" lon="7.50204">
        <ele>423.11999511719</ele>
        <time>2011-03-06T08:41:26Z</time>
      </trkpt>
      <trkpt lat="43.93737" lon="7.502">
        <ele>425.04000854492</ele>
        <time>2011-03-06T08:41:30Z</time>
      </trkpt>
      <trkpt lat="43.93732" lon="7.50195">
        <ele>427.92001342773</ele>
        <time>2011-03-06T08:41:35Z</time>
      </trkpt>
      <trkpt lat="43.93719" lon="7.50186">
        <ele>428.39999389648</ele>
        <time>2011-03-06T08:41:45Z</time>
      </trkpt>
      <trkpt lat="43.9371" lon="7.50186">
        <ele>429.36999511719</ele>
        <time>2011-03-06T08:41:52Z</time>
      </trkpt>
      <trkpt lat="43.93704" lon="7.50189">
        <ele>431.29000854492</ele>
        <time>2011-03-06T08:41:57Z</time>
      </trkpt>
      <trkpt lat="43.93697" lon="7.50192">
        <ele>433.20999145508</ele>
        <time>2011-03-06T08:42:01Z</time>
      </trkpt>
      <trkpt lat="43.93682" lon="7.50192">
        <ele>436.57998657227</ele>
        <time>2011-03-06T08:42:10Z</time>
      </trkpt>
      <trkpt lat="43.93681" lon="7.50193">
        <ele>437.05999755859</ele>
        <time>2011-03-06T08:42:11Z</time>
      </trkpt>
      <trkpt lat="43.93666" lon="7.50195">
        <ele>439.94000244141</ele>
        <time>2011-03-06T08:42:22Z</time>
      </trkpt>
      <trkpt lat="43.93661" lon="7.50192">
        <ele>441.38000488281</ele>
        <time>2011-03-06T08:42:26Z</time>
      </trkpt>
      <trkpt lat="43.93649" lon="7.50189">
        <ele>444.75</ele>
        <time>2011-03-06T08:42:38Z</time>
      </trkpt>
      <trkpt lat="43.93644" lon="7.50184">
        <ele>445.70999145508</ele>
        <time>2011-03-06T08:42:44Z</time>
      </trkpt>
      <trkpt lat="43.93639" lon="7.50183">
        <ele>447.14999389648</ele>
        <time>2011-03-06T08:42:48Z</time>
      </trkpt>
      <trkpt lat="43.93634" lon="7.50182">
        <ele>448.10998535156</ele>
        <time>2011-03-06T08:42:52Z</time>
      </trkpt>
      <trkpt lat="43.9363" lon="7.50181">
        <ele>449.07000732422</ele>
        <time>2011-03-06T08:42:55Z</time>
      </trkpt>
      <trkpt lat="43.93623" lon="7.50178">
        <ele>449.54998779297</ele>
        <time>2011-03-06T08:43:00Z</time>
      </trkpt>
      <trkpt lat="43.9362" lon="7.50164">
        <ele>452.44000244141</ele>
        <time>2011-03-06T08:43:09Z</time>
      </trkpt>
      <trkpt lat="43.93618" lon="7.50163">
        <ele>452.92001342773</ele>
        <time>2011-03-06T08:43:11Z</time>
      </trkpt>
      <trkpt lat="43.93613" lon="7.50164">
        <ele>454.35998535156</ele>
        <time>2011-03-06T08:43:14Z</time>
      </trkpt>
      <trkpt lat="43.93611" lon="7.50164">
        <ele>455.32000732422</ele>
        <time>2011-03-06T08:43:15Z</time>
      </trkpt>
      <trkpt lat="43.93608" lon="7.50165">
        <ele>455.79998779297</ele>
        <time>2011-03-06T08:43:17Z</time>
      </trkpt>
      <trkpt lat="43.93599" lon="7.50165">
        <ele>458.69000244141</ele>
        <time>2011-03-06T08:43:25Z</time>
      </trkpt>
      <trkpt lat="43.93596" lon="7.50165">
        <ele>459.17001342773</ele>
        <time>2011-03-06T08:43:28Z</time>
      </trkpt>
      <trkpt lat="43.93592" lon="7.50167">
        <ele>460.60998535156</ele>
        <time>2011-03-06T08:43:32Z</time>
      </trkpt>
      <trkpt lat="43.93587" lon="7.50169">
        <ele>462.5299987793</ele>
        <time>2011-03-06T08:43:36Z</time>
      </trkpt>
      <trkpt lat="43.93584" lon="7.50169">
        <ele>462.5299987793</ele>
        <time>2011-03-06T08:43:38Z</time>
      </trkpt>
      <trkpt lat="43.93579" lon="7.50168">
        <ele>463.01000976562</ele>
        <time>2011-03-06T08:43:42Z</time>
      </trkpt>
      <trkpt lat="43.93567" lon="7.50168">
        <ele>467.33999633789</ele>
        <time>2011-03-06T08:43:54Z</time>
      </trkpt>
      <trkpt lat="43.93562" lon="7.50167">
        <ele>470.2200012207</ele>
        <time>2011-03-06T08:44:02Z</time>
      </trkpt>
      <trkpt lat="43.93561" lon="7.50168">
        <ele>470.70001220703</ele>
        <time>2011-03-06T08:44:03Z</time>
      </trkpt>
      <trkpt lat="43.9356" lon="7.50158">
        <ele>473.58999633789</ele>
        <time>2011-03-06T08:44:13Z</time>
      </trkpt>
      <trkpt lat="43.93561" lon="7.50156">
        <ele>474.07000732422</ele>
        <time>2011-03-06T08:44:14Z</time>
      </trkpt>
      <trkpt lat="43.93561" lon="7.50152">
        <ele>475.0299987793</ele>
        <time>2011-03-06T08:44:17Z</time>
      </trkpt>
      <trkpt lat="43.93562" lon="7.50143">
        <ele>476.95001220703</ele>
        <time>2011-03-06T08:44:22Z</time>
      </trkpt>
      <trkpt lat="43.93565" lon="7.50136">
        <ele>478.39001464844</ele>
        <time>2011-03-06T08:44:29Z</time>
      </trkpt>
      <trkpt lat="43.93558" lon="7.50139">
        <ele>480.79998779297</ele>
        <time>2011-03-06T08:44:36Z</time>
      </trkpt>
      <trkpt lat="43.93557" lon="7.50142">
        <ele>481.2799987793</ele>
        <time>2011-03-06T08:44:38Z</time>
      </trkpt>
      <trkpt lat="43.93549" lon="7.50151">
        <ele>481.76000976562</ele>
        <time>2011-03-06T08:44:43Z</time>
      </trkpt>
      <trkpt lat="43.93539" lon="7.50153">
        <ele>483.20001220703</ele>
        <time>2011-03-06T08:44:48Z</time>
      </trkpt>
      <trkpt lat="43.93533" lon="7.50155">
        <ele>485.11999511719</ele>
        <time>2011-03-06T08:44:51Z</time>
      </trkpt>
      <trkpt lat="43.93519" lon="7.50167">
        <ele>487.04998779297</ele>
        <time>2011-03-06T08:45:00Z</time>
      </trkpt>
      <trkpt lat="43.93499" lon="7.5017">
        <ele>490.89001464844</ele>
        <time>2011-03-06T08:45:10Z</time>
      </trkpt>
      <trkpt lat="43.93492" lon="7.50171">
        <ele>491.85000610352</ele>
        <time>2011-03-06T08:45:14Z</time>
      </trkpt>
      <trkpt lat="43.93471" lon="7.50177">
        <ele>495.70001220703</ele>
        <time>2011-03-06T08:45:26Z</time>
      </trkpt>
      <trkpt lat="43.93465" lon="7.50177">
        <ele>496.17999267578</ele>
        <time>2011-03-06T08:45:30Z</time>
      </trkpt>
      <trkpt lat="43.93458" lon="7.50182">
        <ele>497.14001464844</ele>
        <time>2011-03-06T08:45:34Z</time>
      </trkpt>
      <trkpt lat="43.93452" lon="7.50184">
        <ele>498.57998657227</ele>
        <time>2011-03-06T08:45:38Z</time>
      </trkpt>
      <trkpt lat="43.93448" lon="7.50184">
        <ele>499.54000854492</ele>
        <time>2011-03-06T08:45:41Z</time>
      </trkpt>
      <trkpt lat="43.93439" lon="7.50187">
        <ele>501.95001220703</ele>
        <time>2011-03-06T08:45:47Z</time>
      </trkpt>
      <trkpt lat="43.93426" lon="7.50197">
        <ele>504.82998657227</ele>
        <time>2011-03-06T08:45:59Z</time>
      </trkpt>
      <trkpt lat="43.9342" lon="7.50189">
        <ele>506.26998901367</ele>
        <time>2011-03-06T08:46:03Z</time>
      </trkpt>
      <trkpt lat="43.93415" lon="7.50178">
        <ele>507.23001098633</ele>
        <time>2011-03-06T08:46:07Z</time>
      </trkpt>
      <trkpt lat="43.93412" lon="7.50174">
        <ele>508.19000244141</ele>
        <time>2011-03-06T08:46:09Z</time>
      </trkpt>
      <trkpt lat="43.93409" lon="7.50168">
        <ele>507.70999145508</ele>
        <time>2011-03-06T08:46:11Z</time>
      </trkpt>
      <trkpt lat="43.93406" lon="7.50158">
        <ele>509.64001464844</ele>
        <time>2011-03-06T08:46:14Z</time>
      </trkpt>
      <trkpt lat="43.93402" lon="7.50152">
        <ele>511.07998657227</ele>
        <time>2011-03-06T08:46:18Z</time>
      </trkpt>
      <trkpt lat="43.93402" lon="7.50152">
        <ele>512.03997802734</ele>
        <time>2011-03-06T08:46:19Z</time>
      </trkpt>
      <trkpt lat="43.93404" lon="7.50155">
        <ele>513</ele>
        <time>2011-03-06T08:46:23Z</time>
      </trkpt>
      <trkpt lat="43.93405" lon="7.50156">
        <ele>513</ele>
        <time>2011-03-06T08:46:24Z</time>
      </trkpt>
      <trkpt lat="43.93403" lon="7.50157">
        <ele>514.44000244141</ele>
        <time>2011-03-06T08:46:28Z</time>
      </trkpt>
      <trkpt lat="43.93396" lon="7.50153">
        <ele>517.33001708984</ele>
        <time>2011-03-06T08:46:37Z</time>
      </trkpt>
      <trkpt lat="43.93393" lon="7.50142">
        <ele>519.25</ele>
        <time>2011-03-06T08:46:43Z</time>
      </trkpt>
      <trkpt lat="43.93391" lon="7.50129">
        <ele>522.13000488281</ele>
        <time>2011-03-06T08:46:52Z</time>
      </trkpt>
      <trkpt lat="43.93393" lon="7.5013">
        <ele>523.58001708984</ele>
        <time>2011-03-06T08:46:56Z</time>
      </trkpt>
      <trkpt lat="43.93395" lon="7.50127">
        <ele>526.94000244141</ele>
        <time>2011-03-06T08:47:07Z</time>
      </trkpt>
      <trkpt lat="43.93391" lon="7.50119">
        <ele>528.38000488281</ele>
        <time>2011-03-06T08:47:12Z</time>
      </trkpt>
      <trkpt lat="43.9339" lon="7.50118">
        <ele>529.34002685547</ele>
        <time>2011-03-06T08:47:14Z</time>
      </trkpt>
      <trkpt lat="43.93383" lon="7.50117">
        <ele>531.27001953125</ele>
        <time>2011-03-06T08:47:20Z</time>
      </trkpt>
      <trkpt lat="43.93384" lon="7.50119">
        <ele>532.71002197266</ele>
        <time>2011-03-06T08:47:24Z</time>
      </trkpt>
      <trkpt lat="43.93389" lon="7.50125">
        <ele>533.66998291016</ele>
        <time>2011-03-06T08:47:29Z</time>
      </trkpt>
      <trkpt lat="43.93384" lon="7.50127">
        <ele>533.66998291016</ele>
        <time>2011-03-06T08:47:32Z</time>
      </trkpt>
      <trkpt lat="43.93378" lon="7.50148">
        <ele>532.71002197266</ele>
        <time>2011-03-06T08:47:41Z</time>
      </trkpt>
      <trkpt lat="43.9339" lon="7.50136">
        <ele>533.19000244141</ele>
        <time>2011-03-06T08:47:47Z</time>
      </trkpt>
      <trkpt lat="43.93404" lon="7.5014">
        <ele>534.15002441406</ele>
        <time>2011-03-06T08:47:55Z</time>
      </trkpt>
      <trkpt lat="43.93422" lon="7.50142">
        <ele>536.07000732422</ele>
        <time>2011-03-06T08:48:04Z</time>
      </trkpt>
      <trkpt lat="43.93428" lon="7.50144">
        <ele>536.54998779297</ele>
        <time>2011-03-06T08:48:07Z</time>
      </trkpt>
      <trkpt lat="43.93438" lon="7.50159">
        <ele>538.47998046875</ele>
        <time>2011-03-06T08:48:15Z</time>
      </trkpt>
      <trkpt lat="43.93441" lon="7.50159">
        <ele>537.03002929688</ele>
        <time>2011-03-06T08:48:17Z</time>
      </trkpt>
      <trkpt lat="43.93444" lon="7.50161">
        <ele>538.47998046875</ele>
        <time>2011-03-06T08:48:19Z</time>
      </trkpt>
      <trkpt lat="43.93453" lon="7.5018">
        <ele>540.40002441406</ele>
        <time>2011-03-06T08:48:25Z</time>
      </trkpt>
      <trkpt lat="43.93464" lon="7.50185">
        <ele>541.35998535156</ele>
        <time>2011-03-06T08:48:29Z</time>
      </trkpt>
      <trkpt lat="43.93474" lon="7.50196">
        <ele>542.32000732422</ele>
        <time>2011-03-06T08:48:36Z</time>
      </trkpt>
      <trkpt lat="43.93486" lon="7.50201">
        <ele>541.84002685547</ele>
        <time>2011-03-06T08:48:42Z</time>
      </trkpt>
      <trkpt lat="43.93494" lon="7.50205">
        <ele>541.84002685547</ele>
        <time>2011-03-06T08:48:45Z</time>
      </trkpt>
      <trkpt lat="43.93501" lon="7.50208">
        <ele>542.32000732422</ele>
        <time>2011-03-06T08:48:49Z</time>
      </trkpt>
      <trkpt lat="43.93507" lon="7.5023">
        <ele>543.28002929688</ele>
        <time>2011-03-06T08:48:56Z</time>
      </trkpt>
      <trkpt lat="43.93514" lon="7.50255">
        <ele>544.71997070312</ele>
        <time>2011-03-06T08:49:05Z</time>
      </trkpt>
      <trkpt lat="43.93515" lon="7.50257">
        <ele>545.69000244141</ele>
        <time>2011-03-06T08:49:06Z</time>
      </trkpt>
      <trkpt lat="43.93523" lon="7.50264">
        <ele>545.20001220703</ele>
        <time>2011-03-06T08:49:11Z</time>
      </trkpt>
      <trkpt lat="43.93548" lon="7.50267">
        <ele>545.69000244141</ele>
        <time>2011-03-06T08:49:21Z</time>
      </trkpt>
      <trkpt lat="43.93554" lon="7.50269">
        <ele>546.65002441406</ele>
        <time>2011-03-06T08:49:24Z</time>
      </trkpt>
      <trkpt lat="43.93566" lon="7.50267">
        <ele>548.09002685547</ele>
        <time>2011-03-06T08:49:30Z</time>
      </trkpt>
      <trkpt lat="43.93574" lon="7.50266">
        <ele>550.01000976562</ele>
        <time>2011-03-06T08:49:35Z</time>
      </trkpt>
      <trkpt lat="43.93581" lon="7.50276">
        <ele>548.09002685547</ele>
        <time>2011-03-06T08:49:38Z</time>
      </trkpt>
      <trkpt lat="43.93587" lon="7.503">
        <ele>549.04998779297</ele>
        <time>2011-03-06T08:49:43Z</time>
      </trkpt>
      <trkpt lat="43.93565" lon="7.50325">
        <ele>550.96997070312</ele>
        <time>2011-03-06T08:49:56Z</time>
      </trkpt>
      <trkpt lat="43.93549" lon="7.50334">
        <ele>554.34002685547</ele>
        <time>2011-03-06T08:50:04Z</time>
      </trkpt>
      <trkpt lat="43.93542" lon="7.50332">
        <ele>555.29998779297</ele>
        <time>2011-03-06T08:50:08Z</time>
      </trkpt>
      <trkpt lat="43.93532" lon="7.50327">
        <ele>556.73999023438</ele>
        <time>2011-03-06T08:50:14Z</time>
      </trkpt>
      <trkpt lat="43.93516" lon="7.50323">
        <ele>559.14001464844</ele>
        <time>2011-03-06T08:50:25Z</time>
      </trkpt>
      <trkpt lat="43.9351" lon="7.50316">
        <ele>561.07000732422</ele>
        <time>2011-03-06T08:50:29Z</time>
      </trkpt>
      <trkpt lat="43.93504" lon="7.50315">
        <ele>562.03002929688</ele>
        <time>2011-03-06T08:50:33Z</time>
      </trkpt>
      <trkpt lat="43.93497" lon="7.50315">
        <ele>562.98999023438</ele>
        <time>2011-03-06T08:50:37Z</time>
      </trkpt>
      <trkpt lat="43.93488" lon="7.50308">
        <ele>565.39001464844</ele>
        <time>2011-03-06T08:50:47Z</time>
      </trkpt>
      <trkpt lat="43.9348" lon="7.50296">
        <ele>566.83001708984</ele>
        <time>2011-03-06T08:50:54Z</time>
      </trkpt>
      <trkpt lat="43.93478" lon="7.50294">
        <ele>567.32000732422</ele>
        <time>2011-03-06T08:50:56Z</time>
      </trkpt>
      <trkpt lat="43.93475" lon="7.5029">
        <ele>567.79998779297</ele>
        <time>2011-03-06T08:50:58Z</time>
      </trkpt>
      <trkpt lat="43.93469" lon="7.50284">
        <ele>568.76000976562</ele>
        <time>2011-03-06T08:51:01Z</time>
      </trkpt>
      <trkpt lat="43.93457" lon="7.50279">
        <ele>570.67999267578</ele>
        <time>2011-03-06T08:51:09Z</time>
      </trkpt>
      <trkpt lat="43.93453" lon="7.50277">
        <ele>571.64001464844</ele>
        <time>2011-03-06T08:51:12Z</time>
      </trkpt>
      <trkpt lat="43.93449" lon="7.50274">
        <ele>573.08001708984</ele>
        <time>2011-03-06T08:51:15Z</time>
      </trkpt>
      <trkpt lat="43.93439" lon="7.50265">
        <ele>575.01000976562</ele>
        <time>2011-03-06T08:51:27Z</time>
      </trkpt>
      <trkpt lat="43.93437" lon="7.50266">
        <ele>576.45001220703</ele>
        <time>2011-03-06T08:51:30Z</time>
      </trkpt>
      <trkpt lat="43.93431" lon="7.5027">
        <ele>576.45001220703</ele>
        <time>2011-03-06T08:51:35Z</time>
      </trkpt>
      <trkpt lat="43.93424" lon="7.5027">
        <ele>577.89001464844</ele>
        <time>2011-03-06T08:51:39Z</time>
      </trkpt>
      <trkpt lat="43.93416" lon="7.50262">
        <ele>578.84997558594</ele>
        <time>2011-03-06T08:51:44Z</time>
      </trkpt>
      <trkpt lat="43.93402" lon="7.50256">
        <ele>582.70001220703</ele>
        <time>2011-03-06T08:51:54Z</time>
      </trkpt>
      <trkpt lat="43.934" lon="7.50254">
        <ele>583.65997314453</ele>
        <time>2011-03-06T08:51:56Z</time>
      </trkpt>
      <trkpt lat="43.93388" lon="7.50249">
        <ele>584.61999511719</ele>
        <time>2011-03-06T08:52:04Z</time>
      </trkpt>
      <trkpt lat="43.93382" lon="7.50246">
        <ele>586.05999755859</ele>
        <time>2011-03-06T08:52:08Z</time>
      </trkpt>
      <trkpt lat="43.93373" lon="7.50241">
        <ele>587.5</ele>
        <time>2011-03-06T08:52:19Z</time>
      </trkpt>
      <trkpt lat="43.93374" lon="7.50261">
        <ele>591.34997558594</ele>
        <time>2011-03-06T08:52:35Z</time>
      </trkpt>
      <trkpt lat="43.93373" lon="7.50268">
        <ele>592.30999755859</ele>
        <time>2011-03-06T08:52:41Z</time>
      </trkpt>
      <trkpt lat="43.93369" lon="7.50288">
        <ele>595.66998291016</ele>
        <time>2011-03-06T08:52:55Z</time>
      </trkpt>
      <trkpt lat="43.93367" lon="7.50309">
        <ele>598.55999755859</ele>
        <time>2011-03-06T08:53:08Z</time>
      </trkpt>
      <trkpt lat="43.93367" lon="7.5031">
        <ele>599.03997802734</ele>
        <time>2011-03-06T08:53:09Z</time>
      </trkpt>
      <trkpt lat="43.93363" lon="7.50323">
        <ele>602.40002441406</ele>
        <time>2011-03-06T08:53:22Z</time>
      </trkpt>
      <trkpt lat="43.93357" lon="7.50332">
        <ele>604.80999755859</ele>
        <time>2011-03-06T08:53:32Z</time>
      </trkpt>
      <trkpt lat="43.93351" lon="7.50345">
        <ele>607.69000244141</ele>
        <time>2011-03-06T08:53:45Z</time>
      </trkpt>
      <trkpt lat="43.93349" lon="7.5036">
        <ele>610.09002685547</ele>
        <time>2011-03-06T08:53:57Z</time>
      </trkpt>
      <trkpt lat="43.93341" lon="7.50386">
        <ele>613.46002197266</ele>
        <time>2011-03-06T08:54:11Z</time>
      </trkpt>
      <trkpt lat="43.93339" lon="7.50392">
        <ele>612.97998046875</ele>
        <time>2011-03-06T08:54:13Z</time>
      </trkpt>
      <trkpt lat="43.93336" lon="7.50398">
        <ele>613.94000244141</ele>
        <time>2011-03-06T08:54:15Z</time>
      </trkpt>
      <trkpt lat="43.93334" lon="7.50418">
        <ele>617.29998779297</ele>
        <time>2011-03-06T08:54:23Z</time>
      </trkpt>
      <trkpt lat="43.93338" lon="7.50444">
        <ele>619.22998046875</ele>
        <time>2011-03-06T08:54:34Z</time>
      </trkpt>
      <trkpt lat="43.93343" lon="7.50457">
        <ele>622.10998535156</ele>
        <time>2011-03-06T08:54:42Z</time>
      </trkpt>
      <trkpt lat="43.93341" lon="7.50477">
        <ele>625.46997070312</ele>
        <time>2011-03-06T08:54:55Z</time>
      </trkpt>
      <trkpt lat="43.93349" lon="7.50496">
        <ele>628.35998535156</ele>
        <time>2011-03-06T08:55:07Z</time>
      </trkpt>
      <trkpt lat="43.9335" lon="7.50497">
        <ele>627.88000488281</ele>
        <time>2011-03-06T08:55:08Z</time>
      </trkpt>
      <trkpt lat="43.93351" lon="7.50498">
        <ele>628.35998535156</ele>
        <time>2011-03-06T08:55:09Z</time>
      </trkpt>
      <trkpt lat="43.93353" lon="7.50503">
        <ele>629.79998779297</ele>
        <time>2011-03-06T08:55:12Z</time>
      </trkpt>
      <trkpt lat="43.93364" lon="7.50531">
        <ele>633.65002441406</ele>
        <time>2011-03-06T08:55:28Z</time>
      </trkpt>
      <trkpt lat="43.93371" lon="7.50554">
        <ele>636.53002929688</ele>
        <time>2011-03-06T08:55:42Z</time>
      </trkpt>
      <trkpt lat="43.93371" lon="7.50562">
        <ele>637.01000976562</ele>
        <time>2011-03-06T08:55:47Z</time>
      </trkpt>
      <trkpt lat="43.93365" lon="7.50585">
        <ele>640.85998535156</ele>
        <time>2011-03-06T08:56:01Z</time>
      </trkpt>
      <trkpt lat="43.93362" lon="7.50594">
        <ele>643.73999023438</ele>
        <time>2011-03-06T08:56:12Z</time>
      </trkpt>
      <trkpt lat="43.93361" lon="7.50594">
        <ele>644.21997070312</ele>
        <time>2011-03-06T08:56:13Z</time>
      </trkpt>
      <trkpt lat="43.93345" lon="7.50584">
        <ele>647.09997558594</ele>
        <time>2011-03-06T08:56:25Z</time>
      </trkpt>
      <trkpt lat="43.93342" lon="7.50582">
        <ele>647.59002685547</ele>
        <time>2011-03-06T08:56:27Z</time>
      </trkpt>
      <trkpt lat="43.93332" lon="7.50566">
        <ele>650.95001220703</ele>
        <time>2011-03-06T08:56:39Z</time>
      </trkpt>
      <trkpt lat="43.93332" lon="7.50564">
        <ele>650.46997070312</ele>
        <time>2011-03-06T08:56:40Z</time>
      </trkpt>
      <trkpt lat="43.93321" lon="7.50553">
        <ele>654.30999755859</ele>
        <time>2011-03-06T08:56:54Z</time>
      </trkpt>
      <trkpt lat="43.93319" lon="7.50542">
        <ele>656.71997070312</ele>
        <time>2011-03-06T08:57:02Z</time>
      </trkpt>
      <trkpt lat="43.93317" lon="7.5054">
        <ele>656.71997070312</ele>
        <time>2011-03-06T08:57:03Z</time>
      </trkpt>
      <trkpt lat="43.93316" lon="7.50534">
        <ele>658.64001464844</ele>
        <time>2011-03-06T08:57:07Z</time>
      </trkpt>
      <trkpt lat="43.93314" lon="7.50532">
        <ele>658.64001464844</ele>
        <time>2011-03-06T08:57:09Z</time>
      </trkpt>
      <trkpt lat="43.93303" lon="7.50521">
        <ele>662.01000976562</ele>
        <time>2011-03-06T08:57:19Z</time>
      </trkpt>
      <trkpt lat="43.93299" lon="7.50516">
        <ele>662.48999023438</ele>
        <time>2011-03-06T08:57:21Z</time>
      </trkpt>
      <trkpt lat="43.9329" lon="7.505">
        <ele>664.89001464844</ele>
        <time>2011-03-06T08:57:29Z</time>
      </trkpt>
      <trkpt lat="43.93287" lon="7.50497">
        <ele>665.84997558594</ele>
        <time>2011-03-06T08:57:33Z</time>
      </trkpt>
      <trkpt lat="43.9328" lon="7.50494">
        <ele>667.77001953125</ele>
        <time>2011-03-06T08:57:43Z</time>
      </trkpt>
      <trkpt lat="43.93267" lon="7.50489">
        <ele>671.14001464844</ele>
        <time>2011-03-06T08:57:56Z</time>
      </trkpt>
      <trkpt lat="43.93266" lon="7.50474">
        <ele>672.58001708984</ele>
        <time>2011-03-06T08:58:04Z</time>
      </trkpt>
      <trkpt lat="43.93249" lon="7.50447">
        <ele>675.94000244141</ele>
        <time>2011-03-06T08:58:16Z</time>
      </trkpt>
      <trkpt lat="43.93248" lon="7.50446">
        <ele>676.41998291016</ele>
        <time>2011-03-06T08:58:17Z</time>
      </trkpt>
      <trkpt lat="43.93236" lon="7.50442">
        <ele>678.83001708984</ele>
        <time>2011-03-06T08:58:30Z</time>
      </trkpt>
      <trkpt lat="43.93232" lon="7.5044">
        <ele>680.27001953125</ele>
        <time>2011-03-06T08:58:34Z</time>
      </trkpt>
      <trkpt lat="43.93229" lon="7.50424">
        <ele>683.15002441406</ele>
        <time>2011-03-06T08:58:45Z</time>
      </trkpt>
      <trkpt lat="43.93235" lon="7.50417">
        <ele>683.63000488281</ele>
        <time>2011-03-06T08:58:49Z</time>
      </trkpt>
      <trkpt lat="43.93239" lon="7.50386">
        <ele>687</ele>
        <time>2011-03-06T08:58:58Z</time>
      </trkpt>
      <trkpt lat="43.93229" lon="7.50375">
        <ele>690.35998535156</ele>
        <time>2011-03-06T08:59:08Z</time>
      </trkpt>
      <trkpt lat="43.93222" lon="7.50364">
        <ele>693.25</ele>
        <time>2011-03-06T08:59:21Z</time>
      </trkpt>
      <trkpt lat="43.93221" lon="7.50357">
        <ele>693.25</ele>
        <time>2011-03-06T08:59:26Z</time>
      </trkpt>
      <trkpt lat="43.93222" lon="7.50331">
        <ele>698.04998779297</ele>
        <time>2011-03-06T08:59:42Z</time>
      </trkpt>
      <trkpt lat="43.93221" lon="7.50338">
        <ele>701.41998291016</ele>
        <time>2011-03-06T08:59:52Z</time>
      </trkpt>
      <trkpt lat="43.93213" lon="7.50338">
        <ele>704.78002929688</ele>
        <time>2011-03-06T09:00:01Z</time>
      </trkpt>
      <trkpt lat="43.93205" lon="7.50345">
        <ele>708.15002441406</ele>
        <time>2011-03-06T09:00:12Z</time>
      </trkpt>
      <trkpt lat="43.93203" lon="7.50351">
        <ele>709.10998535156</ele>
        <time>2011-03-06T09:00:17Z</time>
      </trkpt>
      <trkpt lat="43.932" lon="7.5036">
        <ele>710.54998779297</ele>
        <time>2011-03-06T09:00:23Z</time>
      </trkpt>
      <trkpt lat="43.932" lon="7.50362">
        <ele>711.03002929688</ele>
        <time>2011-03-06T09:00:25Z</time>
      </trkpt>
      <trkpt lat="43.93201" lon="7.50372">
        <ele>712.46997070312</ele>
        <time>2011-03-06T09:00:33Z</time>
      </trkpt>
      <trkpt lat="43.93207" lon="7.50384">
        <ele>714.40002441406</ele>
        <time>2011-03-06T09:00:45Z</time>
      </trkpt>
      <trkpt lat="43.93212" lon="7.50398">
        <ele>718.23999023438</ele>
        <time>2011-03-06T09:00:58Z</time>
      </trkpt>
      <trkpt lat="43.9321" lon="7.50418">
        <ele>719.67999267578</ele>
        <time>2011-03-06T09:01:11Z</time>
      </trkpt>
      <trkpt lat="43.93208" lon="7.50445">
        <ele>723.53002929688</ele>
        <time>2011-03-06T09:01:22Z</time>
      </trkpt>
      <trkpt lat="43.93203" lon="7.5046">
        <ele>724.96997070312</ele>
        <time>2011-03-06T09:01:27Z</time>
      </trkpt>
      <trkpt lat="43.93196" lon="7.50476">
        <ele>725.45001220703</ele>
        <time>2011-03-06T09:01:32Z</time>
      </trkpt>
      <trkpt lat="43.93185" lon="7.50473">
        <ele>729.29998779297</ele>
        <time>2011-03-06T09:01:43Z</time>
      </trkpt>
      <trkpt lat="43.93177" lon="7.5047">
        <ele>732.17999267578</ele>
        <time>2011-03-06T09:01:51Z</time>
      </trkpt>
      <trkpt lat="43.93171" lon="7.50463">
        <ele>735.07000732422</ele>
        <time>2011-03-06T09:01:59Z</time>
      </trkpt>
      <trkpt lat="43.93159" lon="7.50458">
        <ele>737.95001220703</ele>
        <time>2011-03-06T09:02:11Z</time>
      </trkpt>
      <trkpt lat="43.93152" lon="7.5045">
        <ele>741.30999755859</ele>
        <time>2011-03-06T09:02:21Z</time>
      </trkpt>
      <trkpt lat="43.93144" lon="7.50443">
        <ele>744.20001220703</ele>
        <time>2011-03-06T09:02:31Z</time>
      </trkpt>
      <trkpt lat="43.93138" lon="7.50434">
        <ele>747.55999755859</ele>
        <time>2011-03-06T09:02:43Z</time>
      </trkpt>
      <trkpt lat="43.93132" lon="7.50427">
        <ele>750.92999267578</ele>
        <time>2011-03-06T09:02:54Z</time>
      </trkpt>
      <trkpt lat="43.93118" lon="7.50419">
        <ele>753.80999755859</ele>
        <time>2011-03-06T09:03:07Z</time>
      </trkpt>
      <trkpt lat="43.93116" lon="7.5041">
        <ele>755.72998046875</ele>
        <time>2011-03-06T09:03:14Z</time>
      </trkpt>
      <trkpt lat="43.93113" lon="7.50402">
        <ele>757.65997314453</ele>
        <time>2011-03-06T09:03:21Z</time>
      </trkpt>
      <trkpt lat="43.93107" lon="7.50392">
        <ele>761.02001953125</ele>
        <time>2011-03-06T09:03:32Z</time>
      </trkpt>
      <trkpt lat="43.93107" lon="7.50391">
        <ele>761.02001953125</ele>
        <time>2011-03-06T09:03:33Z</time>
      </trkpt>
      <trkpt lat="43.93106" lon="7.5039">
        <ele>761.97998046875</ele>
        <time>2011-03-06T09:03:36Z</time>
      </trkpt>
      <trkpt lat="43.93106" lon="7.50386">
        <ele>764.86999511719</ele>
        <time>2011-03-06T09:03:49Z</time>
      </trkpt>
      <trkpt lat="43.93098" lon="7.50378">
        <ele>768.22998046875</ele>
        <time>2011-03-06T09:04:00Z</time>
      </trkpt>
      <trkpt lat="43.93092" lon="7.50376">
        <ele>772.08001708984</ele>
        <time>2011-03-06T09:04:13Z</time>
      </trkpt>
      <trkpt lat="43.93086" lon="7.5037">
        <ele>775.44000244141</ele>
        <time>2011-03-06T09:04:28Z</time>
      </trkpt>
      <trkpt lat="43.93082" lon="7.50356">
        <ele>778.32000732422</ele>
        <time>2011-03-06T09:04:43Z</time>
      </trkpt>
      <trkpt lat="43.93073" lon="7.50361">
        <ele>781.69000244141</ele>
        <time>2011-03-06T09:04:56Z</time>
      </trkpt>
      <trkpt lat="43.93069" lon="7.50359">
        <ele>783.13000488281</ele>
        <time>2011-03-06T09:05:01Z</time>
      </trkpt>
      <trkpt lat="43.93063" lon="7.50357">
        <ele>784.57000732422</ele>
        <time>2011-03-06T09:05:06Z</time>
      </trkpt>
      <trkpt lat="43.93054" lon="7.50336">
        <ele>786.97998046875</ele>
        <time>2011-03-06T09:05:16Z</time>
      </trkpt>
      <trkpt lat="43.93045" lon="7.5033">
        <ele>789.85998535156</ele>
        <time>2011-03-06T09:05:30Z</time>
      </trkpt>
      <trkpt lat="43.93042" lon="7.50329">
        <ele>792.73999023438</ele>
        <time>2011-03-06T09:05:40Z</time>
      </trkpt>
      <trkpt lat="43.93039" lon="7.50325">
        <ele>794.19000244141</ele>
        <time>2011-03-06T09:05:46Z</time>
      </trkpt>
      <trkpt lat="43.93038" lon="7.50315">
        <ele>796.10998535156</ele>
        <time>2011-03-06T09:05:52Z</time>
      </trkpt>
      <trkpt lat="43.93027" lon="7.50305">
        <ele>799.46997070312</ele>
        <time>2011-03-06T09:06:04Z</time>
      </trkpt>
      <trkpt lat="43.93023" lon="7.50303">
        <ele>800.44000244141</ele>
        <time>2011-03-06T09:06:10Z</time>
      </trkpt>
      <trkpt lat="43.93013" lon="7.50301">
        <ele>803.79998779297</ele>
        <time>2011-03-06T09:06:23Z</time>
      </trkpt>
      <trkpt lat="43.93005" lon="7.50284">
        <ele>806.67999267578</ele>
        <time>2011-03-06T09:06:36Z</time>
      </trkpt>
      <trkpt lat="43.92993" lon="7.50257">
        <ele>810.04998779297</ele>
        <time>2011-03-06T09:06:53Z</time>
      </trkpt>
      <trkpt lat="43.92981" lon="7.50233">
        <ele>813.40997314453</ele>
        <time>2011-03-06T09:07:09Z</time>
      </trkpt>
      <trkpt lat="43.92976" lon="7.50213">
        <ele>816.29998779297</ele>
        <time>2011-03-06T09:07:22Z</time>
      </trkpt>
      <trkpt lat="43.9297" lon="7.50211">
        <ele>817.26000976562</ele>
        <time>2011-03-06T09:07:26Z</time>
      </trkpt>
      <trkpt lat="43.92967" lon="7.5021">
        <ele>817.26000976562</ele>
        <time>2011-03-06T09:07:28Z</time>
      </trkpt>
      <trkpt lat="43.92955" lon="7.50202">
        <ele>820.14001464844</ele>
        <time>2011-03-06T09:07:36Z</time>
      </trkpt>
      <trkpt lat="43.9295" lon="7.50196">
        <ele>820.14001464844</ele>
        <time>2011-03-06T09:07:40Z</time>
      </trkpt>
      <trkpt lat="43.92925" lon="7.50187">
        <ele>823.51000976562</ele>
        <time>2011-03-06T09:07:52Z</time>
      </trkpt>
      <trkpt lat="43.92915" lon="7.50172">
        <ele>825.90997314453</ele>
        <time>2011-03-06T09:08:05Z</time>
      </trkpt>
      <trkpt lat="43.92912" lon="7.50151">
        <ele>827.83001708984</ele>
        <time>2011-03-06T09:08:16Z</time>
      </trkpt>
      <trkpt lat="43.92913" lon="7.50144">
        <ele>829.27001953125</ele>
        <time>2011-03-06T09:08:20Z</time>
      </trkpt>
      <trkpt lat="43.92908" lon="7.50119">
        <ele>833.11999511719</ele>
        <time>2011-03-06T09:08:35Z</time>
      </trkpt>
      <trkpt lat="43.929" lon="7.50104">
        <ele>835.52001953125</ele>
        <time>2011-03-06T09:08:48Z</time>
      </trkpt>
      <trkpt lat="43.92881" lon="7.50088">
        <ele>839.84997558594</ele>
        <time>2011-03-06T09:09:07Z</time>
      </trkpt>
      <trkpt lat="43.9288" lon="7.50086">
        <ele>840.33001708984</ele>
        <time>2011-03-06T09:09:08Z</time>
      </trkpt>
      <trkpt lat="43.92873" lon="7.50079">
        <ele>841.28997802734</ele>
        <time>2011-03-06T09:09:12Z</time>
      </trkpt>
      <trkpt lat="43.92863" lon="7.50067">
        <ele>844.17999267578</ele>
        <time>2011-03-06T09:09:20Z</time>
      </trkpt>
      <trkpt lat="43.92856" lon="7.50055">
        <ele>844.65997314453</ele>
        <time>2011-03-06T09:09:26Z</time>
      </trkpt>
      <trkpt lat="43.92852" lon="7.50043">
        <ele>846.09997558594</ele>
        <time>2011-03-06T09:09:33Z</time>
      </trkpt>
      <trkpt lat="43.9285" lon="7.50038">
        <ele>847.53997802734</ele>
        <time>2011-03-06T09:09:36Z</time>
      </trkpt>
      <trkpt lat="43.92849" lon="7.50029">
        <ele>848.5</ele>
        <time>2011-03-06T09:09:41Z</time>
      </trkpt>
      <trkpt lat="43.92849" lon="7.50022">
        <ele>849.46002197266</ele>
        <time>2011-03-06T09:09:45Z</time>
      </trkpt>
      <trkpt lat="43.92845" lon="7.50014">
        <ele>850.90002441406</ele>
        <time>2011-03-06T09:09:50Z</time>
      </trkpt>
      <trkpt lat="43.92844" lon="7.50011">
        <ele>850.41998291016</ele>
        <time>2011-03-06T09:09:52Z</time>
      </trkpt>
      <trkpt lat="43.92843" lon="7.50002">
        <ele>851.38000488281</ele>
        <time>2011-03-06T09:09:57Z</time>
      </trkpt>
      <trkpt lat="43.92837" lon="7.49983">
        <ele>854.27001953125</ele>
        <time>2011-03-06T09:10:09Z</time>
      </trkpt>
      <trkpt lat="43.92835" lon="7.4998">
        <ele>854.75</ele>
        <time>2011-03-06T09:10:12Z</time>
      </trkpt>
      <trkpt lat="43.92834" lon="7.49968">
        <ele>857.15002441406</ele>
        <time>2011-03-06T09:10:20Z</time>
      </trkpt>
      <trkpt lat="43.92839" lon="7.49951">
        <ele>858.10998535156</ele>
        <time>2011-03-06T09:10:26Z</time>
      </trkpt>
      <trkpt lat="43.92839" lon="7.49944">
        <ele>858.59002685547</ele>
        <time>2011-03-06T09:10:30Z</time>
      </trkpt>
      <trkpt lat="43.92831" lon="7.49926">
        <ele>861.96002197266</ele>
        <time>2011-03-06T09:10:40Z</time>
      </trkpt>
      <trkpt lat="43.9283" lon="7.49922">
        <ele>862.44000244141</ele>
        <time>2011-03-06T09:10:42Z</time>
      </trkpt>
      <trkpt lat="43.92829" lon="7.49917">
        <ele>862.44000244141</ele>
        <time>2011-03-06T09:10:44Z</time>
      </trkpt>
      <trkpt lat="43.92843" lon="7.49891">
        <ele>863.88000488281</ele>
        <time>2011-03-06T09:10:57Z</time>
      </trkpt>
      <trkpt lat="43.92842" lon="7.49884">
        <ele>865.32000732422</ele>
        <time>2011-03-06T09:11:01Z</time>
      </trkpt>
      <trkpt lat="43.92843" lon="7.49869">
        <ele>866.77001953125</ele>
        <time>2011-03-06T09:11:08Z</time>
      </trkpt>
      <trkpt lat="43.92846" lon="7.49852">
        <ele>869.16998291016</ele>
        <time>2011-03-06T09:11:15Z</time>
      </trkpt>
      <trkpt lat="43.92846" lon="7.49845">
        <ele>869.65002441406</ele>
        <time>2011-03-06T09:11:18Z</time>
      </trkpt>
      <trkpt lat="43.92849" lon="7.49826">
        <ele>872.04998779297</ele>
        <time>2011-03-06T09:11:29Z</time>
      </trkpt>
      <trkpt lat="43.9285" lon="7.49819">
        <ele>873.5</ele>
        <time>2011-03-06T09:11:34Z</time>
      </trkpt>
      <trkpt lat="43.92854" lon="7.49793">
        <ele>876.38000488281</ele>
        <time>2011-03-06T09:11:48Z</time>
      </trkpt>
      <trkpt lat="43.92855" lon="7.49781">
        <ele>877.82000732422</ele>
        <time>2011-03-06T09:11:54Z</time>
      </trkpt>
      <trkpt lat="43.92856" lon="7.49773">
        <ele>878.29998779297</ele>
        <time>2011-03-06T09:12:00Z</time>
      </trkpt>
      <trkpt lat="43.92856" lon="7.49769">
        <ele>879.26000976562</ele>
        <time>2011-03-06T09:12:02Z</time>
      </trkpt>
      <trkpt lat="43.92858" lon="7.4976">
        <ele>881.19000244141</ele>
        <time>2011-03-06T09:12:08Z</time>
      </trkpt>
      <trkpt lat="43.92868" lon="7.49746">
        <ele>882.63000488281</ele>
        <time>2011-03-06T09:12:18Z</time>
      </trkpt>
      <trkpt lat="43.92873" lon="7.4973">
        <ele>885.03002929688</ele>
        <time>2011-03-06T09:12:26Z</time>
      </trkpt>
      <trkpt lat="43.92875" lon="7.49729">
        <ele>885.98999023438</ele>
        <time>2011-03-06T09:12:28Z</time>
      </trkpt>
      <trkpt lat="43.92879" lon="7.49723">
        <ele>886.46997070312</ele>
        <time>2011-03-06T09:12:32Z</time>
      </trkpt>
      <trkpt lat="43.92891" lon="7.49691">
        <ele>890.79998779297</ele>
        <time>2011-03-06T09:12:45Z</time>
      </trkpt>
      <trkpt lat="43.9289" lon="7.4969">
        <ele>890.79998779297</ele>
        <time>2011-03-06T09:12:46Z</time>
      </trkpt>
      <trkpt lat="43.92889" lon="7.4969">
        <ele>890.79998779297</ele>
        <time>2011-03-06T09:12:47Z</time>
      </trkpt>
      <trkpt lat="43.9288" lon="7.49706">
        <ele>894.15997314453</ele>
        <time>2011-03-06T09:13:02Z</time>
      </trkpt>
      <trkpt lat="43.92871" lon="7.49712">
        <ele>895.11999511719</ele>
        <time>2011-03-06T09:13:11Z</time>
      </trkpt>
      <trkpt lat="43.92863" lon="7.49717">
        <ele>897.53002929688</ele>
        <time>2011-03-06T09:13:16Z</time>
      </trkpt>
      <trkpt lat="43.9285" lon="7.49729">
        <ele>899.45001220703</ele>
        <time>2011-03-06T09:13:23Z</time>
      </trkpt>
      <trkpt lat="43.92831" lon="7.49744">
        <ele>902.82000732422</ele>
        <time>2011-03-06T09:13:35Z</time>
      </trkpt>
      <trkpt lat="43.9282" lon="7.49761">
        <ele>904.26000976562</ele>
        <time>2011-03-06T09:13:46Z</time>
      </trkpt>
      <trkpt lat="43.92805" lon="7.49774">
        <ele>907.14001464844</ele>
        <time>2011-03-06T09:13:58Z</time>
      </trkpt>
      <trkpt lat="43.92801" lon="7.4978">
        <ele>908.09997558594</ele>
        <time>2011-03-06T09:14:03Z</time>
      </trkpt>
      <trkpt lat="43.92791" lon="7.49799">
        <ele>910.03002929688</ele>
        <time>2011-03-06T09:14:14Z</time>
      </trkpt>
      <trkpt lat="43.9278" lon="7.49814">
        <ele>912.90997314453</ele>
        <time>2011-03-06T09:14:27Z</time>
      </trkpt>
      <trkpt lat="43.9277" lon="7.4984">
        <ele>915.30999755859</ele>
        <time>2011-03-06T09:14:42Z</time>
      </trkpt>
      <trkpt lat="43.92769" lon="7.49842">
        <ele>915.78997802734</ele>
        <time>2011-03-06T09:14:43Z</time>
      </trkpt>
      <trkpt lat="43.9276" lon="7.49861">
        <ele>918.20001220703</ele>
        <time>2011-03-06T09:14:56Z</time>
      </trkpt>
      <trkpt lat="43.92753" lon="7.49875">
        <ele>921.08001708984</ele>
        <time>2011-03-06T09:15:07Z</time>
      </trkpt>
      <trkpt lat="43.92744" lon="7.49891">
        <ele>923.96002197266</ele>
        <time>2011-03-06T09:15:19Z</time>
      </trkpt>
      <trkpt lat="43.92743" lon="7.49894">
        <ele>924.45001220703</ele>
        <time>2011-03-06T09:15:21Z</time>
      </trkpt>
      <trkpt lat="43.92743" lon="7.49929">
        <ele>925.40997314453</ele>
        <time>2011-03-06T09:15:31Z</time>
      </trkpt>
      <trkpt lat="43.92738" lon="7.49947">
        <ele>930.21002197266</ele>
        <time>2011-03-06T09:15:45Z</time>
      </trkpt>
      <trkpt lat="43.92737" lon="7.49961">
        <ele>932.61999511719</ele>
        <time>2011-03-06T09:15:52Z</time>
      </trkpt>
      <trkpt lat="43.92737" lon="7.49966">
        <ele>933.09997558594</ele>
        <time>2011-03-06T09:15:54Z</time>
      </trkpt>
      <trkpt lat="43.92738" lon="7.49982">
        <ele>933.58001708984</ele>
        <time>2011-03-06T09:16:00Z</time>
      </trkpt>
      <trkpt lat="43.92741" lon="7.4999">
        <ele>934.05999755859</ele>
        <time>2011-03-06T09:16:03Z</time>
      </trkpt>
      <trkpt lat="43.92739" lon="7.50015">
        <ele>937.41998291016</ele>
        <time>2011-03-06T09:16:15Z</time>
      </trkpt>
      <trkpt lat="43.92738" lon="7.5004">
        <ele>940.78997802734</ele>
        <time>2011-03-06T09:16:27Z</time>
      </trkpt>
      <trkpt lat="43.92736" lon="7.50057">
        <ele>942.71002197266</ele>
        <time>2011-03-06T09:16:35Z</time>
      </trkpt>
      <trkpt lat="43.9273" lon="7.50069">
        <ele>945.10998535156</ele>
        <time>2011-03-06T09:16:49Z</time>
      </trkpt>
      <trkpt lat="43.92731" lon="7.5007">
        <ele>944.63000488281</ele>
        <time>2011-03-06T09:16:50Z</time>
      </trkpt>
      <trkpt lat="43.92734" lon="7.50085">
        <ele>948.47998046875</ele>
        <time>2011-03-06T09:17:04Z</time>
      </trkpt>
      <trkpt lat="43.92727" lon="7.50069">
        <ele>951.84002685547</ele>
        <time>2011-03-06T09:17:16Z</time>
      </trkpt>
      <trkpt lat="43.92726" lon="7.50068">
        <ele>951.84002685547</ele>
        <time>2011-03-06T09:17:17Z</time>
      </trkpt>
      <trkpt lat="43.92722" lon="7.50058">
        <ele>954.25</ele>
        <time>2011-03-06T09:17:25Z</time>
      </trkpt>
      <trkpt lat="43.92723" lon="7.50048">
        <ele>955.21002197266</ele>
        <time>2011-03-06T09:17:30Z</time>
      </trkpt>
      <trkpt lat="43.9272" lon="7.50032">
        <ele>957.13000488281</ele>
        <time>2011-03-06T09:17:39Z</time>
      </trkpt>
      <trkpt lat="43.92719" lon="7.50024">
        <ele>958.09002685547</ele>
        <time>2011-03-06T09:17:44Z</time>
      </trkpt>
      <trkpt lat="43.92717" lon="7.50004">
        <ele>960.48999023438</ele>
        <time>2011-03-06T09:17:56Z</time>
      </trkpt>
      <trkpt lat="43.92717" lon="7.5">
        <ele>960.48999023438</ele>
        <time>2011-03-06T09:17:58Z</time>
      </trkpt>
      <trkpt lat="43.92714" lon="7.49991">
        <ele>961.94000244141</ele>
        <time>2011-03-06T09:18:04Z</time>
      </trkpt>
      <trkpt lat="43.9271" lon="7.49984">
        <ele>962.90002441406</ele>
        <time>2011-03-06T09:18:09Z</time>
      </trkpt>
      <trkpt lat="43.92703" lon="7.4997">
        <ele>966.73999023438</ele>
        <time>2011-03-06T09:18:20Z</time>
      </trkpt>
      <trkpt lat="43.92693" lon="7.49953">
        <ele>967.70001220703</ele>
        <time>2011-03-06T09:18:33Z</time>
      </trkpt>
      <trkpt lat="43.92692" lon="7.49946">
        <ele>969.15002441406</ele>
        <time>2011-03-06T09:18:40Z</time>
      </trkpt>
      <trkpt lat="43.92686" lon="7.49929">
        <ele>972.98999023438</ele>
        <time>2011-03-06T09:18:54Z</time>
      </trkpt>
      <trkpt lat="43.92684" lon="7.49914">
        <ele>975.88000488281</ele>
        <time>2011-03-06T09:19:05Z</time>
      </trkpt>
      <trkpt lat="43.92684" lon="7.49909">
        <ele>976.84002685547</ele>
        <time>2011-03-06T09:19:09Z</time>
      </trkpt>
      <trkpt lat="43.92684" lon="7.49883">
        <ele>978.28002929688</ele>
        <time>2011-03-06T09:19:20Z</time>
      </trkpt>
      <trkpt lat="43.92685" lon="7.49875">
        <ele>978.76000976562</ele>
        <time>2011-03-06T09:19:23Z</time>
      </trkpt>
      <trkpt lat="43.92686" lon="7.49863">
        <ele>980.20001220703</ele>
        <time>2011-03-06T09:19:28Z</time>
      </trkpt>
      <trkpt lat="43.92685" lon="7.49854">
        <ele>981.15997314453</ele>
        <time>2011-03-06T09:19:31Z</time>
      </trkpt>
      <trkpt lat="43.92691" lon="7.49825">
        <ele>983.09002685547</ele>
        <time>2011-03-06T09:19:41Z</time>
      </trkpt>
      <trkpt lat="43.92691" lon="7.49821">
        <ele>984.04998779297</ele>
        <time>2011-03-06T09:19:43Z</time>
      </trkpt>
      <trkpt lat="43.92687" lon="7.4981">
        <ele>986.45001220703</ele>
        <time>2011-03-06T09:19:49Z</time>
      </trkpt>
      <trkpt lat="43.92687" lon="7.49793">
        <ele>987.89001464844</ele>
        <time>2011-03-06T09:19:57Z</time>
      </trkpt>
      <trkpt lat="43.92689" lon="7.49787">
        <ele>988.36999511719</ele>
        <time>2011-03-06T09:20:00Z</time>
      </trkpt>
      <trkpt lat="43.92691" lon="7.49771">
        <ele>990.29998779297</ele>
        <time>2011-03-06T09:20:08Z</time>
      </trkpt>
      <trkpt lat="43.92693" lon="7.4976">
        <ele>991.73999023438</ele>
        <time>2011-03-06T09:20:14Z</time>
      </trkpt>
      <trkpt lat="43.92698" lon="7.49735">
        <ele>994.61999511719</ele>
        <time>2011-03-06T09:20:29Z</time>
      </trkpt>
      <trkpt lat="43.92698" lon="7.49734">
        <ele>994.61999511719</ele>
        <time>2011-03-06T09:20:30Z</time>
      </trkpt>
      <trkpt lat="43.92699" lon="7.49727">
        <ele>995.58001708984</ele>
        <time>2011-03-06T09:20:35Z</time>
      </trkpt>
      <trkpt lat="43.92699" lon="7.4971">
        <ele>996.53997802734</ele>
        <time>2011-03-06T09:20:44Z</time>
      </trkpt>
      <trkpt lat="43.92701" lon="7.49699">
        <ele>998.95001220703</ele>
        <time>2011-03-06T09:20:49Z</time>
      </trkpt>
      <trkpt lat="43.92702" lon="7.49691">
        <ele>998.46997070312</ele>
        <time>2011-03-06T09:20:53Z</time>
      </trkpt>
      <trkpt lat="43.92708" lon="7.4967">
        <ele>1001.3499755859</ele>
        <time>2011-03-06T09:21:05Z</time>
      </trkpt>
      <trkpt lat="43.92709" lon="7.49668">
        <ele>1002.3099975586</ele>
        <time>2011-03-06T09:21:06Z</time>
      </trkpt>
      <trkpt lat="43.9271" lon="7.49645">
        <ele>1004.7199707031</ele>
        <time>2011-03-06T09:21:19Z</time>
      </trkpt>
      <trkpt lat="43.92715" lon="7.49624">
        <ele>1006.6400146484</ele>
        <time>2011-03-06T09:21:31Z</time>
      </trkpt>
      <trkpt lat="43.92714" lon="7.49621">
        <ele>1008.0800170898</ele>
        <time>2011-03-06T09:21:35Z</time>
      </trkpt>
      <trkpt lat="43.92712" lon="7.49624">
        <ele>1008.5599975586</ele>
        <time>2011-03-06T09:21:37Z</time>
      </trkpt>
      <trkpt lat="43.92709" lon="7.49638">
        <ele>1010</ele>
        <time>2011-03-06T09:21:44Z</time>
      </trkpt>
      <trkpt lat="43.92708" lon="7.49643">
        <ele>1011.4400024414</ele>
        <time>2011-03-06T09:21:47Z</time>
      </trkpt>
      <trkpt lat="43.92707" lon="7.49652">
        <ele>1011.9299926758</ele>
        <time>2011-03-06T09:21:52Z</time>
      </trkpt>
      <trkpt lat="43.92707" lon="7.49658">
        <ele>1012.4099731445</ele>
        <time>2011-03-06T09:21:56Z</time>
      </trkpt>
      <trkpt lat="43.92698" lon="7.49672">
        <ele>1015.7700195312</ele>
        <time>2011-03-06T09:22:07Z</time>
      </trkpt>
      <trkpt lat="43.92696" lon="7.4967">
        <ele>1017.2100219727</ele>
        <time>2011-03-06T09:22:15Z</time>
      </trkpt>
      <trkpt lat="43.92695" lon="7.49664">
        <ele>1018.6500244141</ele>
        <time>2011-03-06T09:22:19Z</time>
      </trkpt>
      <trkpt lat="43.92692" lon="7.49652">
        <ele>1022.0200195312</ele>
        <time>2011-03-06T09:22:31Z</time>
      </trkpt>
      <trkpt lat="43.92693" lon="7.4964">
        <ele>1025.3800048828</ele>
        <time>2011-03-06T09:22:42Z</time>
      </trkpt>
      <trkpt lat="43.92695" lon="7.49633">
        <ele>1024.9000244141</ele>
        <time>2011-03-06T09:22:46Z</time>
      </trkpt>
      <trkpt lat="43.92696" lon="7.49627">
        <ele>1026.3399658203</ele>
        <time>2011-03-06T09:22:49Z</time>
      </trkpt>
      <trkpt lat="43.92695" lon="7.49623">
        <ele>1026.8299560547</ele>
        <time>2011-03-06T09:22:52Z</time>
      </trkpt>
      <trkpt lat="43.92688" lon="7.49634">
        <ele>1027.3100585938</ele>
        <time>2011-03-06T09:22:59Z</time>
      </trkpt>
      <trkpt lat="43.92679" lon="7.49637">
        <ele>1029.2299804688</ele>
        <time>2011-03-06T09:23:05Z</time>
      </trkpt>
      <trkpt lat="43.92672" lon="7.49638">
        <ele>1030.1899414062</ele>
        <time>2011-03-06T09:23:11Z</time>
      </trkpt>
      <trkpt lat="43.92661" lon="7.49628">
        <ele>1032.1099853516</ele>
        <time>2011-03-06T09:23:18Z</time>
      </trkpt>
      <trkpt lat="43.92659" lon="7.49625">
        <ele>1032.1099853516</ele>
        <time>2011-03-06T09:23:20Z</time>
      </trkpt>
      <trkpt lat="43.92653" lon="7.49614">
        <ele>1034.0400390625</ele>
        <time>2011-03-06T09:23:26Z</time>
      </trkpt>
      <trkpt lat="43.92655" lon="7.49602">
        <ele>1036.9200439453</ele>
        <time>2011-03-06T09:23:33Z</time>
      </trkpt>
      <trkpt lat="43.92656" lon="7.49588">
        <ele>1040.2800292969</ele>
        <time>2011-03-06T09:23:45Z</time>
      </trkpt>
      <trkpt lat="43.92653" lon="7.49579">
        <ele>1041.7299804688</ele>
        <time>2011-03-06T09:23:51Z</time>
      </trkpt>
      <trkpt lat="43.92655" lon="7.49569">
        <ele>1045.5699462891</ele>
        <time>2011-03-06T09:24:03Z</time>
      </trkpt>
      <trkpt lat="43.92651" lon="7.49567">
        <ele>1048.9399414062</ele>
        <time>2011-03-06T09:24:16Z</time>
      </trkpt>
      <trkpt lat="43.92652" lon="7.49561">
        <ele>1051.8199462891</ele>
        <time>2011-03-06T09:24:26Z</time>
      </trkpt>
      <trkpt lat="43.92652" lon="7.49557">
        <ele>1053.7399902344</ele>
        <time>2011-03-06T09:24:32Z</time>
      </trkpt>
      <trkpt lat="43.92643" lon="7.49547">
        <ele>1057.1099853516</ele>
        <time>2011-03-06T09:24:44Z</time>
      </trkpt>
      <trkpt lat="43.92644" lon="7.49541">
        <ele>1059.9899902344</ele>
        <time>2011-03-06T09:24:55Z</time>
      </trkpt>
      <trkpt lat="43.92645" lon="7.4954">
        <ele>1060.9499511719</ele>
        <time>2011-03-06T09:24:57Z</time>
      </trkpt>
      <trkpt lat="43.92648" lon="7.49537">
        <ele>1062.8699951172</ele>
        <time>2011-03-06T09:25:02Z</time>
      </trkpt>
      <trkpt lat="43.92647" lon="7.49531">
        <ele>1062.8699951172</ele>
        <time>2011-03-06T09:25:06Z</time>
      </trkpt>
      <trkpt lat="43.92651" lon="7.49526">
        <ele>1066.7199707031</ele>
        <time>2011-03-06T09:25:16Z</time>
      </trkpt>
      <trkpt lat="43.92651" lon="7.49525">
        <ele>1066.7199707031</ele>
        <time>2011-03-06T09:25:17Z</time>
      </trkpt>
      <trkpt lat="43.92651" lon="7.49523">
        <ele>1066.7199707031</ele>
        <time>2011-03-06T09:25:19Z</time>
      </trkpt>
      <trkpt lat="43.92651" lon="7.4952">
        <ele>1068.1600341797</ele>
        <time>2011-03-06T09:25:22Z</time>
      </trkpt>
      <trkpt lat="43.9265" lon="7.49513">
        <ele>1071.0500488281</ele>
        <time>2011-03-06T09:25:30Z</time>
      </trkpt>
      <trkpt lat="43.92645" lon="7.49505">
        <ele>1071.5300292969</ele>
        <time>2011-03-06T09:25:38Z</time>
      </trkpt>
      <trkpt lat="43.92643" lon="7.49488">
        <ele>1072.9699707031</ele>
        <time>2011-03-06T09:25:51Z</time>
      </trkpt>
      <trkpt lat="43.92643" lon="7.49482">
        <ele>1074.4100341797</ele>
        <time>2011-03-06T09:25:56Z</time>
      </trkpt>
      <trkpt lat="43.92643" lon="7.4948">
        <ele>1073.9300537109</ele>
        <time>2011-03-06T09:25:57Z</time>
      </trkpt>
      <trkpt lat="43.92647" lon="7.49461">
        <ele>1077.2900390625</ele>
        <time>2011-03-06T09:26:11Z</time>
      </trkpt>
      <trkpt lat="43.92646" lon="7.49449">
        <ele>1080.6600341797</ele>
        <time>2011-03-06T09:26:22Z</time>
      </trkpt>
      <trkpt lat="43.92646" lon="7.49447">
        <ele>1081.6199951172</ele>
        <time>2011-03-06T09:26:24Z</time>
      </trkpt>
      <trkpt lat="43.92648" lon="7.49437">
        <ele>1083.0600585938</ele>
        <time>2011-03-06T09:26:33Z</time>
      </trkpt>
      <trkpt lat="43.92645" lon="7.4942">
        <ele>1086.4300537109</ele>
        <time>2011-03-06T09:26:44Z</time>
      </trkpt>
      <trkpt lat="43.92644" lon="7.49406">
        <ele>1088.3499755859</ele>
        <time>2011-03-06T09:26:54Z</time>
      </trkpt>
      <trkpt lat="43.92648" lon="7.49397">
        <ele>1091.2299804688</ele>
        <time>2011-03-06T09:27:03Z</time>
      </trkpt>
      <trkpt lat="43.92649" lon="7.49389">
        <ele>1092.6800537109</ele>
        <time>2011-03-06T09:27:10Z</time>
      </trkpt>
      <trkpt lat="43.92658" lon="7.49365">
        <ele>1096.0400390625</ele>
        <time>2011-03-06T09:27:22Z</time>
      </trkpt>
      <trkpt lat="43.92646" lon="7.49333">
        <ele>1097.4799804688</ele>
        <time>2011-03-06T09:27:34Z</time>
      </trkpt>
      <trkpt lat="43.92642" lon="7.49319">
        <ele>1096.5200195312</ele>
        <time>2011-03-06T09:27:43Z</time>
      </trkpt>
      <trkpt lat="43.92641" lon="7.49315">
        <ele>1097.9599609375</ele>
        <time>2011-03-06T09:27:46Z</time>
      </trkpt>
      <trkpt lat="43.92635" lon="7.49302">
        <ele>1101.3299560547</ele>
        <time>2011-03-06T09:27:56Z</time>
      </trkpt>
      <trkpt lat="43.92635" lon="7.49299">
        <ele>1101.8100585938</ele>
        <time>2011-03-06T09:27:58Z</time>
      </trkpt>
      <trkpt lat="43.9264" lon="7.49282">
        <ele>1105.1700439453</ele>
        <time>2011-03-06T09:28:11Z</time>
      </trkpt>
      <trkpt lat="43.9264" lon="7.49262">
        <ele>1108.0600585938</ele>
        <time>2011-03-06T09:28:23Z</time>
      </trkpt>
      <trkpt lat="43.92639" lon="7.49257">
        <ele>1108.5400390625</ele>
        <time>2011-03-06T09:28:26Z</time>
      </trkpt>
      <trkpt lat="43.92636" lon="7.49243">
        <ele>1111.4200439453</ele>
        <time>2011-03-06T09:28:36Z</time>
      </trkpt>
      <trkpt lat="43.92632" lon="7.49233">
        <ele>1114.7900390625</ele>
        <time>2011-03-06T09:28:48Z</time>
      </trkpt>
      <trkpt lat="43.92629" lon="7.49229">
        <ele>1116.2299804688</ele>
        <time>2011-03-06T09:28:52Z</time>
      </trkpt>
      <trkpt lat="43.92611" lon="7.49198">
        <ele>1115.75</ele>
        <time>2011-03-06T09:29:04Z</time>
      </trkpt>
      <trkpt lat="43.92607" lon="7.49191">
        <ele>1113.8199462891</ele>
        <time>2011-03-06T09:29:06Z</time>
      </trkpt>
      <trkpt lat="43.92606" lon="7.49151">
        <ele>1110.9399414062</ele>
        <time>2011-03-06T09:29:15Z</time>
      </trkpt>
      <trkpt lat="43.92611" lon="7.49142">
        <ele>1109.5</ele>
        <time>2011-03-06T09:29:17Z</time>
      </trkpt>
      <trkpt lat="43.9262" lon="7.49129">
        <ele>1108.5400390625</ele>
        <time>2011-03-06T09:29:21Z</time>
      </trkpt>
      <trkpt lat="43.92625" lon="7.49119">
        <ele>1106.1300048828</ele>
        <time>2011-03-06T09:29:25Z</time>
      </trkpt>
      <trkpt lat="43.92627" lon="7.4911">
        <ele>1105.1700439453</ele>
        <time>2011-03-06T09:29:28Z</time>
      </trkpt>
      <trkpt lat="43.92627" lon="7.491">
        <ele>1101.8100585938</ele>
        <time>2011-03-06T09:29:32Z</time>
      </trkpt>
      <trkpt lat="43.92627" lon="7.49097">
        <ele>1100.8499755859</ele>
        <time>2011-03-06T09:29:34Z</time>
      </trkpt>
      <trkpt lat="43.92627" lon="7.49096">
        <ele>1100.8499755859</ele>
        <time>2011-03-06T09:29:35Z</time>
      </trkpt>
      <trkpt lat="43.92627" lon="7.49092">
        <ele>1098.9200439453</ele>
        <time>2011-03-06T09:29:39Z</time>
      </trkpt>
      <trkpt lat="43.92629" lon="7.49086">
        <ele>1096.0400390625</ele>
        <time>2011-03-06T09:29:44Z</time>
      </trkpt>
      <trkpt lat="43.92632" lon="7.49082">
        <ele>1094.1199951172</ele>
        <time>2011-03-06T09:29:47Z</time>
      </trkpt>
      <trkpt lat="43.92632" lon="7.49076">
        <ele>1092.1999511719</ele>
        <time>2011-03-06T09:29:51Z</time>
      </trkpt>
      <trkpt lat="43.92631" lon="7.49072">
        <ele>1090.2700195312</ele>
        <time>2011-03-06T09:29:53Z</time>
      </trkpt>
      <trkpt lat="43.9263" lon="7.49068">
        <ele>1088.8299560547</ele>
        <time>2011-03-06T09:29:55Z</time>
      </trkpt>
      <trkpt lat="43.9263" lon="7.4906">
        <ele>1085.9499511719</ele>
        <time>2011-03-06T09:29:58Z</time>
      </trkpt>
      <trkpt lat="43.92632" lon="7.49056">
        <ele>1085.9499511719</ele>
        <time>2011-03-06T09:30:01Z</time>
      </trkpt>
      <trkpt lat="43.92634" lon="7.49053">
        <ele>1084.5</ele>
        <time>2011-03-06T09:30:03Z</time>
      </trkpt>
      <trkpt lat="43.92633" lon="7.4904">
        <ele>1080.6600341797</ele>
        <time>2011-03-06T09:30:08Z</time>
      </trkpt>
      <trkpt lat="43.92633" lon="7.49037">
        <ele>1080.6600341797</ele>
        <time>2011-03-06T09:30:09Z</time>
      </trkpt>
      <trkpt lat="43.92632" lon="7.49027">
        <ele>1077.2900390625</ele>
        <time>2011-03-06T09:30:14Z</time>
      </trkpt>
      <trkpt lat="43.92633" lon="7.49007">
        <ele>1075.3699951172</ele>
        <time>2011-03-06T09:30:19Z</time>
      </trkpt>
      <trkpt lat="43.92631" lon="7.4897">
        <ele>1072.0100097656</ele>
        <time>2011-03-06T09:30:30Z</time>
      </trkpt>
      <trkpt lat="43.92627" lon="7.48939">
        <ele>1075.3699951172</ele>
        <time>2011-03-06T09:30:42Z</time>
      </trkpt>
      <trkpt lat="43.92627" lon="7.48937">
        <ele>1075.8499755859</ele>
        <time>2011-03-06T09:30:43Z</time>
      </trkpt>
      <trkpt lat="43.92628" lon="7.48933">
        <ele>1075.8499755859</ele>
        <time>2011-03-06T09:30:46Z</time>
      </trkpt>
      <trkpt lat="43.92628" lon="7.48929">
        <ele>1076.8100585938</ele>
        <time>2011-03-06T09:30:48Z</time>
      </trkpt>
      <trkpt lat="43.92624" lon="7.489">
        <ele>1077.7800292969</ele>
        <time>2011-03-06T09:30:56Z</time>
      </trkpt>
      <trkpt lat="43.92623" lon="7.48884">
        <ele>1078.2600097656</ele>
        <time>2011-03-06T09:31:00Z</time>
      </trkpt>
      <trkpt lat="43.9262" lon="7.48842">
        <ele>1078.7399902344</ele>
        <time>2011-03-06T09:31:12Z</time>
      </trkpt>
      <trkpt lat="43.92614" lon="7.48817">
        <ele>1080.1800537109</ele>
        <time>2011-03-06T09:31:25Z</time>
      </trkpt>
      <trkpt lat="43.9261" lon="7.48809">
        <ele>1076.8100585938</ele>
        <time>2011-03-06T09:31:32Z</time>
      </trkpt>
      <trkpt lat="43.92607" lon="7.48804">
        <ele>1075.3699951172</ele>
        <time>2011-03-06T09:31:34Z</time>
      </trkpt>
      <trkpt lat="43.92601" lon="7.48791">
        <ele>1073.4499511719</ele>
        <time>2011-03-06T09:31:39Z</time>
      </trkpt>
      <trkpt lat="43.92596" lon="7.48784">
        <ele>1072.0100097656</ele>
        <time>2011-03-06T09:31:44Z</time>
      </trkpt>
      <trkpt lat="43.92594" lon="7.48785">
        <ele>1070.0799560547</ele>
        <time>2011-03-06T09:31:46Z</time>
      </trkpt>
      <trkpt lat="43.92591" lon="7.48788">
        <ele>1067.6800537109</ele>
        <time>2011-03-06T09:31:49Z</time>
      </trkpt>
      <trkpt lat="43.92588" lon="7.48786">
        <ele>1064.3199462891</ele>
        <time>2011-03-06T09:31:52Z</time>
      </trkpt>
      <trkpt lat="43.92587" lon="7.48784">
        <ele>1062.8699951172</ele>
        <time>2011-03-06T09:31:53Z</time>
      </trkpt>
      <trkpt lat="43.92585" lon="7.48777">
        <ele>1060.9499511719</ele>
        <time>2011-03-06T09:31:56Z</time>
      </trkpt>
      <trkpt lat="43.92581" lon="7.4876">
        <ele>1059.5100097656</ele>
        <time>2011-03-06T09:32:01Z</time>
      </trkpt>
      <trkpt lat="43.92572" lon="7.48744">
        <ele>1054.6999511719</ele>
        <time>2011-03-06T09:32:06Z</time>
      </trkpt>
      <trkpt lat="43.92567" lon="7.48735">
        <ele>1054.2199707031</ele>
        <time>2011-03-06T09:32:08Z</time>
      </trkpt>
      <trkpt lat="43.92563" lon="7.48729">
        <ele>1051.8199462891</ele>
        <time>2011-03-06T09:32:10Z</time>
      </trkpt>
      <trkpt lat="43.92559" lon="7.48716">
        <ele>1050.3800048828</ele>
        <time>2011-03-06T09:32:14Z</time>
      </trkpt>
      <trkpt lat="43.92567" lon="7.48701">
        <ele>1048.9399414062</ele>
        <time>2011-03-06T09:32:22Z</time>
      </trkpt>
      <trkpt lat="43.92569" lon="7.48699">
        <ele>1048.9399414062</ele>
        <time>2011-03-06T09:32:24Z</time>
      </trkpt>
      <trkpt lat="43.9257" lon="7.48697">
        <ele>1046.5300292969</ele>
        <time>2011-03-06T09:32:27Z</time>
      </trkpt>
      <trkpt lat="43.92571" lon="7.48694">
        <ele>1045.5699462891</ele>
        <time>2011-03-06T09:32:29Z</time>
      </trkpt>
      <trkpt lat="43.92569" lon="7.48691">
        <ele>1044.1300048828</ele>
        <time>2011-03-06T09:32:31Z</time>
      </trkpt>
      <trkpt lat="43.92564" lon="7.48677">
        <ele>1040.2800292969</ele>
        <time>2011-03-06T09:32:36Z</time>
      </trkpt>
      <trkpt lat="43.92564" lon="7.48675">
        <ele>1039.8000488281</ele>
        <time>2011-03-06T09:32:37Z</time>
      </trkpt>
      <trkpt lat="43.92563" lon="7.48669">
        <ele>1037.8800048828</ele>
        <time>2011-03-06T09:32:39Z</time>
      </trkpt>
      <trkpt lat="43.92558" lon="7.4864">
        <ele>1035</ele>
        <time>2011-03-06T09:32:47Z</time>
      </trkpt>
      <trkpt lat="43.92556" lon="7.48637">
        <ele>1035</ele>
        <time>2011-03-06T09:32:48Z</time>
      </trkpt>
      <trkpt lat="43.92553" lon="7.48634">
        <ele>1035</ele>
        <time>2011-03-06T09:32:49Z</time>
      </trkpt>
      <trkpt lat="43.92534" lon="7.48602">
        <ele>1031.1500244141</ele>
        <time>2011-03-06T09:33:00Z</time>
      </trkpt>
      <trkpt lat="43.92527" lon="7.4859">
        <ele>1030.1899414062</ele>
        <time>2011-03-06T09:33:05Z</time>
      </trkpt>
      <trkpt lat="43.92514" lon="7.48569">
        <ele>1030.1899414062</ele>
        <time>2011-03-06T09:33:16Z</time>
      </trkpt>
      <trkpt lat="43.92501" lon="7.48552">
        <ele>1026.3399658203</ele>
        <time>2011-03-06T09:33:23Z</time>
      </trkpt>
      <trkpt lat="43.92496" lon="7.48541">
        <ele>1023.9400024414</ele>
        <time>2011-03-06T09:33:29Z</time>
      </trkpt>
      <trkpt lat="43.92492" lon="7.48536">
        <ele>1021.0599975586</ele>
        <time>2011-03-06T09:33:33Z</time>
      </trkpt>
      <trkpt lat="43.92487" lon="7.48531">
        <ele>1018.1699829102</ele>
        <time>2011-03-06T09:33:36Z</time>
      </trkpt>
      <trkpt lat="43.92482" lon="7.48518">
        <ele>1014.8099975586</ele>
        <time>2011-03-06T09:33:41Z</time>
      </trkpt>
      <trkpt lat="43.92477" lon="7.4851">
        <ele>1010.9600219727</ele>
        <time>2011-03-06T09:33:44Z</time>
      </trkpt>
      <trkpt lat="43.92473" lon="7.48502">
        <ele>1007.5999755859</ele>
        <time>2011-03-06T09:33:47Z</time>
      </trkpt>
      <trkpt lat="43.92472" lon="7.48499">
        <ele>1007.5999755859</ele>
        <time>2011-03-06T09:33:48Z</time>
      </trkpt>
      <trkpt lat="43.92471" lon="7.48495">
        <ele>1006.1599731445</ele>
        <time>2011-03-06T09:33:49Z</time>
      </trkpt>
      <trkpt lat="43.92448" lon="7.48457">
        <ele>1003.2700195312</ele>
        <time>2011-03-06T09:34:00Z</time>
      </trkpt>
      <trkpt lat="43.9242" lon="7.48444">
        <ele>1005.200012207</ele>
        <time>2011-03-06T09:34:12Z</time>
      </trkpt>
      <trkpt lat="43.92393" lon="7.48421">
        <ele>1005.6799926758</ele>
        <time>2011-03-06T09:34:24Z</time>
      </trkpt>
      <trkpt lat="43.92382" lon="7.48409">
        <ele>1003.2700195312</ele>
        <time>2011-03-06T09:34:30Z</time>
      </trkpt>
      <trkpt lat="43.92376" lon="7.48395">
        <ele>999.90997314453</ele>
        <time>2011-03-06T09:34:36Z</time>
      </trkpt>
      <trkpt lat="43.92374" lon="7.48391">
        <ele>998.95001220703</ele>
        <time>2011-03-06T09:34:39Z</time>
      </trkpt>
      <trkpt lat="43.92369" lon="7.48378">
        <ele>995.58001708984</ele>
        <time>2011-03-06T09:34:46Z</time>
      </trkpt>
      <trkpt lat="43.92367" lon="7.48371">
        <ele>994.14001464844</ele>
        <time>2011-03-06T09:34:50Z</time>
      </trkpt>
      <trkpt lat="43.92363" lon="7.4837">
        <ele>990.78002929688</ele>
        <time>2011-03-06T09:34:53Z</time>
      </trkpt>
      <trkpt lat="43.92359" lon="7.48367">
        <ele>988.84997558594</ele>
        <time>2011-03-06T09:34:57Z</time>
      </trkpt>
      <trkpt lat="43.92353" lon="7.48362">
        <ele>984.53002929688</ele>
        <time>2011-03-06T09:35:02Z</time>
      </trkpt>
      <trkpt lat="43.92342" lon="7.48356">
        <ele>978.76000976562</ele>
        <time>2011-03-06T09:35:08Z</time>
      </trkpt>
      <trkpt lat="43.92337" lon="7.48353">
        <ele>976.84002685547</ele>
        <time>2011-03-06T09:35:11Z</time>
      </trkpt>
      <trkpt lat="43.92334" lon="7.48349">
        <ele>974.90997314453</ele>
        <time>2011-03-06T09:35:13Z</time>
      </trkpt>
      <trkpt lat="43.92331" lon="7.48345">
        <ele>971.54998779297</ele>
        <time>2011-03-06T09:35:15Z</time>
      </trkpt>
      <trkpt lat="43.92324" lon="7.48331">
        <ele>968.17999267578</ele>
        <time>2011-03-06T09:35:20Z</time>
      </trkpt>
      <trkpt lat="43.92319" lon="7.48322">
        <ele>966.26000976562</ele>
        <time>2011-03-06T09:35:23Z</time>
      </trkpt>
      <trkpt lat="43.92316" lon="7.48319">
        <ele>964.34002685547</ele>
        <time>2011-03-06T09:35:24Z</time>
      </trkpt>
      <trkpt lat="43.92308" lon="7.48298">
        <ele>962.90002441406</ele>
        <time>2011-03-06T09:35:30Z</time>
      </trkpt>
      <trkpt lat="43.92282" lon="7.48262">
        <ele>961.46002197266</ele>
        <time>2011-03-06T09:35:43Z</time>
      </trkpt>
      <trkpt lat="43.92279" lon="7.48257">
        <ele>960.01000976562</ele>
        <time>2011-03-06T09:35:45Z</time>
      </trkpt>
      <trkpt lat="43.92266" lon="7.48238">
        <ele>958.57000732422</ele>
        <time>2011-03-06T09:35:52Z</time>
      </trkpt>
      <trkpt lat="43.92254" lon="7.48225">
        <ele>957.13000488281</ele>
        <time>2011-03-06T09:35:59Z</time>
      </trkpt>
      <trkpt lat="43.92251" lon="7.48222">
        <ele>956.16998291016</ele>
        <time>2011-03-06T09:36:01Z</time>
      </trkpt>
      <trkpt lat="43.92244" lon="7.48214">
        <ele>953.77001953125</ele>
        <time>2011-03-06T09:36:08Z</time>
      </trkpt>
      <trkpt lat="43.92236" lon="7.48207">
        <ele>949.44000244141</ele>
        <time>2011-03-06T09:36:15Z</time>
      </trkpt>
      <trkpt lat="43.92234" lon="7.48207">
        <ele>949.44000244141</ele>
        <time>2011-03-06T09:36:16Z</time>
      </trkpt>
      <trkpt lat="43.92231" lon="7.48207">
        <ele>947.52001953125</ele>
        <time>2011-03-06T09:36:17Z</time>
      </trkpt>
      <trkpt lat="43.92224" lon="7.48204">
        <ele>948</ele>
        <time>2011-03-06T09:36:20Z</time>
      </trkpt>
      <trkpt lat="43.92218" lon="7.48203">
        <ele>945.10998535156</ele>
        <time>2011-03-06T09:36:24Z</time>
      </trkpt>
      <trkpt lat="43.92212" lon="7.48198">
        <ele>943.66998291016</ele>
        <time>2011-03-06T09:36:28Z</time>
      </trkpt>
      <trkpt lat="43.92194" lon="7.48178">
        <ele>939.34997558594</ele>
        <time>2011-03-06T09:36:37Z</time>
      </trkpt>
      <trkpt lat="43.92186" lon="7.4817">
        <ele>935.97998046875</ele>
        <time>2011-03-06T09:36:41Z</time>
      </trkpt>
      <trkpt lat="43.92184" lon="7.48168">
        <ele>935.5</ele>
        <time>2011-03-06T09:36:42Z</time>
      </trkpt>
      <trkpt lat="43.92183" lon="7.48166">
        <ele>935.02001953125</ele>
        <time>2011-03-06T09:36:43Z</time>
      </trkpt>
      <trkpt lat="43.92175" lon="7.4816">
        <ele>933.09997558594</ele>
        <time>2011-03-06T09:36:47Z</time>
      </trkpt>
      <trkpt lat="43.9217" lon="7.48154">
        <ele>929.72998046875</ele>
        <time>2011-03-06T09:36:51Z</time>
      </trkpt>
      <trkpt lat="43.92169" lon="7.4815">
        <ele>928.28997802734</ele>
        <time>2011-03-06T09:36:53Z</time>
      </trkpt>
      <trkpt lat="43.92168" lon="7.48148">
        <ele>927.33001708984</ele>
        <time>2011-03-06T09:36:54Z</time>
      </trkpt>
      <trkpt lat="43.92164" lon="7.48143">
        <ele>924.92999267578</ele>
        <time>2011-03-06T09:36:57Z</time>
      </trkpt>
      <trkpt lat="43.92163" lon="7.48141">
        <ele>923.47998046875</ele>
        <time>2011-03-06T09:36:58Z</time>
      </trkpt>
      <trkpt lat="43.92159" lon="7.48139">
        <ele>921.08001708984</ele>
        <time>2011-03-06T09:37:00Z</time>
      </trkpt>
      <trkpt lat="43.92156" lon="7.48137">
        <ele>921.55999755859</ele>
        <time>2011-03-06T09:37:02Z</time>
      </trkpt>
      <trkpt lat="43.92152" lon="7.48135">
        <ele>918.67999267578</ele>
        <time>2011-03-06T09:37:04Z</time>
      </trkpt>
      <trkpt lat="43.92148" lon="7.48131">
        <ele>917.71997070312</ele>
        <time>2011-03-06T09:37:07Z</time>
      </trkpt>
      <trkpt lat="43.92148" lon="7.48128">
        <ele>916.75</ele>
        <time>2011-03-06T09:37:09Z</time>
      </trkpt>
      <trkpt lat="43.92148" lon="7.48125">
        <ele>916.75</ele>
        <time>2011-03-06T09:37:11Z</time>
      </trkpt>
      <trkpt lat="43.92145" lon="7.48122">
        <ele>914.83001708984</ele>
        <time>2011-03-06T09:37:13Z</time>
      </trkpt>
      <trkpt lat="43.9214" lon="7.4812">
        <ele>914.34997558594</ele>
        <time>2011-03-06T09:37:23Z</time>
      </trkpt>
      <trkpt lat="43.92142" lon="7.48122">
        <ele>914.83001708984</ele>
        <time>2011-03-06T09:37:35Z</time>
      </trkpt>
      <trkpt lat="43.92146" lon="7.48156">
        <ele>915.30999755859</ele>
        <time>2011-03-06T09:37:47Z</time>
      </trkpt>
      <trkpt lat="43.92163" lon="7.48198">
        <ele>915.78997802734</ele>
        <time>2011-03-06T09:37:59Z</time>
      </trkpt>
      <trkpt lat="43.92186" lon="7.48238">
        <ele>915.78997802734</ele>
        <time>2011-03-06T09:38:11Z</time>
      </trkpt>
      <trkpt lat="43.9221" lon="7.48274">
        <ele>916.27001953125</ele>
        <time>2011-03-06T09:38:23Z</time>
      </trkpt>
      <trkpt lat="43.92232" lon="7.48315">
        <ele>915.30999755859</ele>
        <time>2011-03-06T09:38:35Z</time>
      </trkpt>
      <trkpt lat="43.92252" lon="7.48352">
        <ele>917.23999023438</ele>
        <time>2011-03-06T09:38:46Z</time>
      </trkpt>
      <trkpt lat="43.92258" lon="7.48413">
        <ele>917.71997070312</ele>
        <time>2011-03-06T09:39:00Z</time>
      </trkpt>
      <trkpt lat="43.92264" lon="7.48461">
        <ele>917.23999023438</ele>
        <time>2011-03-06T09:39:11Z</time>
      </trkpt>
      <trkpt lat="43.92284" lon="7.48506">
        <ele>917.23999023438</ele>
        <time>2011-03-06T09:39:24Z</time>
      </trkpt>
      <trkpt lat="43.92303" lon="7.48548">
        <ele>917.23999023438</ele>
        <time>2011-03-06T09:39:35Z</time>
      </trkpt>
      <trkpt lat="43.92309" lon="7.48599">
        <ele>915.78997802734</ele>
        <time>2011-03-06T09:39:46Z</time>
      </trkpt>
      <trkpt lat="43.92323" lon="7.48652">
        <ele>913.86999511719</ele>
        <time>2011-03-06T09:39:58Z</time>
      </trkpt>
      <trkpt lat="43.92348" lon="7.48701">
        <ele>912.42999267578</ele>
        <time>2011-03-06T09:40:11Z</time>
      </trkpt>
      <trkpt lat="43.92348" lon="7.48741">
        <ele>909.05999755859</ele>
        <time>2011-03-06T09:40:21Z</time>
      </trkpt>
      <trkpt lat="43.9236" lon="7.48763">
        <ele>908.58001708984</ele>
        <time>2011-03-06T09:40:27Z</time>
      </trkpt>
      <trkpt lat="43.92366" lon="7.48787">
        <ele>907.61999511719</ele>
        <time>2011-03-06T09:40:32Z</time>
      </trkpt>
      <trkpt lat="43.92378" lon="7.48836">
        <ele>906.65997314453</ele>
        <time>2011-03-06T09:40:43Z</time>
      </trkpt>
      <trkpt lat="43.92379" lon="7.48841">
        <ele>906.17999267578</ele>
        <time>2011-03-06T09:40:44Z</time>
      </trkpt>
      <trkpt lat="43.92354" lon="7.48866">
        <ele>905.21997070312</ele>
        <time>2011-03-06T09:40:54Z</time>
      </trkpt>
      <trkpt lat="43.92314" lon="7.48879">
        <ele>903.29998779297</ele>
        <time>2011-03-06T09:41:05Z</time>
      </trkpt>
      <trkpt lat="43.92303" lon="7.48882">
        <ele>902.33001708984</ele>
        <time>2011-03-06T09:41:08Z</time>
      </trkpt>
      <trkpt lat="43.92289" lon="7.48884">
        <ele>902.33001708984</ele>
        <time>2011-03-06T09:41:12Z</time>
      </trkpt>
      <trkpt lat="43.92282" lon="7.48886">
        <ele>900.40997314453</ele>
        <time>2011-03-06T09:41:14Z</time>
      </trkpt>
      <trkpt lat="43.92241" lon="7.48886">
        <ele>898.01000976562</ele>
        <time>2011-03-06T09:41:25Z</time>
      </trkpt>
      <trkpt lat="43.92212" lon="7.48875">
        <ele>895.60998535156</ele>
        <time>2011-03-06T09:41:33Z</time>
      </trkpt>
      <trkpt lat="43.92199" lon="7.48863">
        <ele>894.15997314453</ele>
        <time>2011-03-06T09:41:37Z</time>
      </trkpt>
      <trkpt lat="43.92159" lon="7.48842">
        <ele>891.76000976562</ele>
        <time>2011-03-06T09:41:49Z</time>
      </trkpt>
      <trkpt lat="43.9213" lon="7.48825">
        <ele>888.40002441406</ele>
        <time>2011-03-06T09:41:58Z</time>
      </trkpt>
      <trkpt lat="43.92096" lon="7.48812">
        <ele>885.03002929688</ele>
        <time>2011-03-06T09:42:08Z</time>
      </trkpt>
      <trkpt lat="43.9206" lon="7.48784">
        <ele>883.10998535156</ele>
        <time>2011-03-06T09:42:19Z</time>
      </trkpt>
      <trkpt lat="43.9205" lon="7.48778">
        <ele>882.63000488281</ele>
        <time>2011-03-06T09:42:22Z</time>
      </trkpt>
      <trkpt lat="43.92015" lon="7.48758">
        <ele>877.82000732422</ele>
        <time>2011-03-06T09:42:33Z</time>
      </trkpt>
      <trkpt lat="43.91981" lon="7.48756">
        <ele>876.38000488281</ele>
        <time>2011-03-06T09:42:43Z</time>
      </trkpt>
      <trkpt lat="43.91969" lon="7.48799">
        <ele>872.53002929688</ele>
        <time>2011-03-06T09:42:53Z</time>
      </trkpt>
      <trkpt lat="43.91982" lon="7.48851">
        <ele>871.09002685547</ele>
        <time>2011-03-06T09:43:04Z</time>
      </trkpt>
      <trkpt lat="43.91975" lon="7.48905">
        <ele>868.21002197266</ele>
        <time>2011-03-06T09:43:16Z</time>
      </trkpt>
      <trkpt lat="43.91941" lon="7.48926">
        <ele>866.28997802734</ele>
        <time>2011-03-06T09:43:26Z</time>
      </trkpt>
      <trkpt lat="43.91908" lon="7.48947">
        <ele>861.96002197266</ele>
        <time>2011-03-06T09:43:35Z</time>
      </trkpt>
      <trkpt lat="43.91905" lon="7.48951">
        <ele>862.44000244141</ele>
        <time>2011-03-06T09:43:36Z</time>
      </trkpt>
      <trkpt lat="43.91882" lon="7.48985">
        <ele>858.10998535156</ele>
        <time>2011-03-06T09:43:45Z</time>
      </trkpt>
      <trkpt lat="43.91879" lon="7.48988">
        <ele>858.59002685547</ele>
        <time>2011-03-06T09:43:46Z</time>
      </trkpt>
      <trkpt lat="43.91841" lon="7.48998">
        <ele>855.22998046875</ele>
        <time>2011-03-06T09:43:56Z</time>
      </trkpt>
      <trkpt lat="43.91833" lon="7.49">
        <ele>853.78997802734</ele>
        <time>2011-03-06T09:43:58Z</time>
      </trkpt>
      <trkpt lat="43.91799" lon="7.49004">
        <ele>850.90002441406</ele>
        <time>2011-03-06T09:44:07Z</time>
      </trkpt>
      <trkpt lat="43.91784" lon="7.49002">
        <ele>847.53997802734</ele>
        <time>2011-03-06T09:44:11Z</time>
      </trkpt>
      <trkpt lat="43.91779" lon="7.49001">
        <ele>848.97998046875</ele>
        <time>2011-03-06T09:44:12Z</time>
      </trkpt>
      <trkpt lat="43.91746" lon="7.49004">
        <ele>846.09997558594</ele>
        <time>2011-03-06T09:44:21Z</time>
      </trkpt>
      <trkpt lat="43.91728" lon="7.49046">
        <ele>843.69000244141</ele>
        <time>2011-03-06T09:44:31Z</time>
      </trkpt>
      <trkpt lat="43.91735" lon="7.49082">
        <ele>839.84997558594</ele>
        <time>2011-03-06T09:44:38Z</time>
      </trkpt>
      <trkpt lat="43.91736" lon="7.49087">
        <ele>839.36999511719</ele>
        <time>2011-03-06T09:44:39Z</time>
      </trkpt>
      <trkpt lat="43.91759" lon="7.49124">
        <ele>836.96002197266</ele>
        <time>2011-03-06T09:44:49Z</time>
      </trkpt>
      <trkpt lat="43.91782" lon="7.49128">
        <ele>834.55999755859</ele>
        <time>2011-03-06T09:44:55Z</time>
      </trkpt>
      <trkpt lat="43.91803" lon="7.49134">
        <ele>831.67999267578</ele>
        <time>2011-03-06T09:45:01Z</time>
      </trkpt>
      <trkpt lat="43.91807" lon="7.49135">
        <ele>831.67999267578</ele>
        <time>2011-03-06T09:45:02Z</time>
      </trkpt>
      <trkpt lat="43.91821" lon="7.49143">
        <ele>830.23999023438</ele>
        <time>2011-03-06T09:45:06Z</time>
      </trkpt>
      <trkpt lat="43.91851" lon="7.49171">
        <ele>826.86999511719</ele>
        <time>2011-03-06T09:45:16Z</time>
      </trkpt>
      <trkpt lat="43.91854" lon="7.49173">
        <ele>827.34997558594</ele>
        <time>2011-03-06T09:45:17Z</time>
      </trkpt>
      <trkpt lat="43.91859" lon="7.49181">
        <ele>825.42999267578</ele>
        <time>2011-03-06T09:45:19Z</time>
      </trkpt>
      <trkpt lat="43.91845" lon="7.49191">
        <ele>822.54998779297</ele>
        <time>2011-03-06T09:45:24Z</time>
      </trkpt>
      <trkpt lat="43.91835" lon="7.49188">
        <ele>821.58001708984</ele>
        <time>2011-03-06T09:45:26Z</time>
      </trkpt>
      <trkpt lat="43.91816" lon="7.49186">
        <ele>819.17999267578</ele>
        <time>2011-03-06T09:45:31Z</time>
      </trkpt>
      <trkpt lat="43.91797" lon="7.4919">
        <ele>816.78002929688</ele>
        <time>2011-03-06T09:45:36Z</time>
      </trkpt>
      <trkpt lat="43.91773" lon="7.492">
        <ele>813.40997314453</ele>
        <time>2011-03-06T09:45:43Z</time>
      </trkpt>
      <trkpt lat="43.91747" lon="7.49202">
        <ele>810.53002929688</ele>
        <time>2011-03-06T09:45:50Z</time>
      </trkpt>
      <trkpt lat="43.9172" lon="7.4922">
        <ele>807.15997314453</ele>
        <time>2011-03-06T09:45:58Z</time>
      </trkpt>
      <trkpt lat="43.91693" lon="7.49246">
        <ele>803.79998779297</ele>
        <time>2011-03-06T09:46:07Z</time>
      </trkpt>
      <trkpt lat="43.91664" lon="7.49261">
        <ele>799.95001220703</ele>
        <time>2011-03-06T09:46:15Z</time>
      </trkpt>
      <trkpt lat="43.91633" lon="7.49265">
        <ele>798.03002929688</ele>
        <time>2011-03-06T09:46:23Z</time>
      </trkpt>
      <trkpt lat="43.91608" lon="7.49276">
        <ele>794.19000244141</ele>
        <time>2011-03-06T09:46:30Z</time>
      </trkpt>
      <trkpt lat="43.91586" lon="7.49277">
        <ele>790.82000732422</ele>
        <time>2011-03-06T09:46:36Z</time>
      </trkpt>
      <trkpt lat="43.91582" lon="7.49276">
        <ele>790.82000732422</ele>
        <time>2011-03-06T09:46:37Z</time>
      </trkpt>
      <trkpt lat="43.91538" lon="7.4926">
        <ele>787.94000244141</ele>
        <time>2011-03-06T09:46:49Z</time>
      </trkpt>
      <trkpt lat="43.91495" lon="7.49253">
        <ele>786.97998046875</ele>
        <time>2011-03-06T09:47:01Z</time>
      </trkpt>
      <trkpt lat="43.91454" lon="7.49245">
        <ele>786.97998046875</ele>
        <time>2011-03-06T09:47:13Z</time>
      </trkpt>
      <trkpt lat="43.91412" lon="7.49236">
        <ele>788.41998291016</ele>
        <time>2011-03-06T09:47:27Z</time>
      </trkpt>
      <trkpt lat="43.91381" lon="7.49218">
        <ele>790.82000732422</ele>
        <time>2011-03-06T09:47:39Z</time>
      </trkpt>
      <trkpt lat="43.91345" lon="7.49204">
        <ele>791.78002929688</ele>
        <time>2011-03-06T09:47:52Z</time>
      </trkpt>
      <trkpt lat="43.91307" lon="7.49191">
        <ele>791.78002929688</ele>
        <time>2011-03-06T09:48:04Z</time>
      </trkpt>
      <trkpt lat="43.91266" lon="7.49175">
        <ele>792.26000976562</ele>
        <time>2011-03-06T09:48:17Z</time>
      </trkpt>
      <trkpt lat="43.91225" lon="7.49176">
        <ele>789.38000488281</ele>
        <time>2011-03-06T09:48:29Z</time>
      </trkpt>
      <trkpt lat="43.91197" lon="7.49179">
        <ele>785.53002929688</ele>
        <time>2011-03-06T09:48:37Z</time>
      </trkpt>
      <trkpt lat="43.9118" lon="7.49195">
        <ele>782.65002441406</ele>
        <time>2011-03-06T09:48:43Z</time>
      </trkpt>
      <trkpt lat="43.91172" lon="7.49206">
        <ele>779.28997802734</ele>
        <time>2011-03-06T09:48:46Z</time>
      </trkpt>
      <trkpt lat="43.9117" lon="7.4921">
        <ele>777.84002685547</ele>
        <time>2011-03-06T09:48:47Z</time>
      </trkpt>
      <trkpt lat="43.91159" lon="7.49226">
        <ele>773.52001953125</ele>
        <time>2011-03-06T09:48:51Z</time>
      </trkpt>
      <trkpt lat="43.91155" lon="7.49234">
        <ele>770.15002441406</ele>
        <time>2011-03-06T09:48:53Z</time>
      </trkpt>
      <trkpt lat="43.91147" lon="7.49252">
        <ele>766.30999755859</ele>
        <time>2011-03-06T09:48:57Z</time>
      </trkpt>
      <trkpt lat="43.91142" lon="7.4926">
        <ele>762.94000244141</ele>
        <time>2011-03-06T09:48:59Z</time>
      </trkpt>
      <trkpt lat="43.91134" lon="7.49271">
        <ele>759.09997558594</ele>
        <time>2011-03-06T09:49:02Z</time>
      </trkpt>
      <trkpt lat="43.91122" lon="7.49286">
        <ele>755.72998046875</ele>
        <time>2011-03-06T09:49:06Z</time>
      </trkpt>
      <trkpt lat="43.91116" lon="7.49293">
        <ele>752.36999511719</ele>
        <time>2011-03-06T09:49:08Z</time>
      </trkpt>
      <trkpt lat="43.91114" lon="7.49296">
        <ele>752.36999511719</ele>
        <time>2011-03-06T09:49:09Z</time>
      </trkpt>
      <trkpt lat="43.91108" lon="7.49302">
        <ele>749</ele>
        <time>2011-03-06T09:49:11Z</time>
      </trkpt>
      <trkpt lat="43.911" lon="7.49308">
        <ele>747.55999755859</ele>
        <time>2011-03-06T09:49:14Z</time>
      </trkpt>
      <trkpt lat="43.91096" lon="7.49313">
        <ele>745.15997314453</ele>
        <time>2011-03-06T09:49:17Z</time>
      </trkpt>
      <trkpt lat="43.91085" lon="7.49339">
        <ele>742.76000976562</ele>
        <time>2011-03-06T09:49:23Z</time>
      </trkpt>
      <trkpt lat="43.91069" lon="7.49353">
        <ele>739.39001464844</ele>
        <time>2011-03-06T09:49:28Z</time>
      </trkpt>
      <trkpt lat="43.91026" lon="7.4936">
        <ele>736.98999023438</ele>
        <time>2011-03-06T09:49:40Z</time>
      </trkpt>
      <trkpt lat="43.90974" lon="7.49374">
        <ele>734.09997558594</ele>
        <time>2011-03-06T09:49:55Z</time>
      </trkpt>
      <trkpt lat="43.90924" lon="7.49376">
        <ele>733.14001464844</ele>
        <time>2011-03-06T09:50:09Z</time>
      </trkpt>
      <trkpt lat="43.90869" lon="7.494">
        <ele>731.21997070312</ele>
        <time>2011-03-06T09:50:26Z</time>
      </trkpt>
      <trkpt lat="43.90837" lon="7.49388">
        <ele>729.78002929688</ele>
        <time>2011-03-06T09:50:35Z</time>
      </trkpt>
      <trkpt lat="43.9082" lon="7.4938">
        <ele>728.34002685547</ele>
        <time>2011-03-06T09:50:40Z</time>
      </trkpt>
      <trkpt lat="43.90781" lon="7.49395">
        <ele>724.96997070312</ele>
        <time>2011-03-06T09:50:51Z</time>
      </trkpt>
      <trkpt lat="43.90745" lon="7.4942">
        <ele>722.57000732422</ele>
        <time>2011-03-06T09:51:02Z</time>
      </trkpt>
      <trkpt lat="43.90711" lon="7.49402">
        <ele>719.20001220703</ele>
        <time>2011-03-06T09:51:12Z</time>
      </trkpt>
      <trkpt lat="43.90675" lon="7.494">
        <ele>716.79998779297</ele>
        <time>2011-03-06T09:51:22Z</time>
      </trkpt>
      <trkpt lat="43.9064" lon="7.49386">
        <ele>715.84002685547</ele>
        <time>2011-03-06T09:51:33Z</time>
      </trkpt>
      <trkpt lat="43.90635" lon="7.49403">
        <ele>715.35998535156</ele>
        <time>2011-03-06T09:51:37Z</time>
      </trkpt>
      <trkpt lat="43.90625" lon="7.4947">
        <ele>711.98999023438</ele>
        <time>2011-03-06T09:51:50Z</time>
      </trkpt>
      <trkpt lat="43.90614" lon="7.49538">
        <ele>710.54998779297</ele>
        <time>2011-03-06T09:52:04Z</time>
      </trkpt>
      <trkpt lat="43.90606" lon="7.49595">
        <ele>708.15002441406</ele>
        <time>2011-03-06T09:52:16Z</time>
      </trkpt>
      <trkpt lat="43.90581" lon="7.49645">
        <ele>704.29998779297</ele>
        <time>2011-03-06T09:52:28Z</time>
      </trkpt>
      <trkpt lat="43.90572" lon="7.49653">
        <ele>701.90002441406</ele>
        <time>2011-03-06T09:52:31Z</time>
      </trkpt>
      <trkpt lat="43.90553" lon="7.49657">
        <ele>700.46002197266</ele>
        <time>2011-03-06T09:52:36Z</time>
      </trkpt>
      <trkpt lat="43.90532" lon="7.49669">
        <ele>697.57000732422</ele>
        <time>2011-03-06T09:52:42Z</time>
      </trkpt>
      <trkpt lat="43.90501" lon="7.497">
        <ele>693.72998046875</ele>
        <time>2011-03-06T09:52:52Z</time>
      </trkpt>
      <trkpt lat="43.90478" lon="7.49729">
        <ele>690.35998535156</ele>
        <time>2011-03-06T09:53:01Z</time>
      </trkpt>
      <trkpt lat="43.90477" lon="7.49782">
        <ele>687</ele>
        <time>2011-03-06T09:53:11Z</time>
      </trkpt>
      <trkpt lat="43.90477" lon="7.49808">
        <ele>685.55999755859</ele>
        <time>2011-03-06T09:53:16Z</time>
      </trkpt>
      <trkpt lat="43.90479" lon="7.49823">
        <ele>684.59997558594</ele>
        <time>2011-03-06T09:53:19Z</time>
      </trkpt>
      <trkpt lat="43.90481" lon="7.49832">
        <ele>683.15002441406</ele>
        <time>2011-03-06T09:53:21Z</time>
      </trkpt>
      <trkpt lat="43.90472" lon="7.4987">
        <ele>680.27001953125</ele>
        <time>2011-03-06T09:53:29Z</time>
      </trkpt>
      <trkpt lat="43.90466" lon="7.49876">
        <ele>679.30999755859</ele>
        <time>2011-03-06T09:53:31Z</time>
      </trkpt>
      <trkpt lat="43.90437" lon="7.4989">
        <ele>675.94000244141</ele>
        <time>2011-03-06T09:53:39Z</time>
      </trkpt>
      <trkpt lat="43.90423" lon="7.49898">
        <ele>672.58001708984</ele>
        <time>2011-03-06T09:53:43Z</time>
      </trkpt>
      <trkpt lat="43.90413" lon="7.49907">
        <ele>670.65997314453</ele>
        <time>2011-03-06T09:53:46Z</time>
      </trkpt>
      <trkpt lat="43.90404" lon="7.49924">
        <ele>667.77001953125</ele>
        <time>2011-03-06T09:53:50Z</time>
      </trkpt>
      <trkpt lat="43.90402" lon="7.49928">
        <ele>667.28997802734</ele>
        <time>2011-03-06T09:53:51Z</time>
      </trkpt>
      <trkpt lat="43.90379" lon="7.49987">
        <ele>663.92999267578</ele>
        <time>2011-03-06T09:54:05Z</time>
      </trkpt>
      <trkpt lat="43.90369" lon="7.50019">
        <ele>661.52001953125</ele>
        <time>2011-03-06T09:54:12Z</time>
      </trkpt>
      <trkpt lat="43.90363" lon="7.50035">
        <ele>660.55999755859</ele>
        <time>2011-03-06T09:54:16Z</time>
      </trkpt>
      <trkpt lat="43.90351" lon="7.5006">
        <ele>657.20001220703</ele>
        <time>2011-03-06T09:54:22Z</time>
      </trkpt>
      <trkpt lat="43.90349" lon="7.50065">
        <ele>656.71997070312</ele>
        <time>2011-03-06T09:54:23Z</time>
      </trkpt>
      <trkpt lat="43.90345" lon="7.50073">
        <ele>655.28002929688</ele>
        <time>2011-03-06T09:54:25Z</time>
      </trkpt>
      <trkpt lat="43.90334" lon="7.50095">
        <ele>651.90997314453</ele>
        <time>2011-03-06T09:54:30Z</time>
      </trkpt>
      <trkpt lat="43.90333" lon="7.50114">
        <ele>651.42999267578</ele>
        <time>2011-03-06T09:54:34Z</time>
      </trkpt>
      <trkpt lat="43.90346" lon="7.50157">
        <ele>646.61999511719</ele>
        <time>2011-03-06T09:54:43Z</time>
      </trkpt>
      <trkpt lat="43.9035" lon="7.50191">
        <ele>644.21997070312</ele>
        <time>2011-03-06T09:54:50Z</time>
      </trkpt>
      <trkpt lat="43.90351" lon="7.50233">
        <ele>641.34002685547</ele>
        <time>2011-03-06T09:54:58Z</time>
      </trkpt>
      <trkpt lat="43.90352" lon="7.50249">
        <ele>639.89001464844</ele>
        <time>2011-03-06T09:55:01Z</time>
      </trkpt>
      <trkpt lat="43.9035" lon="7.5027">
        <ele>638.92999267578</ele>
        <time>2011-03-06T09:55:05Z</time>
      </trkpt>
      <trkpt lat="43.90338" lon="7.503">
        <ele>636.04998779297</ele>
        <time>2011-03-06T09:55:12Z</time>
      </trkpt>
      <trkpt lat="43.90327" lon="7.50304">
        <ele>634.13000488281</ele>
        <time>2011-03-06T09:55:15Z</time>
      </trkpt>
      <trkpt lat="43.90302" lon="7.50298">
        <ele>631.71997070312</ele>
        <time>2011-03-06T09:55:21Z</time>
      </trkpt>
      <trkpt lat="43.90276" lon="7.5029">
        <ele>627.88000488281</ele>
        <time>2011-03-06T09:55:28Z</time>
      </trkpt>
      <trkpt lat="43.90272" lon="7.50289">
        <ele>628.35998535156</ele>
        <time>2011-03-06T09:55:29Z</time>
      </trkpt>
      <trkpt lat="43.90244" lon="7.50273">
        <ele>624.98999023438</ele>
        <time>2011-03-06T09:55:37Z</time>
      </trkpt>
      <trkpt lat="43.90241" lon="7.50271">
        <ele>625.46997070312</ele>
        <time>2011-03-06T09:55:38Z</time>
      </trkpt>
      <trkpt lat="43.90215" lon="7.50267">
        <ele>621.63000488281</ele>
        <time>2011-03-06T09:55:45Z</time>
      </trkpt>
      <trkpt lat="43.90212" lon="7.5027">
        <ele>622.10998535156</ele>
        <time>2011-03-06T09:55:46Z</time>
      </trkpt>
      <trkpt lat="43.90202" lon="7.50278">
        <ele>620.66998291016</ele>
        <time>2011-03-06T09:55:49Z</time>
      </trkpt>
      <trkpt lat="43.90176" lon="7.50301">
        <ele>617.78002929688</ele>
        <time>2011-03-06T09:55:57Z</time>
      </trkpt>
      <trkpt lat="43.90171" lon="7.50325">
        <ele>615.38000488281</ele>
        <time>2011-03-06T09:56:02Z</time>
      </trkpt>
      <trkpt lat="43.90163" lon="7.5035">
        <ele>614.41998291016</ele>
        <time>2011-03-06T09:56:07Z</time>
      </trkpt>
      <trkpt lat="43.90153" lon="7.50358">
        <ele>612.5</ele>
        <time>2011-03-06T09:56:10Z</time>
      </trkpt>
      <trkpt lat="43.9014" lon="7.50367">
        <ele>611.53997802734</ele>
        <time>2011-03-06T09:56:14Z</time>
      </trkpt>
      <trkpt lat="43.90109" lon="7.50366">
        <ele>609.60998535156</ele>
        <time>2011-03-06T09:56:22Z</time>
      </trkpt>
      <trkpt lat="43.90097" lon="7.50396">
        <ele>607.69000244141</ele>
        <time>2011-03-06T09:56:29Z</time>
      </trkpt>
      <trkpt lat="43.90108" lon="7.504">
        <ele>605.28997802734</ele>
        <time>2011-03-06T09:56:36Z</time>
      </trkpt>
      <trkpt lat="43.90136" lon="7.50378">
        <ele>605.28997802734</ele>
        <time>2011-03-06T09:56:46Z</time>
      </trkpt>
      <trkpt lat="43.90178" lon="7.50366">
        <ele>602.40002441406</ele>
        <time>2011-03-06T09:56:58Z</time>
      </trkpt>
      <trkpt lat="43.90205" lon="7.5034">
        <ele>600.96002197266</ele>
        <time>2011-03-06T09:57:08Z</time>
      </trkpt>
      <trkpt lat="43.90231" lon="7.50328">
        <ele>599.52001953125</ele>
        <time>2011-03-06T09:57:16Z</time>
      </trkpt>
      <trkpt lat="43.90264" lon="7.50349">
        <ele>598.55999755859</ele>
        <time>2011-03-06T09:57:27Z</time>
      </trkpt>
      <trkpt lat="43.90303" lon="7.50373">
        <ele>598.55999755859</ele>
        <time>2011-03-06T09:57:40Z</time>
      </trkpt>
      <trkpt lat="43.90346" lon="7.50415">
        <ele>596.15002441406</ele>
        <time>2011-03-06T09:57:55Z</time>
      </trkpt>
      <trkpt lat="43.90374" lon="7.50422">
        <ele>594.71002197266</ele>
        <time>2011-03-06T09:58:03Z</time>
      </trkpt>
      <trkpt lat="43.90404" lon="7.50391">
        <ele>594.71002197266</ele>
        <time>2011-03-06T09:58:14Z</time>
      </trkpt>
      <trkpt lat="43.90435" lon="7.50367">
        <ele>595.19000244141</ele>
        <time>2011-03-06T09:58:25Z</time>
      </trkpt>
      <trkpt lat="43.90466" lon="7.50346">
        <ele>595.66998291016</ele>
        <time>2011-03-06T09:58:36Z</time>
      </trkpt>
      <trkpt lat="43.90488" lon="7.50312">
        <ele>591.83001708984</ele>
        <time>2011-03-06T09:58:46Z</time>
      </trkpt>
      <trkpt lat="43.90486" lon="7.50287">
        <ele>590.39001464844</ele>
        <time>2011-03-06T09:58:51Z</time>
      </trkpt>
      <trkpt lat="43.90478" lon="7.5026">
        <ele>587.97998046875</ele>
        <time>2011-03-06T09:58:57Z</time>
      </trkpt>
      <trkpt lat="43.90486" lon="7.50233">
        <ele>586.05999755859</ele>
        <time>2011-03-06T09:59:03Z</time>
      </trkpt>
      <trkpt lat="43.90531" lon="7.50245">
        <ele>585.58001708984</ele>
        <time>2011-03-06T09:59:16Z</time>
      </trkpt>
      <trkpt lat="43.90548" lon="7.50248">
        <ele>584.14001464844</ele>
        <time>2011-03-06T09:59:21Z</time>
      </trkpt>
      <trkpt lat="43.90562" lon="7.5024">
        <ele>582.70001220703</ele>
        <time>2011-03-06T09:59:25Z</time>
      </trkpt>
      <trkpt lat="43.9058" lon="7.50211">
        <ele>578.36999511719</ele>
        <time>2011-03-06T09:59:32Z</time>
      </trkpt>
      <trkpt lat="43.90583" lon="7.50208">
        <ele>579.33001708984</ele>
        <time>2011-03-06T09:59:33Z</time>
      </trkpt>
      <trkpt lat="43.90587" lon="7.50198">
        <ele>576.92999267578</ele>
        <time>2011-03-06T09:59:36Z</time>
      </trkpt>
      <trkpt lat="43.90587" lon="7.50194">
        <ele>576.45001220703</ele>
        <time>2011-03-06T09:59:37Z</time>
      </trkpt>
      <trkpt lat="43.90606" lon="7.50185">
        <ele>576.92999267578</ele>
        <time>2011-03-06T09:59:45Z</time>
      </trkpt>
      <trkpt lat="43.90631" lon="7.50154">
        <ele>575.96997070312</ele>
        <time>2011-03-06T09:59:55Z</time>
      </trkpt>
      <trkpt lat="43.90641" lon="7.5012">
        <ele>577.89001464844</ele>
        <time>2011-03-06T10:00:04Z</time>
      </trkpt>
      <trkpt lat="43.9065" lon="7.50109">
        <ele>578.36999511719</ele>
        <time>2011-03-06T10:00:08Z</time>
      </trkpt>
      <trkpt lat="43.9068" lon="7.50096">
        <ele>581.25</ele>
        <time>2011-03-06T10:00:19Z</time>
      </trkpt>
      <trkpt lat="43.90711" lon="7.50079">
        <ele>582.21997070312</ele>
        <time>2011-03-06T10:00:31Z</time>
      </trkpt>
      <trkpt lat="43.90731" lon="7.50041">
        <ele>581.25</ele>
        <time>2011-03-06T10:00:43Z</time>
      </trkpt>
      <trkpt lat="43.90724" lon="7.50019">
        <ele>579.80999755859</ele>
        <time>2011-03-06T10:00:49Z</time>
      </trkpt>
      <trkpt lat="43.90742" lon="7.49979">
        <ele>578.84997558594</ele>
        <time>2011-03-06T10:00:59Z</time>
      </trkpt>
      <trkpt lat="43.90755" lon="7.49936">
        <ele>578.36999511719</ele>
        <time>2011-03-06T10:01:10Z</time>
      </trkpt>
      <trkpt lat="43.90766" lon="7.49902">
        <ele>576.92999267578</ele>
        <time>2011-03-06T10:01:19Z</time>
      </trkpt>
      <trkpt lat="43.90769" lon="7.49865">
        <ele>574.53002929688</ele>
        <time>2011-03-06T10:01:27Z</time>
      </trkpt>
      <trkpt lat="43.90791" lon="7.49865">
        <ele>573.55999755859</ele>
        <time>2011-03-06T10:01:33Z</time>
      </trkpt>
      <trkpt lat="43.90812" lon="7.49886">
        <ele>571.15997314453</ele>
        <time>2011-03-06T10:01:40Z</time>
      </trkpt>
      <trkpt lat="43.90821" lon="7.49925">
        <ele>568.76000976562</ele>
        <time>2011-03-06T10:01:49Z</time>
      </trkpt>
      <trkpt lat="43.90836" lon="7.49918">
        <ele>567.79998779297</ele>
        <time>2011-03-06T10:01:54Z</time>
      </trkpt>
      <trkpt lat="43.90852" lon="7.49883">
        <ele>564.42999267578</ele>
        <time>2011-03-06T10:02:02Z</time>
      </trkpt>
      <trkpt lat="43.90857" lon="7.49877">
        <ele>565.39001464844</ele>
        <time>2011-03-06T10:02:04Z</time>
      </trkpt>
      <trkpt lat="43.90862" lon="7.4987">
        <ele>563.95001220703</ele>
        <time>2011-03-06T10:02:06Z</time>
      </trkpt>
      <trkpt lat="43.90873" lon="7.49874">
        <ele>561.54998779297</ele>
        <time>2011-03-06T10:02:12Z</time>
      </trkpt>
      <trkpt lat="43.90868" lon="7.49914">
        <ele>560.59002685547</ele>
        <time>2011-03-06T10:02:21Z</time>
      </trkpt>
      <trkpt lat="43.90882" lon="7.49934">
        <ele>559.61999511719</ele>
        <time>2011-03-06T10:02:27Z</time>
      </trkpt>
      <trkpt lat="43.90889" lon="7.49947">
        <ele>557.70001220703</ele>
        <time>2011-03-06T10:02:30Z</time>
      </trkpt>
      <trkpt lat="43.90882" lon="7.49962">
        <ele>556.26000976562</ele>
        <time>2011-03-06T10:02:34Z</time>
      </trkpt>
      <trkpt lat="43.90874" lon="7.49963">
        <ele>555.29998779297</ele>
        <time>2011-03-06T10:02:36Z</time>
      </trkpt>
      <trkpt lat="43.90863" lon="7.49964">
        <ele>553.85998535156</ele>
        <time>2011-03-06T10:02:39Z</time>
      </trkpt>
      <trkpt lat="43.90839" lon="7.49986">
        <ele>552.40997314453</ele>
        <time>2011-03-06T10:02:47Z</time>
      </trkpt>
      <trkpt lat="43.90844" lon="7.49997">
        <ele>549.53002929688</ele>
        <time>2011-03-06T10:02:54Z</time>
      </trkpt>
      <trkpt lat="43.90847" lon="7.49997">
        <ele>550.01000976562</ele>
        <time>2011-03-06T10:02:55Z</time>
      </trkpt>
      <trkpt lat="43.90884" lon="7.4998">
        <ele>547.60998535156</ele>
        <time>2011-03-06T10:03:07Z</time>
      </trkpt>
      <trkpt lat="43.90904" lon="7.4999">
        <ele>546.16998291016</ele>
        <time>2011-03-06T10:03:13Z</time>
      </trkpt>
      <trkpt lat="43.90912" lon="7.4998">
        <ele>544.23999023438</ele>
        <time>2011-03-06T10:03:17Z</time>
      </trkpt>
      <trkpt lat="43.9091" lon="7.49945">
        <ele>541.84002685547</ele>
        <time>2011-03-06T10:03:24Z</time>
      </trkpt>
      <trkpt lat="43.9091" lon="7.49899">
        <ele>539.44000244141</ele>
        <time>2011-03-06T10:03:34Z</time>
      </trkpt>
      <trkpt lat="43.90912" lon="7.49891">
        <ele>539.91998291016</ele>
        <time>2011-03-06T10:03:36Z</time>
      </trkpt>
      <trkpt lat="43.90912" lon="7.49855">
        <ele>538.47998046875</ele>
        <time>2011-03-06T10:03:44Z</time>
      </trkpt>
      <trkpt lat="43.90924" lon="7.49837">
        <ele>537.98999023438</ele>
        <time>2011-03-06T10:03:51Z</time>
      </trkpt>
      <trkpt lat="43.90927" lon="7.49837">
        <ele>538.47998046875</ele>
        <time>2011-03-06T10:03:52Z</time>
      </trkpt>
      <trkpt lat="43.90937" lon="7.49838">
        <ele>537.51000976562</ele>
        <time>2011-03-06T10:03:55Z</time>
      </trkpt>
      <trkpt lat="43.90948" lon="7.49849">
        <ele>536.54998779297</ele>
        <time>2011-03-06T10:03:59Z</time>
      </trkpt>
      <trkpt lat="43.9096" lon="7.49898">
        <ele>535.59002685547</ele>
        <time>2011-03-06T10:04:10Z</time>
      </trkpt>
      <trkpt lat="43.90983" lon="7.49932">
        <ele>534.15002441406</ele>
        <time>2011-03-06T10:04:20Z</time>
      </trkpt>
      <trkpt lat="43.91016" lon="7.49952">
        <ele>534.63000488281</ele>
        <time>2011-03-06T10:04:31Z</time>
      </trkpt>
      <trkpt lat="43.91037" lon="7.49947">
        <ele>534.63000488281</ele>
        <time>2011-03-06T10:04:38Z</time>
      </trkpt>
      <trkpt lat="43.91048" lon="7.49941">
        <ele>535.10998535156</ele>
        <time>2011-03-06T10:04:42Z</time>
      </trkpt>
      <trkpt lat="43.91069" lon="7.49925">
        <ele>534.15002441406</ele>
        <time>2011-03-06T10:04:51Z</time>
      </trkpt>
      <trkpt lat="43.91072" lon="7.49927">
        <ele>533.66998291016</ele>
        <time>2011-03-06T10:04:52Z</time>
      </trkpt>
      <trkpt lat="43.91098" lon="7.49969">
        <ele>533.19000244141</ele>
        <time>2011-03-06T10:05:04Z</time>
      </trkpt>
      <trkpt lat="43.91103" lon="7.49975">
        <ele>532.71002197266</ele>
        <time>2011-03-06T10:05:06Z</time>
      </trkpt>
      <trkpt lat="43.91112" lon="7.50029">
        <ele>532.71002197266</ele>
        <time>2011-03-06T10:05:18Z</time>
      </trkpt>
      <trkpt lat="43.91112" lon="7.50041">
        <ele>531.75</ele>
        <time>2011-03-06T10:05:21Z</time>
      </trkpt>
      <trkpt lat="43.9112" lon="7.50071">
        <ele>533.19000244141</ele>
        <time>2011-03-06T10:05:28Z</time>
      </trkpt>
      <trkpt lat="43.91146" lon="7.50083">
        <ele>530.29998779297</ele>
        <time>2011-03-06T10:05:37Z</time>
      </trkpt>
      <trkpt lat="43.91185" lon="7.50056">
        <ele>529.82000732422</ele>
        <time>2011-03-06T10:05:50Z</time>
      </trkpt>
      <trkpt lat="43.91215" lon="7.5002">
        <ele>528.38000488281</ele>
        <time>2011-03-06T10:06:02Z</time>
      </trkpt>
      <trkpt lat="43.91229" lon="7.50012">
        <ele>527.41998291016</ele>
        <time>2011-03-06T10:06:07Z</time>
      </trkpt>
      <trkpt lat="43.91254" lon="7.50076">
        <ele>528.38000488281</ele>
        <time>2011-03-06T10:06:23Z</time>
      </trkpt>
      <trkpt lat="43.91264" lon="7.50111">
        <ele>528.85998535156</ele>
        <time>2011-03-06T10:06:32Z</time>
      </trkpt>
      <trkpt lat="43.91273" lon="7.50166">
        <ele>528.85998535156</ele>
        <time>2011-03-06T10:06:45Z</time>
      </trkpt>
      <trkpt lat="43.91292" lon="7.50195">
        <ele>529.82000732422</ele>
        <time>2011-03-06T10:06:55Z</time>
      </trkpt>
      <trkpt lat="43.9133" lon="7.50221">
        <ele>529.82000732422</ele>
        <time>2011-03-06T10:07:09Z</time>
      </trkpt>
      <trkpt lat="43.91359" lon="7.5022">
        <ele>531.27001953125</ele>
        <time>2011-03-06T10:07:19Z</time>
      </trkpt>
      <trkpt lat="43.91381" lon="7.50194">
        <ele>533.19000244141</ele>
        <time>2011-03-06T10:07:32Z</time>
      </trkpt>
      <trkpt lat="43.91394" lon="7.5018">
        <ele>534.63000488281</ele>
        <time>2011-03-06T10:07:38Z</time>
      </trkpt>
      <trkpt lat="43.91398" lon="7.5017">
        <ele>535.10998535156</ele>
        <time>2011-03-06T10:07:43Z</time>
      </trkpt>
      <trkpt lat="43.9141" lon="7.50149">
        <ele>538.47998046875</ele>
        <time>2011-03-06T10:07:57Z</time>
      </trkpt>
      <trkpt lat="43.91418" lon="7.50137">
        <ele>541.35998535156</ele>
        <time>2011-03-06T10:08:05Z</time>
      </trkpt>
      <trkpt lat="43.91425" lon="7.5012">
        <ele>541.84002685547</ele>
        <time>2011-03-06T10:08:14Z</time>
      </trkpt>
      <trkpt lat="43.91439" lon="7.50104">
        <ele>541.84002685547</ele>
        <time>2011-03-06T10:08:23Z</time>
      </trkpt>
      <trkpt lat="43.91462" lon="7.50083">
        <ele>538.47998046875</ele>
        <time>2011-03-06T10:08:32Z</time>
      </trkpt>
      <trkpt lat="43.9147" lon="7.50076">
        <ele>538.47998046875</ele>
        <time>2011-03-06T10:08:35Z</time>
      </trkpt>
      <trkpt lat="43.91476" lon="7.50069">
        <ele>537.51000976562</ele>
        <time>2011-03-06T10:08:38Z</time>
      </trkpt>
      <trkpt lat="43.91488" lon="7.50057">
        <ele>535.59002685547</ele>
        <time>2011-03-06T10:08:43Z</time>
      </trkpt>
      <trkpt lat="43.91494" lon="7.50048">
        <ele>533.66998291016</ele>
        <time>2011-03-06T10:08:46Z</time>
      </trkpt>
      <trkpt lat="43.91498" lon="7.50031">
        <ele>531.27001953125</ele>
        <time>2011-03-06T10:08:50Z</time>
      </trkpt>
      <trkpt lat="43.91501" lon="7.5002">
        <ele>529.82000732422</ele>
        <time>2011-03-06T10:08:53Z</time>
      </trkpt>
      <trkpt lat="43.9151" lon="7.50006">
        <ele>528.38000488281</ele>
        <time>2011-03-06T10:08:57Z</time>
      </trkpt>
      <trkpt lat="43.91516" lon="7.4999">
        <ele>527.41998291016</ele>
        <time>2011-03-06T10:09:01Z</time>
      </trkpt>
      <trkpt lat="43.91517" lon="7.49976">
        <ele>525.02001953125</ele>
        <time>2011-03-06T10:09:04Z</time>
      </trkpt>
      <trkpt lat="43.91526" lon="7.49967">
        <ele>524.53997802734</ele>
        <time>2011-03-06T10:09:09Z</time>
      </trkpt>
      <trkpt lat="43.91524" lon="7.49983">
        <ele>527.41998291016</ele>
        <time>2011-03-06T10:09:17Z</time>
      </trkpt>
      <trkpt lat="43.9153" lon="7.49996">
        <ele>529.34002685547</ele>
        <time>2011-03-06T10:09:23Z</time>
      </trkpt>
      <trkpt lat="43.91529" lon="7.50011">
        <ele>531.27001953125</ele>
        <time>2011-03-06T10:09:32Z</time>
      </trkpt>
      <trkpt lat="43.91533" lon="7.50027">
        <ele>534.63000488281</ele>
        <time>2011-03-06T10:09:41Z</time>
      </trkpt>
      <trkpt lat="43.91545" lon="7.50038">
        <ele>537.03002929688</ele>
        <time>2011-03-06T10:09:53Z</time>
      </trkpt>
      <trkpt lat="43.91556" lon="7.50051">
        <ele>539.91998291016</ele>
        <time>2011-03-06T10:10:05Z</time>
      </trkpt>
      <trkpt lat="43.91557" lon="7.5005">
        <ele>540.88000488281</ele>
        <time>2011-03-06T10:10:08Z</time>
      </trkpt>
      <trkpt lat="43.91552" lon="7.50037">
        <ele>544.71997070312</ele>
        <time>2011-03-06T10:10:19Z</time>
      </trkpt>
      <trkpt lat="43.91552" lon="7.50036">
        <ele>544.71997070312</ele>
        <time>2011-03-06T10:10:22Z</time>
      </trkpt>
      <trkpt lat="43.91555" lon="7.5004">
        <ele>547.13000488281</ele>
        <time>2011-03-06T10:10:28Z</time>
      </trkpt>
      <trkpt lat="43.91571" lon="7.50048">
        <ele>549.04998779297</ele>
        <time>2011-03-06T10:10:41Z</time>
      </trkpt>
      <trkpt lat="43.91575" lon="7.5005">
        <ele>550.01000976562</ele>
        <time>2011-03-06T10:10:44Z</time>
      </trkpt>
      <trkpt lat="43.91578" lon="7.50052">
        <ele>550.96997070312</ele>
        <time>2011-03-06T10:10:46Z</time>
      </trkpt>
      <trkpt lat="43.91581" lon="7.50054">
        <ele>550.48999023438</ele>
        <time>2011-03-06T10:10:48Z</time>
      </trkpt>
      <trkpt lat="43.91582" lon="7.50063">
        <ele>551.45001220703</ele>
        <time>2011-03-06T10:10:53Z</time>
      </trkpt>
      <trkpt lat="43.91582" lon="7.50078">
        <ele>554.82000732422</ele>
        <time>2011-03-06T10:11:03Z</time>
      </trkpt>
      <trkpt lat="43.91588" lon="7.50086">
        <ele>557.21997070312</ele>
        <time>2011-03-06T10:11:12Z</time>
      </trkpt>
      <trkpt lat="43.91594" lon="7.50076">
        <ele>559.61999511719</ele>
        <time>2011-03-06T10:11:22Z</time>
      </trkpt>
      <trkpt lat="43.91597" lon="7.50073">
        <ele>561.07000732422</ele>
        <time>2011-03-06T10:11:26Z</time>
      </trkpt>
      <trkpt lat="43.91602" lon="7.50068">
        <ele>562.98999023438</ele>
        <time>2011-03-06T10:11:33Z</time>
      </trkpt>
      <trkpt lat="43.91614" lon="7.50064">
        <ele>565.86999511719</ele>
        <time>2011-03-06T10:11:46Z</time>
      </trkpt>
      <trkpt lat="43.91623" lon="7.50062">
        <ele>568.76000976562</ele>
        <time>2011-03-06T10:11:56Z</time>
      </trkpt>
      <trkpt lat="43.91629" lon="7.50063">
        <ele>570.67999267578</ele>
        <time>2011-03-06T10:12:02Z</time>
      </trkpt>
      <trkpt lat="43.91636" lon="7.50054">
        <ele>572.11999511719</ele>
        <time>2011-03-06T10:12:10Z</time>
      </trkpt>
      <trkpt lat="43.9164" lon="7.50047">
        <ele>573.55999755859</ele>
        <time>2011-03-06T10:12:16Z</time>
      </trkpt>
      <trkpt lat="43.91641" lon="7.50046">
        <ele>574.53002929688</ele>
        <time>2011-03-06T10:12:17Z</time>
      </trkpt>
      <trkpt lat="43.91643" lon="7.50047">
        <ele>575.01000976562</ele>
        <time>2011-03-06T10:12:21Z</time>
      </trkpt>
      <trkpt lat="43.91645" lon="7.50053">
        <ele>576.45001220703</ele>
        <time>2011-03-06T10:12:26Z</time>
      </trkpt>
      <trkpt lat="43.91657" lon="7.50048">
        <ele>579.80999755859</ele>
        <time>2011-03-06T10:12:41Z</time>
      </trkpt>
      <trkpt lat="43.91664" lon="7.50044">
        <ele>582.70001220703</ele>
        <time>2011-03-06T10:12:52Z</time>
      </trkpt>
      <trkpt lat="43.91668" lon="7.50042">
        <ele>584.61999511719</ele>
        <time>2011-03-06T10:12:59Z</time>
      </trkpt>
      <trkpt lat="43.91672" lon="7.50034">
        <ele>587.02001953125</ele>
        <time>2011-03-06T10:13:06Z</time>
      </trkpt>
      <trkpt lat="43.91677" lon="7.5003">
        <ele>588.95001220703</ele>
        <time>2011-03-06T10:13:12Z</time>
      </trkpt>
      <trkpt lat="43.91686" lon="7.50015">
        <ele>592.30999755859</ele>
        <time>2011-03-06T10:13:26Z</time>
      </trkpt>
      <trkpt lat="43.91694" lon="7.50005">
        <ele>595.66998291016</ele>
        <time>2011-03-06T10:13:34Z</time>
      </trkpt>
      <trkpt lat="43.917" lon="7.49999">
        <ele>597.11999511719</ele>
        <time>2011-03-06T10:13:40Z</time>
      </trkpt>
      <trkpt lat="43.91705" lon="7.49995">
        <ele>599.03997802734</ele>
        <time>2011-03-06T10:13:47Z</time>
      </trkpt>
      <trkpt lat="43.91714" lon="7.49996">
        <ele>602.88000488281</ele>
        <time>2011-03-06T10:13:59Z</time>
      </trkpt>
      <trkpt lat="43.91717" lon="7.49998">
        <ele>603.35998535156</ele>
        <time>2011-03-06T10:14:03Z</time>
      </trkpt>
      <trkpt lat="43.91739" lon="7.49992">
        <ele>607.21002197266</ele>
        <time>2011-03-06T10:14:22Z</time>
      </trkpt>
      <trkpt lat="43.91751" lon="7.49987">
        <ele>607.21002197266</ele>
        <time>2011-03-06T10:14:30Z</time>
      </trkpt>
      <trkpt lat="43.91758" lon="7.49984">
        <ele>608.65002441406</ele>
        <time>2011-03-06T10:14:36Z</time>
      </trkpt>
      <trkpt lat="43.9176" lon="7.49984">
        <ele>607.69000244141</ele>
        <time>2011-03-06T10:14:38Z</time>
      </trkpt>
      <trkpt lat="43.91771" lon="7.49979">
        <ele>611.05999755859</ele>
        <time>2011-03-06T10:14:49Z</time>
      </trkpt>
      <trkpt lat="43.91777" lon="7.49978">
        <ele>612.5</ele>
        <time>2011-03-06T10:14:55Z</time>
      </trkpt>
      <trkpt lat="43.9178" lon="7.49972">
        <ele>613.46002197266</ele>
        <time>2011-03-06T10:15:01Z</time>
      </trkpt>
      <trkpt lat="43.91782" lon="7.49963">
        <ele>615.38000488281</ele>
        <time>2011-03-06T10:15:08Z</time>
      </trkpt>
      <trkpt lat="43.91791" lon="7.49958">
        <ele>619.22998046875</ele>
        <time>2011-03-06T10:15:21Z</time>
      </trkpt>
      <trkpt lat="43.91796" lon="7.49953">
        <ele>620.66998291016</ele>
        <time>2011-03-06T10:15:27Z</time>
      </trkpt>
      <trkpt lat="43.91804" lon="7.49945">
        <ele>623.54998779297</ele>
        <time>2011-03-06T10:15:37Z</time>
      </trkpt>
      <trkpt lat="43.91805" lon="7.49944">
        <ele>623.54998779297</ele>
        <time>2011-03-06T10:15:38Z</time>
      </trkpt>
      <trkpt lat="43.91811" lon="7.49934">
        <ele>627.40002441406</ele>
        <time>2011-03-06T10:15:51Z</time>
      </trkpt>
      <trkpt lat="43.91814" lon="7.49932">
        <ele>629.32000732422</ele>
        <time>2011-03-06T10:15:56Z</time>
      </trkpt>
      <trkpt lat="43.91818" lon="7.49932">
        <ele>631.71997070312</ele>
        <time>2011-03-06T10:16:03Z</time>
      </trkpt>
      <trkpt lat="43.91822" lon="7.49925">
        <ele>634.60998535156</ele>
        <time>2011-03-06T10:16:13Z</time>
      </trkpt>
      <trkpt lat="43.91826" lon="7.4992">
        <ele>636.53002929688</ele>
        <time>2011-03-06T10:16:21Z</time>
      </trkpt>
      <trkpt lat="43.91828" lon="7.49915">
        <ele>637.96997070312</ele>
        <time>2011-03-06T10:16:25Z</time>
      </trkpt>
      <trkpt lat="43.91838" lon="7.4991">
        <ele>641.34002685547</ele>
        <time>2011-03-06T10:16:36Z</time>
      </trkpt>
      <trkpt lat="43.91843" lon="7.49904">
        <ele>642.29998779297</ele>
        <time>2011-03-06T10:16:49Z</time>
      </trkpt>
      <trkpt lat="43.91853" lon="7.49899">
        <ele>645.17999267578</ele>
        <time>2011-03-06T10:16:59Z</time>
      </trkpt>
      <trkpt lat="43.91869" lon="7.49895">
        <ele>648.54998779297</ele>
        <time>2011-03-06T10:17:15Z</time>
      </trkpt>
      <trkpt lat="43.91875" lon="7.49891">
        <ele>649.03002929688</ele>
        <time>2011-03-06T10:17:21Z</time>
      </trkpt>
      <trkpt lat="43.91892" lon="7.49894">
        <ele>653.34997558594</ele>
        <time>2011-03-06T10:17:33Z</time>
      </trkpt>
      <trkpt lat="43.91919" lon="7.49895">
        <ele>652.86999511719</ele>
        <time>2011-03-06T10:17:45Z</time>
      </trkpt>
      <trkpt lat="43.91938" lon="7.49875">
        <ele>653.83001708984</ele>
        <time>2011-03-06T10:17:55Z</time>
      </trkpt>
      <trkpt lat="43.91941" lon="7.49864">
        <ele>651.90997314453</ele>
        <time>2011-03-06T10:18:00Z</time>
      </trkpt>
      <trkpt lat="43.91948" lon="7.49862">
        <ele>653.34997558594</ele>
        <time>2011-03-06T10:18:06Z</time>
      </trkpt>
      <trkpt lat="43.91957" lon="7.49878">
        <ele>653.83001708984</ele>
        <time>2011-03-06T10:18:16Z</time>
      </trkpt>
      <trkpt lat="43.91977" lon="7.49883">
        <ele>656.71997070312</ele>
        <time>2011-03-06T10:18:28Z</time>
      </trkpt>
      <trkpt lat="43.9199" lon="7.49879">
        <ele>658.15997314453</ele>
        <time>2011-03-06T10:18:39Z</time>
      </trkpt>
      <trkpt lat="43.92011" lon="7.49876">
        <ele>661.03997802734</ele>
        <time>2011-03-06T10:18:51Z</time>
      </trkpt>
      <trkpt lat="43.92033" lon="7.49877">
        <ele>661.52001953125</ele>
        <time>2011-03-06T10:19:03Z</time>
      </trkpt>
      <trkpt lat="43.92038" lon="7.49878">
        <ele>661.52001953125</ele>
        <time>2011-03-06T10:19:05Z</time>
      </trkpt>
      <trkpt lat="43.92045" lon="7.49889">
        <ele>659.11999511719</ele>
        <time>2011-03-06T10:19:09Z</time>
      </trkpt>
      <trkpt lat="43.92046" lon="7.49895">
        <ele>657.67999267578</ele>
        <time>2011-03-06T10:19:11Z</time>
      </trkpt>
      <trkpt lat="43.92049" lon="7.49899">
        <ele>656.23999023438</ele>
        <time>2011-03-06T10:19:13Z</time>
      </trkpt>
      <trkpt lat="43.92054" lon="7.49897">
        <ele>655.28002929688</ele>
        <time>2011-03-06T10:19:15Z</time>
      </trkpt>
      <trkpt lat="43.92057" lon="7.49892">
        <ele>653.83001708984</ele>
        <time>2011-03-06T10:19:17Z</time>
      </trkpt>
      <trkpt lat="43.92062" lon="7.49888">
        <ele>649.51000976562</ele>
        <time>2011-03-06T10:19:21Z</time>
      </trkpt>
      <trkpt lat="43.92064" lon="7.4989">
        <ele>649.51000976562</ele>
        <time>2011-03-06T10:19:22Z</time>
      </trkpt>
      <trkpt lat="43.92065" lon="7.49896">
        <ele>648.07000732422</ele>
        <time>2011-03-06T10:19:24Z</time>
      </trkpt>
      <trkpt lat="43.92065" lon="7.49902">
        <ele>646.14001464844</ele>
        <time>2011-03-06T10:19:26Z</time>
      </trkpt>
      <trkpt lat="43.92065" lon="7.49913">
        <ele>643.26000976562</ele>
        <time>2011-03-06T10:19:31Z</time>
      </trkpt>
      <trkpt lat="43.92066" lon="7.49917">
        <ele>639.89001464844</ele>
        <time>2011-03-06T10:19:33Z</time>
      </trkpt>
      <trkpt lat="43.92068" lon="7.49927">
        <ele>637.01000976562</ele>
        <time>2011-03-06T10:19:37Z</time>
      </trkpt>
      <trkpt lat="43.92068" lon="7.49936">
        <ele>635.09002685547</ele>
        <time>2011-03-06T10:19:40Z</time>
      </trkpt>
      <trkpt lat="43.92068" lon="7.4995">
        <ele>630.28002929688</ele>
        <time>2011-03-06T10:19:44Z</time>
      </trkpt>
      <trkpt lat="43.92068" lon="7.49956">
        <ele>628.35998535156</ele>
        <time>2011-03-06T10:19:46Z</time>
      </trkpt>
      <trkpt lat="43.92067" lon="7.49976">
        <ele>624.03002929688</ele>
        <time>2011-03-06T10:19:53Z</time>
      </trkpt>
      <trkpt lat="43.92067" lon="7.49978">
        <ele>624.03002929688</ele>
        <time>2011-03-06T10:19:54Z</time>
      </trkpt>
      <trkpt lat="43.92065" lon="7.49986">
        <ele>622.59002685547</ele>
        <time>2011-03-06T10:19:57Z</time>
      </trkpt>
      <trkpt lat="43.92064" lon="7.49992">
        <ele>619.22998046875</ele>
        <time>2011-03-06T10:19:59Z</time>
      </trkpt>
      <trkpt lat="43.92062" lon="7.50001">
        <ele>617.78002929688</ele>
        <time>2011-03-06T10:20:01Z</time>
      </trkpt>
      <trkpt lat="43.92061" lon="7.50005">
        <ele>615.38000488281</ele>
        <time>2011-03-06T10:20:02Z</time>
      </trkpt>
      <trkpt lat="43.92053" lon="7.50029">
        <ele>612.97998046875</ele>
        <time>2011-03-06T10:20:09Z</time>
      </trkpt>
      <trkpt lat="43.92051" lon="7.50039">
        <ele>610.09002685547</ele>
        <time>2011-03-06T10:20:12Z</time>
      </trkpt>
      <trkpt lat="43.92047" lon="7.50061">
        <ele>604.80999755859</ele>
        <time>2011-03-06T10:20:18Z</time>
      </trkpt>
      <trkpt lat="43.92051" lon="7.50062">
        <ele>602.40002441406</ele>
        <time>2011-03-06T10:20:23Z</time>
      </trkpt>
      <trkpt lat="43.92052" lon="7.50058">
        <ele>601.91998291016</ele>
        <time>2011-03-06T10:20:24Z</time>
      </trkpt>
      <trkpt lat="43.92056" lon="7.50045">
        <ele>601.91998291016</ele>
        <time>2011-03-06T10:20:27Z</time>
      </trkpt>
      <trkpt lat="43.92067" lon="7.50032">
        <ele>600.47998046875</ele>
        <time>2011-03-06T10:20:32Z</time>
      </trkpt>
      <trkpt lat="43.92075" lon="7.50026">
        <ele>599.52001953125</ele>
        <time>2011-03-06T10:20:35Z</time>
      </trkpt>
      <trkpt lat="43.9209" lon="7.50023">
        <ele>594.71002197266</ele>
        <time>2011-03-06T10:20:41Z</time>
      </trkpt>
      <trkpt lat="43.92092" lon="7.50023">
        <ele>595.66998291016</ele>
        <time>2011-03-06T10:20:42Z</time>
      </trkpt>
      <trkpt lat="43.92096" lon="7.50015">
        <ele>593.75</ele>
        <time>2011-03-06T10:20:47Z</time>
      </trkpt>
      <trkpt lat="43.92103" lon="7.50019">
        <ele>594.22998046875</ele>
        <time>2011-03-06T10:20:51Z</time>
      </trkpt>
      <trkpt lat="43.92112" lon="7.50035">
        <ele>594.22998046875</ele>
        <time>2011-03-06T10:20:56Z</time>
      </trkpt>
      <trkpt lat="43.92116" lon="7.50064">
        <ele>597.59997558594</ele>
        <time>2011-03-06T10:21:09Z</time>
      </trkpt>
      <trkpt lat="43.92122" lon="7.5008">
        <ele>595.66998291016</ele>
        <time>2011-03-06T10:21:17Z</time>
      </trkpt>
      <trkpt lat="43.9212" lon="7.50099">
        <ele>598.55999755859</ele>
        <time>2011-03-06T10:21:24Z</time>
      </trkpt>
      <trkpt lat="43.92116" lon="7.50126">
        <ele>600.47998046875</ele>
        <time>2011-03-06T10:21:35Z</time>
      </trkpt>
      <trkpt lat="43.92115" lon="7.50139">
        <ele>602.88000488281</ele>
        <time>2011-03-06T10:21:44Z</time>
      </trkpt>
      <trkpt lat="43.92117" lon="7.50144">
        <ele>603.35998535156</ele>
        <time>2011-03-06T10:21:47Z</time>
      </trkpt>
      <trkpt lat="43.92118" lon="7.50163">
        <ele>604.80999755859</ele>
        <time>2011-03-06T10:21:55Z</time>
      </trkpt>
      <trkpt lat="43.92092" lon="7.5019">
        <ele>605.28997802734</ele>
        <time>2011-03-06T10:22:09Z</time>
      </trkpt>
      <trkpt lat="43.92084" lon="7.50215">
        <ele>604.80999755859</ele>
        <time>2011-03-06T10:22:17Z</time>
      </trkpt>
      <trkpt lat="43.92094" lon="7.50246">
        <ele>604.33001708984</ele>
        <time>2011-03-06T10:22:27Z</time>
      </trkpt>
      <trkpt lat="43.92098" lon="7.50252">
        <ele>607.69000244141</ele>
        <time>2011-03-06T10:22:33Z</time>
      </trkpt>
      <trkpt lat="43.92099" lon="7.50253">
        <ele>607.69000244141</ele>
        <time>2011-03-06T10:22:34Z</time>
      </trkpt>
      <trkpt lat="43.92101" lon="7.50253">
        <ele>608.16998291016</ele>
        <time>2011-03-06T10:22:37Z</time>
      </trkpt>
      <trkpt lat="43.92104" lon="7.5026">
        <ele>610.09002685547</ele>
        <time>2011-03-06T10:22:50Z</time>
      </trkpt>
      <trkpt lat="43.92093" lon="7.50277">
        <ele>611.53997802734</ele>
        <time>2011-03-06T10:23:00Z</time>
      </trkpt>
      <trkpt lat="43.92086" lon="7.50289">
        <ele>613.46002197266</ele>
        <time>2011-03-06T10:23:09Z</time>
      </trkpt>
      <trkpt lat="43.92077" lon="7.50287">
        <ele>615.38000488281</ele>
        <time>2011-03-06T10:23:17Z</time>
      </trkpt>
      <trkpt lat="43.92071" lon="7.50287">
        <ele>615.85998535156</ele>
        <time>2011-03-06T10:23:22Z</time>
      </trkpt>
      <trkpt lat="43.92064" lon="7.5029">
        <ele>615.85998535156</ele>
        <time>2011-03-06T10:23:26Z</time>
      </trkpt>
      <trkpt lat="43.92059" lon="7.50295">
        <ele>616.82000732422</ele>
        <time>2011-03-06T10:23:29Z</time>
      </trkpt>
      <trkpt lat="43.92051" lon="7.50308">
        <ele>618.26000976562</ele>
        <time>2011-03-06T10:23:36Z</time>
      </trkpt>
      <trkpt lat="43.92046" lon="7.50317">
        <ele>619.71002197266</ele>
        <time>2011-03-06T10:23:43Z</time>
      </trkpt>
      <trkpt lat="43.92035" lon="7.50338">
        <ele>620.66998291016</ele>
        <time>2011-03-06T10:23:55Z</time>
      </trkpt>
      <trkpt lat="43.92032" lon="7.50356">
        <ele>621.15002441406</ele>
        <time>2011-03-06T10:24:02Z</time>
      </trkpt>
      <trkpt lat="43.92039" lon="7.50373">
        <ele>622.10998535156</ele>
        <time>2011-03-06T10:24:10Z</time>
      </trkpt>
      <trkpt lat="43.92034" lon="7.50382">
        <ele>623.07000732422</ele>
        <time>2011-03-06T10:24:15Z</time>
      </trkpt>
      <trkpt lat="43.92027" lon="7.5039">
        <ele>624.03002929688</ele>
        <time>2011-03-06T10:24:21Z</time>
      </trkpt>
      <trkpt lat="43.9202" lon="7.50402">
        <ele>624.98999023438</ele>
        <time>2011-03-06T10:24:28Z</time>
      </trkpt>
      <trkpt lat="43.92009" lon="7.50419">
        <ele>623.07000732422</ele>
        <time>2011-03-06T10:24:35Z</time>
      </trkpt>
      <trkpt lat="43.92008" lon="7.50453">
        <ele>623.07000732422</ele>
        <time>2011-03-06T10:24:47Z</time>
      </trkpt>
      <trkpt lat="43.92009" lon="7.50456">
        <ele>623.54998779297</ele>
        <time>2011-03-06T10:24:48Z</time>
      </trkpt>
      <trkpt lat="43.92012" lon="7.5047">
        <ele>624.51000976562</ele>
        <time>2011-03-06T10:24:55Z</time>
      </trkpt>
      <trkpt lat="43.9202" lon="7.50485">
        <ele>626.91998291016</ele>
        <time>2011-03-06T10:25:04Z</time>
      </trkpt>
      <trkpt lat="43.92022" lon="7.50499">
        <ele>627.88000488281</ele>
        <time>2011-03-06T10:25:12Z</time>
      </trkpt>
      <trkpt lat="43.92015" lon="7.50505">
        <ele>629.32000732422</ele>
        <time>2011-03-06T10:25:17Z</time>
      </trkpt>
      <trkpt lat="43.91981" lon="7.5052">
        <ele>627.40002441406</ele>
        <time>2011-03-06T10:25:31Z</time>
      </trkpt>
      <trkpt lat="43.91976" lon="7.50545">
        <ele>628.84002685547</ele>
        <time>2011-03-06T10:25:39Z</time>
      </trkpt>
      <trkpt lat="43.91972" lon="7.50554">
        <ele>626.91998291016</ele>
        <time>2011-03-06T10:25:43Z</time>
      </trkpt>
      <trkpt lat="43.91967" lon="7.50557">
        <ele>625.96002197266</ele>
        <time>2011-03-06T10:25:45Z</time>
      </trkpt>
      <trkpt lat="43.91957" lon="7.50573">
        <ele>622.59002685547</ele>
        <time>2011-03-06T10:25:51Z</time>
      </trkpt>
      <trkpt lat="43.91954" lon="7.5058">
        <ele>621.63000488281</ele>
        <time>2011-03-06T10:25:53Z</time>
      </trkpt>
      <trkpt lat="43.91949" lon="7.50586">
        <ele>620.19000244141</ele>
        <time>2011-03-06T10:25:55Z</time>
      </trkpt>
      <trkpt lat="43.91943" lon="7.50611">
        <ele>616.34002685547</ele>
        <time>2011-03-06T10:26:03Z</time>
      </trkpt>
      <trkpt lat="43.91941" lon="7.50618">
        <ele>614.90002441406</ele>
        <time>2011-03-06T10:26:05Z</time>
      </trkpt>
      <trkpt lat="43.91939" lon="7.50621">
        <ele>616.34002685547</ele>
        <time>2011-03-06T10:26:06Z</time>
      </trkpt>
      <trkpt lat="43.91935" lon="7.50627">
        <ele>615.38000488281</ele>
        <time>2011-03-06T10:26:08Z</time>
      </trkpt>
      <trkpt lat="43.91928" lon="7.50635">
        <ele>615.85998535156</ele>
        <time>2011-03-06T10:26:12Z</time>
      </trkpt>
      <trkpt lat="43.91923" lon="7.50635">
        <ele>614.90002441406</ele>
        <time>2011-03-06T10:26:14Z</time>
      </trkpt>
      <trkpt lat="43.9191" lon="7.50632">
        <ele>612.5</ele>
        <time>2011-03-06T10:26:18Z</time>
      </trkpt>
      <trkpt lat="43.919" lon="7.50625">
        <ele>609.60998535156</ele>
        <time>2011-03-06T10:26:22Z</time>
      </trkpt>
      <trkpt lat="43.91898" lon="7.50623">
        <ele>608.16998291016</ele>
        <time>2011-03-06T10:26:23Z</time>
      </trkpt>
      <trkpt lat="43.91871" lon="7.5061">
        <ele>607.69000244141</ele>
        <time>2011-03-06T10:26:33Z</time>
      </trkpt>
      <trkpt lat="43.91861" lon="7.50605">
        <ele>606.72998046875</ele>
        <time>2011-03-06T10:26:37Z</time>
      </trkpt>
      <trkpt lat="43.91843" lon="7.50623">
        <ele>606.25</ele>
        <time>2011-03-06T10:26:46Z</time>
      </trkpt>
      <trkpt lat="43.91838" lon="7.50636">
        <ele>605.28997802734</ele>
        <time>2011-03-06T10:26:50Z</time>
      </trkpt>
      <trkpt lat="43.91806" lon="7.50649">
        <ele>607.21002197266</ele>
        <time>2011-03-06T10:27:03Z</time>
      </trkpt>
      <trkpt lat="43.91787" lon="7.50651">
        <ele>604.33001708984</ele>
        <time>2011-03-06T10:27:10Z</time>
      </trkpt>
      <trkpt lat="43.9178" lon="7.50654">
        <ele>601.91998291016</ele>
        <time>2011-03-06T10:27:13Z</time>
      </trkpt>
      <trkpt lat="43.91776" lon="7.50657">
        <ele>600.96002197266</ele>
        <time>2011-03-06T10:27:15Z</time>
      </trkpt>
      <trkpt lat="43.91771" lon="7.50665">
        <ele>597.59997558594</ele>
        <time>2011-03-06T10:27:18Z</time>
      </trkpt>
      <trkpt lat="43.91763" lon="7.50676">
        <ele>595.19000244141</ele>
        <time>2011-03-06T10:27:22Z</time>
      </trkpt>
      <trkpt lat="43.91757" lon="7.50687">
        <ele>591.83001708984</ele>
        <time>2011-03-06T10:27:26Z</time>
      </trkpt>
      <trkpt lat="43.91756" lon="7.50689">
        <ele>592.30999755859</ele>
        <time>2011-03-06T10:27:27Z</time>
      </trkpt>
      <trkpt lat="43.91752" lon="7.50694">
        <ele>590.39001464844</ele>
        <time>2011-03-06T10:27:29Z</time>
      </trkpt>
      <trkpt lat="43.91736" lon="7.50709">
        <ele>590.86999511719</ele>
        <time>2011-03-06T10:27:37Z</time>
      </trkpt>
      <trkpt lat="43.91722" lon="7.50711">
        <ele>589.90997314453</ele>
        <time>2011-03-06T10:27:43Z</time>
      </trkpt>
      <trkpt lat="43.91705" lon="7.50714">
        <ele>587.97998046875</ele>
        <time>2011-03-06T10:27:50Z</time>
      </trkpt>
      <trkpt lat="43.917" lon="7.50713">
        <ele>586.05999755859</ele>
        <time>2011-03-06T10:27:52Z</time>
      </trkpt>
      <trkpt lat="43.91689" lon="7.50715">
        <ele>583.65997314453</ele>
        <time>2011-03-06T10:27:56Z</time>
      </trkpt>
      <trkpt lat="43.91687" lon="7.50717">
        <ele>582.70001220703</ele>
        <time>2011-03-06T10:27:57Z</time>
      </trkpt>
      <trkpt lat="43.91677" lon="7.50734">
        <ele>579.33001708984</ele>
        <time>2011-03-06T10:28:02Z</time>
      </trkpt>
      <trkpt lat="43.91673" lon="7.50738">
        <ele>577.89001464844</ele>
        <time>2011-03-06T10:28:04Z</time>
      </trkpt>
      <trkpt lat="43.91657" lon="7.50749">
        <ele>573.08001708984</ele>
        <time>2011-03-06T10:28:12Z</time>
      </trkpt>
      <trkpt lat="43.91649" lon="7.50751">
        <ele>571.15997314453</ele>
        <time>2011-03-06T10:28:18Z</time>
      </trkpt>
      <trkpt lat="43.91645" lon="7.5077">
        <ele>569.23999023438</ele>
        <time>2011-03-06T10:28:25Z</time>
      </trkpt>
      <trkpt lat="43.91643" lon="7.50768">
        <ele>569.23999023438</ele>
        <time>2011-03-06T10:28:26Z</time>
      </trkpt>
      <trkpt lat="43.91608" lon="7.50771">
        <ele>569.71997070312</ele>
        <time>2011-03-06T10:28:41Z</time>
      </trkpt>
      <trkpt lat="43.91592" lon="7.50783">
        <ele>569.23999023438</ele>
        <time>2011-03-06T10:28:48Z</time>
      </trkpt>
      <trkpt lat="43.91567" lon="7.50794">
        <ele>568.76000976562</ele>
        <time>2011-03-06T10:28:57Z</time>
      </trkpt>
      <trkpt lat="43.91555" lon="7.50801">
        <ele>566.83001708984</ele>
        <time>2011-03-06T10:29:03Z</time>
      </trkpt>
      <trkpt lat="43.91546" lon="7.50819">
        <ele>563.95001220703</ele>
        <time>2011-03-06T10:29:08Z</time>
      </trkpt>
      <trkpt lat="43.91536" lon="7.50848">
        <ele>560.10998535156</ele>
        <time>2011-03-06T10:29:16Z</time>
      </trkpt>
      <trkpt lat="43.91534" lon="7.50852">
        <ele>560.59002685547</ele>
        <time>2011-03-06T10:29:17Z</time>
      </trkpt>
      <trkpt lat="43.91531" lon="7.50863">
        <ele>559.61999511719</ele>
        <time>2011-03-06T10:29:20Z</time>
      </trkpt>
      <trkpt lat="43.91512" lon="7.50883">
        <ele>558.17999267578</ele>
        <time>2011-03-06T10:29:29Z</time>
      </trkpt>
      <trkpt lat="43.91505" lon="7.509">
        <ele>558.17999267578</ele>
        <time>2011-03-06T10:29:34Z</time>
      </trkpt>
      <trkpt lat="43.91482" lon="7.50922">
        <ele>558.65997314453</ele>
        <time>2011-03-06T10:29:46Z</time>
      </trkpt>
      <trkpt lat="43.91475" lon="7.50948">
        <ele>559.14001464844</ele>
        <time>2011-03-06T10:29:55Z</time>
      </trkpt>
      <trkpt lat="43.91476" lon="7.50972">
        <ele>556.26000976562</ele>
        <time>2011-03-06T10:30:00Z</time>
      </trkpt>
      <trkpt lat="43.91483" lon="7.51">
        <ele>554.82000732422</ele>
        <time>2011-03-06T10:30:09Z</time>
      </trkpt>
      <trkpt lat="43.9148" lon="7.51018">
        <ele>555.29998779297</ele>
        <time>2011-03-06T10:30:15Z</time>
      </trkpt>
      <trkpt lat="43.91476" lon="7.51049">
        <ele>553.85998535156</ele>
        <time>2011-03-06T10:30:23Z</time>
      </trkpt>
      <trkpt lat="43.91478" lon="7.5107">
        <ele>553.38000488281</ele>
        <time>2011-03-06T10:30:28Z</time>
      </trkpt>
      <trkpt lat="43.91473" lon="7.5109">
        <ele>550.48999023438</ele>
        <time>2011-03-06T10:30:34Z</time>
      </trkpt>
      <trkpt lat="43.91466" lon="7.51107">
        <ele>545.69000244141</ele>
        <time>2011-03-06T10:30:41Z</time>
      </trkpt>
      <trkpt lat="43.91468" lon="7.51113">
        <ele>544.71997070312</ele>
        <time>2011-03-06T10:30:43Z</time>
      </trkpt>
      <trkpt lat="43.91473" lon="7.51119">
        <ele>544.23999023438</ele>
        <time>2011-03-06T10:30:45Z</time>
      </trkpt>
      <trkpt lat="43.9148" lon="7.51124">
        <ele>543.28002929688</ele>
        <time>2011-03-06T10:30:48Z</time>
      </trkpt>
      <trkpt lat="43.91487" lon="7.51133">
        <ele>539.91998291016</ele>
        <time>2011-03-06T10:30:53Z</time>
      </trkpt>
      <trkpt lat="43.91499" lon="7.51142">
        <ele>539.91998291016</ele>
        <time>2011-03-06T10:30:58Z</time>
      </trkpt>
      <trkpt lat="43.91529" lon="7.51132">
        <ele>540.40002441406</ele>
        <time>2011-03-06T10:31:11Z</time>
      </trkpt>
      <trkpt lat="43.91552" lon="7.51117">
        <ele>539.44000244141</ele>
        <time>2011-03-06T10:31:21Z</time>
      </trkpt>
      <trkpt lat="43.91558" lon="7.51115">
        <ele>537.98999023438</ele>
        <time>2011-03-06T10:31:24Z</time>
      </trkpt>
      <trkpt lat="43.91575" lon="7.5113">
        <ele>535.10998535156</ele>
        <time>2011-03-06T10:31:32Z</time>
      </trkpt>
      <trkpt lat="43.91591" lon="7.5112">
        <ele>534.15002441406</ele>
        <time>2011-03-06T10:31:39Z</time>
      </trkpt>
      <trkpt lat="43.91595" lon="7.51116">
        <ele>532.22998046875</ele>
        <time>2011-03-06T10:31:41Z</time>
      </trkpt>
      <trkpt lat="43.91602" lon="7.51111">
        <ele>530.78997802734</ele>
        <time>2011-03-06T10:31:44Z</time>
      </trkpt>
      <trkpt lat="43.91624" lon="7.51096">
        <ele>527.90002441406</ele>
        <time>2011-03-06T10:31:52Z</time>
      </trkpt>
      <trkpt lat="43.9163" lon="7.51094">
        <ele>526.94000244141</ele>
        <time>2011-03-06T10:31:54Z</time>
      </trkpt>
      <trkpt lat="43.91657" lon="7.51091">
        <ele>524.05999755859</ele>
        <time>2011-03-06T10:32:03Z</time>
      </trkpt>
      <trkpt lat="43.91672" lon="7.51089">
        <ele>523.09002685547</ele>
        <time>2011-03-06T10:32:09Z</time>
      </trkpt>
      <trkpt lat="43.91689" lon="7.51102">
        <ele>524.53997802734</ele>
        <time>2011-03-06T10:32:17Z</time>
      </trkpt>
      <trkpt lat="43.9171" lon="7.51088">
        <ele>524.53997802734</ele>
        <time>2011-03-06T10:32:28Z</time>
      </trkpt>
      <trkpt lat="43.91713" lon="7.51086">
        <ele>523.58001708984</ele>
        <time>2011-03-06T10:32:29Z</time>
      </trkpt>
      <trkpt lat="43.91726" lon="7.51077">
        <ele>523.58001708984</ele>
        <time>2011-03-06T10:32:34Z</time>
      </trkpt>
      <trkpt lat="43.91748" lon="7.5107">
        <ele>522.60998535156</ele>
        <time>2011-03-06T10:32:41Z</time>
      </trkpt>
      <trkpt lat="43.91782" lon="7.51073">
        <ele>523.09002685547</ele>
        <time>2011-03-06T10:32:54Z</time>
      </trkpt>
      <trkpt lat="43.91812" lon="7.51065">
        <ele>523.58001708984</ele>
        <time>2011-03-06T10:33:05Z</time>
      </trkpt>
      <trkpt lat="43.91817" lon="7.51064">
        <ele>524.53997802734</ele>
        <time>2011-03-06T10:33:09Z</time>
      </trkpt>
      <trkpt lat="43.91827" lon="7.51059">
        <ele>527.41998291016</ele>
        <time>2011-03-06T10:33:18Z</time>
      </trkpt>
      <trkpt lat="43.91845" lon="7.51075">
        <ele>528.38000488281</ele>
        <time>2011-03-06T10:33:29Z</time>
      </trkpt>
      <trkpt lat="43.91854" lon="7.51084">
        <ele>530.78997802734</ele>
        <time>2011-03-06T10:33:36Z</time>
      </trkpt>
      <trkpt lat="43.91859" lon="7.51086">
        <ele>530.78997802734</ele>
        <time>2011-03-06T10:33:40Z</time>
      </trkpt>
      <trkpt lat="43.91889" lon="7.51087">
        <ele>529.34002685547</ele>
        <time>2011-03-06T10:33:53Z</time>
      </trkpt>
      <trkpt lat="43.91902" lon="7.51097">
        <ele>530.29998779297</ele>
        <time>2011-03-06T10:33:59Z</time>
      </trkpt>
      <trkpt lat="43.91909" lon="7.51098">
        <ele>530.29998779297</ele>
        <time>2011-03-06T10:34:04Z</time>
      </trkpt>
      <trkpt lat="43.91925" lon="7.51084">
        <ele>529.34002685547</ele>
        <time>2011-03-06T10:34:12Z</time>
      </trkpt>
      <trkpt lat="43.91939" lon="7.51069">
        <ele>530.78997802734</ele>
        <time>2011-03-06T10:34:19Z</time>
      </trkpt>
      <trkpt lat="43.9196" lon="7.51074">
        <ele>530.29998779297</ele>
        <time>2011-03-06T10:34:31Z</time>
      </trkpt>
      <trkpt lat="43.91969" lon="7.51077">
        <ele>528.85998535156</ele>
        <time>2011-03-06T10:34:35Z</time>
      </trkpt>
      <trkpt lat="43.91975" lon="7.51075">
        <ele>528.38000488281</ele>
        <time>2011-03-06T10:34:37Z</time>
      </trkpt>
      <trkpt lat="43.91989" lon="7.51076">
        <ele>525.97998046875</ele>
        <time>2011-03-06T10:34:42Z</time>
      </trkpt>
      <trkpt lat="43.91995" lon="7.51078">
        <ele>525.02001953125</ele>
        <time>2011-03-06T10:34:44Z</time>
      </trkpt>
      <trkpt lat="43.92007" lon="7.51077">
        <ele>523.58001708984</ele>
        <time>2011-03-06T10:34:48Z</time>
      </trkpt>
      <trkpt lat="43.92014" lon="7.51079">
        <ele>524.05999755859</ele>
        <time>2011-03-06T10:34:51Z</time>
      </trkpt>
      <trkpt lat="43.9202" lon="7.51088">
        <ele>522.60998535156</ele>
        <time>2011-03-06T10:34:55Z</time>
      </trkpt>
      <trkpt lat="43.92054" lon="7.51116">
        <ele>521.16998291016</ele>
        <time>2011-03-06T10:35:08Z</time>
      </trkpt>
      <trkpt lat="43.9207" lon="7.5112">
        <ele>519.25</ele>
        <time>2011-03-06T10:35:14Z</time>
      </trkpt>
      <trkpt lat="43.92077" lon="7.51122">
        <ele>519.72998046875</ele>
        <time>2011-03-06T10:35:17Z</time>
      </trkpt>
      <trkpt lat="43.92093" lon="7.51132">
        <ele>515.88000488281</ele>
        <time>2011-03-06T10:35:24Z</time>
      </trkpt>
      <trkpt lat="43.92116" lon="7.51142">
        <ele>515.40002441406</ele>
        <time>2011-03-06T10:35:33Z</time>
      </trkpt>
      <trkpt lat="43.92145" lon="7.51125">
        <ele>513</ele>
        <time>2011-03-06T10:35:44Z</time>
      </trkpt>
      <trkpt lat="43.92162" lon="7.51151">
        <ele>513.96002197266</ele>
        <time>2011-03-06T10:35:54Z</time>
      </trkpt>
      <trkpt lat="43.92169" lon="7.51194">
        <ele>510.60000610352</ele>
        <time>2011-03-06T10:36:05Z</time>
      </trkpt>
      <trkpt lat="43.92177" lon="7.51219">
        <ele>508.19000244141</ele>
        <time>2011-03-06T10:36:11Z</time>
      </trkpt>
      <trkpt lat="43.92183" lon="7.5123">
        <ele>505.79000854492</ele>
        <time>2011-03-06T10:36:14Z</time>
      </trkpt>
      <trkpt lat="43.92193" lon="7.51241">
        <ele>503.39001464844</ele>
        <time>2011-03-06T10:36:18Z</time>
      </trkpt>
      <trkpt lat="43.92209" lon="7.51255">
        <ele>500.5</ele>
        <time>2011-03-06T10:36:24Z</time>
      </trkpt>
      <trkpt lat="43.92226" lon="7.51269">
        <ele>497.14001464844</ele>
        <time>2011-03-06T10:36:30Z</time>
      </trkpt>
      <trkpt lat="43.92228" lon="7.51272">
        <ele>497.14001464844</ele>
        <time>2011-03-06T10:36:31Z</time>
      </trkpt>
      <trkpt lat="43.92247" lon="7.51285">
        <ele>493.76998901367</ele>
        <time>2011-03-06T10:36:37Z</time>
      </trkpt>
      <trkpt lat="43.92271" lon="7.51293">
        <ele>492.32998657227</ele>
        <time>2011-03-06T10:36:45Z</time>
      </trkpt>
      <trkpt lat="43.923" lon="7.51328">
        <ele>487.5299987793</ele>
        <time>2011-03-06T10:36:57Z</time>
      </trkpt>
      <trkpt lat="43.92303" lon="7.5133">
        <ele>487.04998779297</ele>
        <time>2011-03-06T10:36:58Z</time>
      </trkpt>
      <trkpt lat="43.9231" lon="7.51334">
        <ele>485.11999511719</ele>
        <time>2011-03-06T10:37:00Z</time>
      </trkpt>
      <trkpt lat="43.92322" lon="7.51344">
        <ele>483.20001220703</ele>
        <time>2011-03-06T10:37:04Z</time>
      </trkpt>
      <trkpt lat="43.92329" lon="7.51357">
        <ele>481.76000976562</ele>
        <time>2011-03-06T10:37:07Z</time>
      </trkpt>
      <trkpt lat="43.92345" lon="7.51402">
        <ele>481.2799987793</ele>
        <time>2011-03-06T10:37:18Z</time>
      </trkpt>
      <trkpt lat="43.92389" lon="7.51416">
        <ele>478.39001464844</ele>
        <time>2011-03-06T10:37:33Z</time>
      </trkpt>
      <trkpt lat="43.92435" lon="7.51415">
        <ele>475.98999023438</ele>
        <time>2011-03-06T10:37:48Z</time>
      </trkpt>
      <trkpt lat="43.92472" lon="7.51403">
        <ele>475.51000976562</ele>
        <time>2011-03-06T10:38:01Z</time>
      </trkpt>
      <trkpt lat="43.92508" lon="7.5138">
        <ele>473.10998535156</ele>
        <time>2011-03-06T10:38:14Z</time>
      </trkpt>
      <trkpt lat="43.92525" lon="7.51366">
        <ele>471.17999267578</ele>
        <time>2011-03-06T10:38:20Z</time>
      </trkpt>
      <trkpt lat="43.92542" lon="7.51351">
        <ele>468.7799987793</ele>
        <time>2011-03-06T10:38:26Z</time>
      </trkpt>
      <trkpt lat="43.9257" lon="7.51326">
        <ele>467.82000732422</ele>
        <time>2011-03-06T10:38:37Z</time>
      </trkpt>
      <trkpt lat="43.92596" lon="7.513">
        <ele>466.85998535156</ele>
        <time>2011-03-06T10:38:48Z</time>
      </trkpt>
      <trkpt lat="43.92608" lon="7.51258">
        <ele>465.42001342773</ele>
        <time>2011-03-06T10:38:59Z</time>
      </trkpt>
      <trkpt lat="43.92608" lon="7.51253">
        <ele>465.42001342773</ele>
        <time>2011-03-06T10:39:00Z</time>
      </trkpt>
      <trkpt lat="43.92619" lon="7.51225">
        <ele>463.48999023438</ele>
        <time>2011-03-06T10:39:08Z</time>
      </trkpt>
      <trkpt lat="43.9262" lon="7.51221">
        <ele>463.48999023438</ele>
        <time>2011-03-06T10:39:09Z</time>
      </trkpt>
      <trkpt lat="43.92631" lon="7.51219">
        <ele>463.01000976562</ele>
        <time>2011-03-06T10:39:14Z</time>
      </trkpt>
      <trkpt lat="43.92647" lon="7.51265">
        <ele>463.01000976562</ele>
        <time>2011-03-06T10:39:27Z</time>
      </trkpt>
      <trkpt lat="43.92658" lon="7.51313">
        <ele>461.57000732422</ele>
        <time>2011-03-06T10:39:39Z</time>
      </trkpt>
      <trkpt lat="43.92672" lon="7.51349">
        <ele>460.60998535156</ele>
        <time>2011-03-06T10:39:49Z</time>
      </trkpt>
      <trkpt lat="43.92685" lon="7.5139">
        <ele>461.57000732422</ele>
        <time>2011-03-06T10:40:01Z</time>
      </trkpt>
      <trkpt lat="43.92686" lon="7.51439">
        <ele>462.5299987793</ele>
        <time>2011-03-06T10:40:15Z</time>
      </trkpt>
      <trkpt lat="43.9269" lon="7.51488">
        <ele>463.01000976562</ele>
        <time>2011-03-06T10:40:28Z</time>
      </trkpt>
      <trkpt lat="43.9269" lon="7.51516">
        <ele>461.57000732422</ele>
        <time>2011-03-06T10:40:35Z</time>
      </trkpt>
      <trkpt lat="43.92689" lon="7.51573">
        <ele>459.64999389648</ele>
        <time>2011-03-06T10:40:48Z</time>
      </trkpt>
      <trkpt lat="43.92684" lon="7.51623">
        <ele>457.23999023438</ele>
        <time>2011-03-06T10:41:00Z</time>
      </trkpt>
      <trkpt lat="43.92701" lon="7.51651">
        <ele>457.7200012207</ele>
        <time>2011-03-06T10:41:10Z</time>
      </trkpt>
      <trkpt lat="43.92737" lon="7.51652">
        <ele>458.20999145508</ele>
        <time>2011-03-06T10:41:23Z</time>
      </trkpt>
      <trkpt lat="43.92771" lon="7.51661">
        <ele>457.7200012207</ele>
        <time>2011-03-06T10:41:36Z</time>
      </trkpt>
      <trkpt lat="43.92794" lon="7.51694">
        <ele>456.76000976562</ele>
        <time>2011-03-06T10:41:47Z</time>
      </trkpt>
      <trkpt lat="43.92799" lon="7.51698">
        <ele>456.2799987793</ele>
        <time>2011-03-06T10:41:49Z</time>
      </trkpt>
      <trkpt lat="43.92809" lon="7.51698">
        <ele>451.95999145508</ele>
        <time>2011-03-06T10:41:55Z</time>
      </trkpt>
      <trkpt lat="43.92812" lon="7.51703">
        <ele>451</ele>
        <time>2011-03-06T10:41:57Z</time>
      </trkpt>
      <trkpt lat="43.92821" lon="7.51706">
        <ele>449.07000732422</ele>
        <time>2011-03-06T10:42:01Z</time>
      </trkpt>
      <trkpt lat="43.92828" lon="7.51699">
        <ele>446.67001342773</ele>
        <time>2011-03-06T10:42:04Z</time>
      </trkpt>
      <trkpt lat="43.92837" lon="7.51688">
        <ele>443.79000854492</ele>
        <time>2011-03-06T10:42:08Z</time>
      </trkpt>
      <trkpt lat="43.92843" lon="7.5168">
        <ele>439.94000244141</ele>
        <time>2011-03-06T10:42:11Z</time>
      </trkpt>
      <trkpt lat="43.92849" lon="7.51672">
        <ele>438.5</ele>
        <time>2011-03-06T10:42:14Z</time>
      </trkpt>
      <trkpt lat="43.92858" lon="7.51662">
        <ele>434.64999389648</ele>
        <time>2011-03-06T10:42:18Z</time>
      </trkpt>
      <trkpt lat="43.92861" lon="7.51656">
        <ele>432.73001098633</ele>
        <time>2011-03-06T10:42:20Z</time>
      </trkpt>
      <trkpt lat="43.92871" lon="7.51645">
        <ele>428.39999389648</ele>
        <time>2011-03-06T10:42:25Z</time>
      </trkpt>
      <trkpt lat="43.92879" lon="7.5164">
        <ele>425.04000854492</ele>
        <time>2011-03-06T10:42:28Z</time>
      </trkpt>
      <trkpt lat="43.92882" lon="7.51639">
        <ele>425.04000854492</ele>
        <time>2011-03-06T10:42:29Z</time>
      </trkpt>
      <trkpt lat="43.9289" lon="7.51636">
        <ele>423.11999511719</ele>
        <time>2011-03-06T10:42:32Z</time>
      </trkpt>
      <trkpt lat="43.92894" lon="7.51634">
        <ele>422.16000366211</ele>
        <time>2011-03-06T10:42:34Z</time>
      </trkpt>
      <trkpt lat="43.92906" lon="7.51628">
        <ele>418.30999755859</ele>
        <time>2011-03-06T10:42:39Z</time>
      </trkpt>
      <trkpt lat="43.92915" lon="7.51623">
        <ele>415.91000366211</ele>
        <time>2011-03-06T10:42:43Z</time>
      </trkpt>
      <trkpt lat="43.92922" lon="7.51616">
        <ele>414.4700012207</ele>
        <time>2011-03-06T10:42:46Z</time>
      </trkpt>
      <trkpt lat="43.92926" lon="7.51612">
        <ele>413.5</ele>
        <time>2011-03-06T10:42:48Z</time>
      </trkpt>
      <trkpt lat="43.92939" lon="7.51597">
        <ele>410.14001464844</ele>
        <time>2011-03-06T10:42:54Z</time>
      </trkpt>
      <trkpt lat="43.92957" lon="7.51573">
        <ele>406.29000854492</ele>
        <time>2011-03-06T10:43:03Z</time>
      </trkpt>
      <trkpt lat="43.92977" lon="7.51554">
        <ele>402.92999267578</ele>
        <time>2011-03-06T10:43:12Z</time>
      </trkpt>
      <trkpt lat="43.92997" lon="7.51541">
        <ele>399.07998657227</ele>
        <time>2011-03-06T10:43:20Z</time>
      </trkpt>
      <trkpt lat="43.92999" lon="7.51539">
        <ele>399.57000732422</ele>
        <time>2011-03-06T10:43:21Z</time>
      </trkpt>
      <trkpt lat="43.93006" lon="7.51534">
        <ele>398.11999511719</ele>
        <time>2011-03-06T10:43:24Z</time>
      </trkpt>
      <trkpt lat="43.93013" lon="7.51527">
        <ele>396.20001220703</ele>
        <time>2011-03-06T10:43:27Z</time>
      </trkpt>
      <trkpt lat="43.93026" lon="7.51504">
        <ele>392.35998535156</ele>
        <time>2011-03-06T10:43:35Z</time>
      </trkpt>
      <trkpt lat="43.93028" lon="7.51501">
        <ele>392.83999633789</ele>
        <time>2011-03-06T10:43:36Z</time>
      </trkpt>
      <trkpt lat="43.93043" lon="7.5148">
        <ele>391.39001464844</ele>
        <time>2011-03-06T10:43:44Z</time>
      </trkpt>
      <trkpt lat="43.93059" lon="7.51442">
        <ele>390.91000366211</ele>
        <time>2011-03-06T10:43:56Z</time>
      </trkpt>
      <trkpt lat="43.93059" lon="7.51439">
        <ele>390.91000366211</ele>
        <time>2011-03-06T10:43:57Z</time>
      </trkpt>
      <trkpt lat="43.93061" lon="7.51428">
        <ele>389.4700012207</ele>
        <time>2011-03-06T10:44:01Z</time>
      </trkpt>
      <trkpt lat="43.93065" lon="7.51429">
        <ele>390.42999267578</ele>
        <time>2011-03-06T10:44:03Z</time>
      </trkpt>
      <trkpt lat="43.9309" lon="7.51443">
        <ele>392.83999633789</ele>
        <time>2011-03-06T10:44:15Z</time>
      </trkpt>
      <trkpt lat="43.93105" lon="7.51459">
        <ele>392.83999633789</ele>
        <time>2011-03-06T10:44:23Z</time>
      </trkpt>
      <trkpt lat="43.93113" lon="7.51468">
        <ele>393.79998779297</ele>
        <time>2011-03-06T10:44:28Z</time>
      </trkpt>
      <trkpt lat="43.93143" lon="7.51487">
        <ele>395.23999023438</ele>
        <time>2011-03-06T10:44:41Z</time>
      </trkpt>
      <trkpt lat="43.93161" lon="7.51497">
        <ele>392.83999633789</ele>
        <time>2011-03-06T10:44:48Z</time>
      </trkpt>
      <trkpt lat="43.93166" lon="7.51501">
        <ele>392.35998535156</ele>
        <time>2011-03-06T10:44:50Z</time>
      </trkpt>
      <trkpt lat="43.93177" lon="7.51513">
        <ele>390.91000366211</ele>
        <time>2011-03-06T10:44:55Z</time>
      </trkpt>
      <trkpt lat="43.93217" lon="7.51527">
        <ele>391.86999511719</ele>
        <time>2011-03-06T10:45:10Z</time>
      </trkpt>
      <trkpt lat="43.93237" lon="7.51539">
        <ele>390.91000366211</ele>
        <time>2011-03-06T10:45:18Z</time>
      </trkpt>
      <trkpt lat="43.93264" lon="7.51516">
        <ele>388.98999023438</ele>
        <time>2011-03-06T10:45:29Z</time>
      </trkpt>
      <trkpt lat="43.9329" lon="7.51505">
        <ele>387.07000732422</ele>
        <time>2011-03-06T10:45:39Z</time>
      </trkpt>
      <trkpt lat="43.93294" lon="7.515">
        <ele>385.14999389648</ele>
        <time>2011-03-06T10:45:41Z</time>
      </trkpt>
      <trkpt lat="43.93303" lon="7.51494">
        <ele>384.66000366211</ele>
        <time>2011-03-06T10:45:45Z</time>
      </trkpt>
      <trkpt lat="43.93319" lon="7.51497">
        <ele>385.14999389648</ele>
        <time>2011-03-06T10:45:51Z</time>
      </trkpt>
      <trkpt lat="43.93322" lon="7.515">
        <ele>383.70001220703</ele>
        <time>2011-03-06T10:45:52Z</time>
      </trkpt>
      <trkpt lat="43.9336" lon="7.51527">
        <ele>379.85998535156</ele>
        <time>2011-03-06T10:46:07Z</time>
      </trkpt>
      <trkpt lat="43.93384" lon="7.51551">
        <ele>379.38000488281</ele>
        <time>2011-03-06T10:46:17Z</time>
      </trkpt>
      <trkpt lat="43.93395" lon="7.51561">
        <ele>377.45001220703</ele>
        <time>2011-03-06T10:46:22Z</time>
      </trkpt>
      <trkpt lat="43.93426" lon="7.5159">
        <ele>375.04998779297</ele>
        <time>2011-03-06T10:46:34Z</time>
      </trkpt>
      <trkpt lat="43.93431" lon="7.51594">
        <ele>374.57000732422</ele>
        <time>2011-03-06T10:46:36Z</time>
      </trkpt>
      <trkpt lat="43.93437" lon="7.51586">
        <ele>372.17001342773</ele>
        <time>2011-03-06T10:46:42Z</time>
      </trkpt>
      <trkpt lat="43.93443" lon="7.51591">
        <ele>368.79998779297</ele>
        <time>2011-03-06T10:46:47Z</time>
      </trkpt>
      <trkpt lat="43.93446" lon="7.51595">
        <ele>368.32000732422</ele>
        <time>2011-03-06T10:46:49Z</time>
      </trkpt>
      <trkpt lat="43.93446" lon="7.51585">
        <ele>365.92001342773</ele>
        <time>2011-03-06T10:46:53Z</time>
      </trkpt>
      <trkpt lat="43.93444" lon="7.51552">
        <ele>362.07000732422</ele>
        <time>2011-03-06T10:47:00Z</time>
      </trkpt>
      <trkpt lat="43.93444" lon="7.51547">
        <ele>362.54998779297</ele>
        <time>2011-03-06T10:47:01Z</time>
      </trkpt>
      <trkpt lat="43.93443" lon="7.51515">
        <ele>359.19000244141</ele>
        <time>2011-03-06T10:47:08Z</time>
      </trkpt>
      <trkpt lat="43.93443" lon="7.51511">
        <ele>359.19000244141</ele>
        <time>2011-03-06T10:47:09Z</time>
      </trkpt>
      <trkpt lat="43.93441" lon="7.515">
        <ele>357.75</ele>
        <time>2011-03-06T10:47:12Z</time>
      </trkpt>
      <trkpt lat="43.93442" lon="7.51484">
        <ele>354.38000488281</ele>
        <time>2011-03-06T10:47:16Z</time>
      </trkpt>
      <trkpt lat="43.93444" lon="7.5147">
        <ele>353.42001342773</ele>
        <time>2011-03-06T10:47:19Z</time>
      </trkpt>
      <trkpt lat="43.93444" lon="7.51444">
        <ele>350.54000854492</ele>
        <time>2011-03-06T10:47:25Z</time>
      </trkpt>
      <trkpt lat="43.93444" lon="7.51421">
        <ele>346.69000244141</ele>
        <time>2011-03-06T10:47:32Z</time>
      </trkpt>
      <trkpt lat="43.93447" lon="7.51417">
        <ele>346.20999145508</ele>
        <time>2011-03-06T10:47:33Z</time>
      </trkpt>
      <trkpt lat="43.93466" lon="7.51393">
        <ele>342.36999511719</ele>
        <time>2011-03-06T10:47:40Z</time>
      </trkpt>
      <trkpt lat="43.93468" lon="7.51391">
        <ele>342.36999511719</ele>
        <time>2011-03-06T10:47:41Z</time>
      </trkpt>
      <trkpt lat="43.93475" lon="7.51388">
        <ele>340.92001342773</ele>
        <time>2011-03-06T10:47:43Z</time>
      </trkpt>
      <trkpt lat="43.9349" lon="7.5138">
        <ele>340.44000244141</ele>
        <time>2011-03-06T10:47:49Z</time>
      </trkpt>
      <trkpt lat="43.93489" lon="7.51365">
        <ele>340.44000244141</ele>
        <time>2011-03-06T10:47:52Z</time>
      </trkpt>
      <trkpt lat="43.93493" lon="7.51352">
        <ele>338.51998901367</ele>
        <time>2011-03-06T10:47:56Z</time>
      </trkpt>
      <trkpt lat="43.93497" lon="7.5135">
        <ele>337.55999755859</ele>
        <time>2011-03-06T10:47:58Z</time>
      </trkpt>
      <trkpt lat="43.93501" lon="7.51346">
        <ele>336.11999511719</ele>
        <time>2011-03-06T10:48:01Z</time>
      </trkpt>
      <trkpt lat="43.93503" lon="7.5134">
        <ele>334.67999267578</ele>
        <time>2011-03-06T10:48:03Z</time>
      </trkpt>
      <trkpt lat="43.93505" lon="7.51334">
        <ele>334.20001220703</ele>
        <time>2011-03-06T10:48:05Z</time>
      </trkpt>
      <trkpt lat="43.93512" lon="7.51326">
        <ele>333.23001098633</ele>
        <time>2011-03-06T10:48:08Z</time>
      </trkpt>
      <trkpt lat="43.93524" lon="7.5132">
        <ele>330.35000610352</ele>
        <time>2011-03-06T10:48:12Z</time>
      </trkpt>
      <trkpt lat="43.93529" lon="7.51323">
        <ele>328.91000366211</ele>
        <time>2011-03-06T10:48:15Z</time>
      </trkpt>
      <trkpt lat="43.93523" lon="7.51327">
        <ele>325.54000854492</ele>
        <time>2011-03-06T10:48:19Z</time>
      </trkpt>
      <trkpt lat="43.93513" lon="7.51337">
        <ele>320.73999023438</ele>
        <time>2011-03-06T10:48:23Z</time>
      </trkpt>
      <trkpt lat="43.93512" lon="7.5134">
        <ele>321.2200012207</ele>
        <time>2011-03-06T10:48:24Z</time>
      </trkpt>
      <trkpt lat="43.9351" lon="7.51351">
        <ele>318.80999755859</ele>
        <time>2011-03-06T10:48:27Z</time>
      </trkpt>
      <trkpt lat="43.93516" lon="7.51349">
        <ele>317.36999511719</ele>
        <time>2011-03-06T10:48:32Z</time>
      </trkpt>
      <trkpt lat="43.93527" lon="7.51343">
        <ele>314.9700012207</ele>
        <time>2011-03-06T10:48:36Z</time>
      </trkpt>
      <trkpt lat="43.93533" lon="7.51342">
        <ele>313.04998779297</ele>
        <time>2011-03-06T10:48:38Z</time>
      </trkpt>
      <trkpt lat="43.93541" lon="7.51339">
        <ele>310.64001464844</ele>
        <time>2011-03-06T10:48:41Z</time>
      </trkpt>
      <trkpt lat="43.93551" lon="7.51333">
        <ele>307.2799987793</ele>
        <time>2011-03-06T10:48:45Z</time>
      </trkpt>
      <trkpt lat="43.93562" lon="7.51331">
        <ele>304.39001464844</ele>
        <time>2011-03-06T10:48:49Z</time>
      </trkpt>
      <trkpt lat="43.93574" lon="7.51329">
        <ele>301.98999023438</ele>
        <time>2011-03-06T10:48:54Z</time>
      </trkpt>
      <trkpt lat="43.93571" lon="7.51336">
        <ele>300.54998779297</ele>
        <time>2011-03-06T10:48:59Z</time>
      </trkpt>
      <trkpt lat="43.93555" lon="7.51348">
        <ele>297.17999267578</ele>
        <time>2011-03-06T10:49:04Z</time>
      </trkpt>
      <trkpt lat="43.93535" lon="7.51371">
        <ele>293.82000732422</ele>
        <time>2011-03-06T10:49:13Z</time>
      </trkpt>
      <trkpt lat="43.93532" lon="7.51374">
        <ele>293.33999633789</ele>
        <time>2011-03-06T10:49:14Z</time>
      </trkpt>
      <trkpt lat="43.93529" lon="7.51378">
        <ele>292.38000488281</ele>
        <time>2011-03-06T10:49:16Z</time>
      </trkpt>
      <trkpt lat="43.93528" lon="7.51378">
        <ele>291.89999389648</ele>
        <time>2011-03-06T10:49:17Z</time>
      </trkpt>
      <trkpt lat="43.93545" lon="7.51365">
        <ele>289.01000976562</ele>
        <time>2011-03-06T10:49:23Z</time>
      </trkpt>
      <trkpt lat="43.93562" lon="7.51354">
        <ele>285.17001342773</ele>
        <time>2011-03-06T10:49:28Z</time>
      </trkpt>
      <trkpt lat="43.93584" lon="7.51364">
        <ele>284.20999145508</ele>
        <time>2011-03-06T10:49:35Z</time>
      </trkpt>
      <trkpt lat="43.93593" lon="7.5136">
        <ele>283.25</ele>
        <time>2011-03-06T10:49:39Z</time>
      </trkpt>
      <trkpt lat="43.93605" lon="7.51307">
        <ele>279.39999389648</ele>
        <time>2011-03-06T10:49:48Z</time>
      </trkpt>
      <trkpt lat="43.93607" lon="7.51303">
        <ele>279.39999389648</ele>
        <time>2011-03-06T10:49:49Z</time>
      </trkpt>
      <trkpt lat="43.93633" lon="7.5126">
        <ele>279.39999389648</ele>
        <time>2011-03-06T10:50:00Z</time>
      </trkpt>
      <trkpt lat="43.93651" lon="7.51244">
        <ele>278.92001342773</ele>
        <time>2011-03-06T10:50:06Z</time>
      </trkpt>
    </trkseg>
  </trk>
</gpx>